<?xml version="1.0" encoding="UTF-8" standalone="no" ?>
<gpx xmlns="http://www.topografix.com/GPX/1/1" xmlns:xsi="http://www.w3.org/2001/XMLSchema-instance" xsi:schemaLocation="http://www.topografix.com/GPX/1/1 http://www.topografix.com/GPX/1/1/gpx.xsd" version="1.1" creator="VisuGPX - https://www.visugpx.com">
  <metadata>
    <name>238_Circuit 77 km Les Herbiers_Les Herbiers édité par cth85.com</name>
    <desc><![CDATA[Circuit de 77 km passant par:
Les Herbiers
D23 Saint Paul en Pareds
la chambaudière, l'épaux
Saint Michel Mont Mercure
Pouzauges par l'ancienne route
D752 direction Réaumur sur 7 km
à gauche, D8 Montournais
D8 Saint Mesmin
D27 La Pommeraie sur Sèvre
D27, à gauche Châteaumur
D64 La Flocelière
D9A, la sicotière, la chagnais
Le Boupère
D79 la croix bara
D755 Les Herbiers]]></desc>
  </metadata>
  <trk>
    <name><![CDATA[77_238-17543052]]></name>
    <trkseg>
      <trkpt lat="46.86386" lon="-1.00559">
        <ele>120</ele>
        <time>2023-08-30T14:59:35Z</time>
      </trkpt>
      <trkpt lat="46.86324" lon="-1.00626">
        <ele>119</ele>
        <time>2023-08-30T14:59:49Z</time>
      </trkpt>
      <trkpt lat="46.86271" lon="-1.00663">
        <ele>118</ele>
        <time>2023-08-30T14:59:59Z</time>
      </trkpt>
      <trkpt lat="46.86183" lon="-1.00705">
        <ele>116</ele>
        <time>2023-08-30T15:00:16Z</time>
      </trkpt>
      <trkpt lat="46.86141" lon="-1.00728">
        <ele>116</ele>
        <time>2023-08-30T15:00:24Z</time>
      </trkpt>
      <trkpt lat="46.86095" lon="-1.00768">
        <ele>115</ele>
        <time>2023-08-30T15:00:33Z</time>
      </trkpt>
      <trkpt lat="46.86071" lon="-1.00794">
        <ele>114</ele>
        <time>2023-08-30T15:00:38Z</time>
      </trkpt>
      <trkpt lat="46.85999" lon="-1.00892">
        <ele>112</ele>
        <time>2023-08-30T15:00:56Z</time>
      </trkpt>
      <trkpt lat="46.85979" lon="-1.00924">
        <ele>112</ele>
        <time>2023-08-30T15:01:01Z</time>
      </trkpt>
      <trkpt lat="46.85956" lon="-1.00964">
        <ele>113</ele>
        <time>2023-08-30T15:01:08Z</time>
      </trkpt>
      <trkpt lat="46.85951" lon="-1.00979">
        <ele>113</ele>
        <time>2023-08-30T15:01:10Z</time>
      </trkpt>
      <trkpt lat="46.85879" lon="-1.00946">
        <ele>113</ele>
        <time>2023-08-30T15:01:23Z</time>
      </trkpt>
      <trkpt lat="46.85858" lon="-1.00941">
        <ele>113</ele>
        <time>2023-08-30T15:01:27Z</time>
      </trkpt>
      <trkpt lat="46.85854" lon="-1.00943">
        <ele>113</ele>
        <time>2023-08-30T15:01:28Z</time>
      </trkpt>
      <trkpt lat="46.85846" lon="-1.00942">
        <ele>113</ele>
        <time>2023-08-30T15:01:29Z</time>
      </trkpt>
      <trkpt lat="46.85839" lon="-1.00934">
        <ele>113</ele>
        <time>2023-08-30T15:01:31Z</time>
      </trkpt>
      <trkpt lat="46.85837" lon="-1.00923">
        <ele>113</ele>
        <time>2023-08-30T15:01:32Z</time>
      </trkpt>
      <trkpt lat="46.85838" lon="-1.00917">
        <ele>113</ele>
        <time>2023-08-30T15:01:33Z</time>
      </trkpt>
      <trkpt lat="46.8569" lon="-1.00829">
        <ele>112</ele>
        <time>2023-08-30T15:02:01Z</time>
      </trkpt>
      <trkpt lat="46.85562" lon="-1.00711">
        <ele>108</ele>
        <time>2023-08-30T15:02:28Z</time>
      </trkpt>
      <trkpt lat="46.85539" lon="-1.00693">
        <ele>108</ele>
        <time>2023-08-30T15:02:33Z</time>
      </trkpt>
      <trkpt lat="46.85509" lon="-1.00674">
        <ele>108</ele>
        <time>2023-08-30T15:02:39Z</time>
      </trkpt>
      <trkpt lat="46.85483" lon="-1.00655">
        <ele>108</ele>
        <time>2023-08-30T15:02:44Z</time>
      </trkpt>
      <trkpt lat="46.85421" lon="-1.00623">
        <ele>108</ele>
        <time>2023-08-30T15:02:55Z</time>
      </trkpt>
      <trkpt lat="46.8534" lon="-1.00587">
        <ele>109</ele>
        <time>2023-08-30T15:03:10Z</time>
      </trkpt>
      <trkpt lat="46.85285" lon="-1.00572">
        <ele>110</ele>
        <time>2023-08-30T15:03:20Z</time>
      </trkpt>
      <trkpt lat="46.85261" lon="-1.00556">
        <ele>110</ele>
        <time>2023-08-30T15:03:25Z</time>
      </trkpt>
      <trkpt lat="46.85112" lon="-1.00447">
        <ele>110</ele>
        <time>2023-08-30T15:03:55Z</time>
      </trkpt>
      <trkpt lat="46.85054" lon="-1.0041">
        <ele>111</ele>
        <time>2023-08-30T15:04:06Z</time>
      </trkpt>
      <trkpt lat="46.85025" lon="-1.00397">
        <ele>112</ele>
        <time>2023-08-30T15:04:11Z</time>
      </trkpt>
      <trkpt lat="46.84987" lon="-1.00387">
        <ele>113</ele>
        <time>2023-08-30T15:04:18Z</time>
      </trkpt>
      <trkpt lat="46.84956" lon="-1.00381">
        <ele>113</ele>
        <time>2023-08-30T15:04:24Z</time>
      </trkpt>
      <trkpt lat="46.84918" lon="-1.00379">
        <ele>114</ele>
        <time>2023-08-30T15:04:31Z</time>
      </trkpt>
      <trkpt lat="46.84873" lon="-1.0038">
        <ele>114</ele>
        <time>2023-08-30T15:04:39Z</time>
      </trkpt>
      <trkpt lat="46.84774" lon="-1.00404">
        <ele>116</ele>
        <time>2023-08-30T15:04:56Z</time>
      </trkpt>
      <trkpt lat="46.84772" lon="-1.00413">
        <ele>116</ele>
        <time>2023-08-30T15:04:58Z</time>
      </trkpt>
      <trkpt lat="46.84765" lon="-1.00416">
        <ele>116</ele>
        <time>2023-08-30T15:04:59Z</time>
      </trkpt>
      <trkpt lat="46.8476" lon="-1.00409">
        <ele>116</ele>
        <time>2023-08-30T15:05:00Z</time>
      </trkpt>
      <trkpt lat="46.84738" lon="-1.0042">
        <ele>116</ele>
        <time>2023-08-30T15:05:04Z</time>
      </trkpt>
      <trkpt lat="46.84625" lon="-1.00458">
        <ele>112</ele>
        <time>2023-08-30T15:05:25Z</time>
      </trkpt>
      <trkpt lat="46.84571" lon="-1.00469">
        <ele>111</ele>
        <time>2023-08-30T15:05:35Z</time>
      </trkpt>
      <trkpt lat="46.84532" lon="-1.00471">
        <ele>111</ele>
        <time>2023-08-30T15:05:42Z</time>
      </trkpt>
      <trkpt lat="46.84501" lon="-1.00484">
        <ele>111</ele>
        <time>2023-08-30T15:05:47Z</time>
      </trkpt>
      <trkpt lat="46.84496" lon="-1.00493">
        <ele>111</ele>
        <time>2023-08-30T15:05:49Z</time>
      </trkpt>
      <trkpt lat="46.84487" lon="-1.00498">
        <ele>111</ele>
        <time>2023-08-30T15:05:50Z</time>
      </trkpt>
      <trkpt lat="46.84478" lon="-1.00494">
        <ele>112</ele>
        <time>2023-08-30T15:05:52Z</time>
      </trkpt>
      <trkpt lat="46.84474" lon="-1.0049">
        <ele>112</ele>
        <time>2023-08-30T15:05:53Z</time>
      </trkpt>
      <trkpt lat="46.84471" lon="-1.00482">
        <ele>112</ele>
        <time>2023-08-30T15:05:54Z</time>
      </trkpt>
      <trkpt lat="46.84446" lon="-1.00468">
        <ele>113</ele>
        <time>2023-08-30T15:05:59Z</time>
      </trkpt>
      <trkpt lat="46.84242" lon="-1.00451">
        <ele>118</ele>
        <time>2023-08-30T15:06:35Z</time>
      </trkpt>
      <trkpt lat="46.83613" lon="-1.00403">
        <ele>129</ele>
        <time>2023-08-30T15:08:27Z</time>
      </trkpt>
      <trkpt lat="46.83506" lon="-1.00398">
        <ele>127</ele>
        <time>2023-08-30T15:08:46Z</time>
      </trkpt>
      <trkpt lat="46.83326" lon="-1.00377">
        <ele>126</ele>
        <time>2023-08-30T15:09:18Z</time>
      </trkpt>
      <trkpt lat="46.83152" lon="-1.00367">
        <ele>121</ele>
        <time>2023-08-30T15:09:49Z</time>
      </trkpt>
      <trkpt lat="46.82971" lon="-1.00352">
        <ele>114</ele>
        <time>2023-08-30T15:10:22Z</time>
      </trkpt>
      <trkpt lat="46.82942" lon="-1.00346">
        <ele>113</ele>
        <time>2023-08-30T15:10:27Z</time>
      </trkpt>
      <trkpt lat="46.82918" lon="-1.00337">
        <ele>112</ele>
        <time>2023-08-30T15:10:31Z</time>
      </trkpt>
      <trkpt lat="46.82896" lon="-1.00326">
        <ele>112</ele>
        <time>2023-08-30T15:10:35Z</time>
      </trkpt>
      <trkpt lat="46.8288" lon="-1.00315">
        <ele>112</ele>
        <time>2023-08-30T15:10:39Z</time>
      </trkpt>
      <trkpt lat="46.82843" lon="-1.00277">
        <ele>111</ele>
        <time>2023-08-30T15:10:47Z</time>
      </trkpt>
      <trkpt lat="46.82826" lon="-1.00254">
        <ele>110</ele>
        <time>2023-08-30T15:10:51Z</time>
      </trkpt>
      <trkpt lat="46.82796" lon="-1.00194">
        <ele>109</ele>
        <time>2023-08-30T15:11:00Z</time>
      </trkpt>
      <trkpt lat="46.82784" lon="-1.00163">
        <ele>109</ele>
        <time>2023-08-30T15:11:04Z</time>
      </trkpt>
      <trkpt lat="46.82675" lon="-0.99834">
        <ele>99</ele>
        <time>2023-08-30T15:11:49Z</time>
      </trkpt>
      <trkpt lat="46.82637" lon="-0.99724">
        <ele>95</ele>
        <time>2023-08-30T15:12:04Z</time>
      </trkpt>
      <trkpt lat="46.82619" lon="-0.9969">
        <ele>94</ele>
        <time>2023-08-30T15:12:09Z</time>
      </trkpt>
      <trkpt lat="46.826" lon="-0.99666">
        <ele>92</ele>
        <time>2023-08-30T15:12:13Z</time>
      </trkpt>
      <trkpt lat="46.8258" lon="-0.99653">
        <ele>91</ele>
        <time>2023-08-30T15:12:17Z</time>
      </trkpt>
      <trkpt lat="46.82566" lon="-0.99646">
        <ele>92</ele>
        <time>2023-08-30T15:12:20Z</time>
      </trkpt>
      <trkpt lat="46.82551" lon="-0.99642">
        <ele>92</ele>
        <time>2023-08-30T15:12:23Z</time>
      </trkpt>
      <trkpt lat="46.82422" lon="-0.99623">
        <ele>98</ele>
        <time>2023-08-30T15:12:46Z</time>
      </trkpt>
      <trkpt lat="46.82392" lon="-0.99616">
        <ele>99</ele>
        <time>2023-08-30T15:12:51Z</time>
      </trkpt>
      <trkpt lat="46.82369" lon="-0.99601">
        <ele>101</ele>
        <time>2023-08-30T15:12:56Z</time>
      </trkpt>
      <trkpt lat="46.82358" lon="-0.99589">
        <ele>103</ele>
        <time>2023-08-30T15:12:58Z</time>
      </trkpt>
      <trkpt lat="46.82347" lon="-0.99571">
        <ele>104</ele>
        <time>2023-08-30T15:13:01Z</time>
      </trkpt>
      <trkpt lat="46.82339" lon="-0.99555">
        <ele>106</ele>
        <time>2023-08-30T15:13:03Z</time>
      </trkpt>
      <trkpt lat="46.82317" lon="-0.99495">
        <ele>109</ele>
        <time>2023-08-30T15:13:12Z</time>
      </trkpt>
      <trkpt lat="46.82311" lon="-0.99486">
        <ele>109</ele>
        <time>2023-08-30T15:13:13Z</time>
      </trkpt>
      <trkpt lat="46.82303" lon="-0.99478">
        <ele>109</ele>
        <time>2023-08-30T15:13:15Z</time>
      </trkpt>
      <trkpt lat="46.82273" lon="-0.9946">
        <ele>109</ele>
        <time>2023-08-30T15:13:21Z</time>
      </trkpt>
      <trkpt lat="46.82263" lon="-0.99452">
        <ele>110</ele>
        <time>2023-08-30T15:13:23Z</time>
      </trkpt>
      <trkpt lat="46.82253" lon="-0.99447">
        <ele>110</ele>
        <time>2023-08-30T15:13:25Z</time>
      </trkpt>
      <trkpt lat="46.82256" lon="-0.99402">
        <ele>112</ele>
        <time>2023-08-30T15:13:30Z</time>
      </trkpt>
      <trkpt lat="46.82255" lon="-0.99372">
        <ele>113</ele>
        <time>2023-08-30T15:13:34Z</time>
      </trkpt>
      <trkpt lat="46.82248" lon="-0.99323">
        <ele>114</ele>
        <time>2023-08-30T15:13:40Z</time>
      </trkpt>
      <trkpt lat="46.8224" lon="-0.99289">
        <ele>116</ele>
        <time>2023-08-30T15:13:44Z</time>
      </trkpt>
      <trkpt lat="46.82234" lon="-0.99253">
        <ele>117</ele>
        <time>2023-08-30T15:13:49Z</time>
      </trkpt>
      <trkpt lat="46.82247" lon="-0.99224">
        <ele>118</ele>
        <time>2023-08-30T15:13:53Z</time>
      </trkpt>
      <trkpt lat="46.82286" lon="-0.99104">
        <ele>118</ele>
        <time>2023-08-30T15:14:09Z</time>
      </trkpt>
      <trkpt lat="46.82372" lon="-0.9885">
        <ele>117</ele>
        <time>2023-08-30T15:14:44Z</time>
      </trkpt>
      <trkpt lat="46.82389" lon="-0.98788">
        <ele>117</ele>
        <time>2023-08-30T15:14:52Z</time>
      </trkpt>
      <trkpt lat="46.82397" lon="-0.98744">
        <ele>116</ele>
        <time>2023-08-30T15:14:57Z</time>
      </trkpt>
      <trkpt lat="46.82398" lon="-0.98715">
        <ele>116</ele>
        <time>2023-08-30T15:15:01Z</time>
      </trkpt>
      <trkpt lat="46.82393" lon="-0.9869">
        <ele>115</ele>
        <time>2023-08-30T15:15:04Z</time>
      </trkpt>
      <trkpt lat="46.82372" lon="-0.98618">
        <ele>114</ele>
        <time>2023-08-30T15:15:14Z</time>
      </trkpt>
      <trkpt lat="46.82352" lon="-0.98565">
        <ele>112</ele>
        <time>2023-08-30T15:15:21Z</time>
      </trkpt>
      <trkpt lat="46.8235" lon="-0.98553">
        <ele>111</ele>
        <time>2023-08-30T15:15:22Z</time>
      </trkpt>
      <trkpt lat="46.82351" lon="-0.98541">
        <ele>111</ele>
        <time>2023-08-30T15:15:24Z</time>
      </trkpt>
      <trkpt lat="46.82364" lon="-0.98526">
        <ele>111</ele>
        <time>2023-08-30T15:15:27Z</time>
      </trkpt>
      <trkpt lat="46.82372" lon="-0.98508">
        <ele>111</ele>
        <time>2023-08-30T15:15:29Z</time>
      </trkpt>
      <trkpt lat="46.82393" lon="-0.98441">
        <ele>111</ele>
        <time>2023-08-30T15:15:38Z</time>
      </trkpt>
      <trkpt lat="46.82405" lon="-0.98411">
        <ele>112</ele>
        <time>2023-08-30T15:15:43Z</time>
      </trkpt>
      <trkpt lat="46.82403" lon="-0.98391">
        <ele>111</ele>
        <time>2023-08-30T15:15:45Z</time>
      </trkpt>
      <trkpt lat="46.82409" lon="-0.98342">
        <ele>111</ele>
        <time>2023-08-30T15:15:51Z</time>
      </trkpt>
      <trkpt lat="46.82479" lon="-0.98164">
        <ele>112</ele>
        <time>2023-08-30T15:16:16Z</time>
      </trkpt>
      <trkpt lat="46.82488" lon="-0.98134">
        <ele>112</ele>
        <time>2023-08-30T15:16:20Z</time>
      </trkpt>
      <trkpt lat="46.82503" lon="-0.98052">
        <ele>115</ele>
        <time>2023-08-30T15:16:30Z</time>
      </trkpt>
      <trkpt lat="46.82507" lon="-0.98018">
        <ele>116</ele>
        <time>2023-08-30T15:16:35Z</time>
      </trkpt>
      <trkpt lat="46.82507" lon="-0.9793">
        <ele>116</ele>
        <time>2023-08-30T15:16:45Z</time>
      </trkpt>
      <trkpt lat="46.8247" lon="-0.97708">
        <ele>116</ele>
        <time>2023-08-30T15:17:13Z</time>
      </trkpt>
      <trkpt lat="46.82454" lon="-0.97642">
        <ele>117</ele>
        <time>2023-08-30T15:17:22Z</time>
      </trkpt>
      <trkpt lat="46.82452" lon="-0.97621">
        <ele>118</ele>
        <time>2023-08-30T15:17:24Z</time>
      </trkpt>
      <trkpt lat="46.82455" lon="-0.97604">
        <ele>118</ele>
        <time>2023-08-30T15:17:26Z</time>
      </trkpt>
      <trkpt lat="46.82484" lon="-0.97521">
        <ele>118</ele>
        <time>2023-08-30T15:17:38Z</time>
      </trkpt>
      <trkpt lat="46.8249" lon="-0.97483">
        <ele>119</ele>
        <time>2023-08-30T15:17:43Z</time>
      </trkpt>
      <trkpt lat="46.8249" lon="-0.97452">
        <ele>120</ele>
        <time>2023-08-30T15:17:46Z</time>
      </trkpt>
      <trkpt lat="46.82483" lon="-0.97403">
        <ele>121</ele>
        <time>2023-08-30T15:17:52Z</time>
      </trkpt>
      <trkpt lat="46.82423" lon="-0.97203">
        <ele>127</ele>
        <time>2023-08-30T15:18:19Z</time>
      </trkpt>
      <trkpt lat="46.82411" lon="-0.97087">
        <ele>127</ele>
        <time>2023-08-30T15:18:33Z</time>
      </trkpt>
      <trkpt lat="46.82399" lon="-0.96899">
        <ele>124</ele>
        <time>2023-08-30T15:18:56Z</time>
      </trkpt>
      <trkpt lat="46.82405" lon="-0.9676">
        <ele>125</ele>
        <time>2023-08-30T15:19:13Z</time>
      </trkpt>
      <trkpt lat="46.82403" lon="-0.96685">
        <ele>125</ele>
        <time>2023-08-30T15:19:22Z</time>
      </trkpt>
      <trkpt lat="46.82409" lon="-0.96613">
        <ele>126</ele>
        <time>2023-08-30T15:19:31Z</time>
      </trkpt>
      <trkpt lat="46.82442" lon="-0.96332">
        <ele>125</ele>
        <time>2023-08-30T15:20:06Z</time>
      </trkpt>
      <trkpt lat="46.82465" lon="-0.96185">
        <ele>121</ele>
        <time>2023-08-30T15:20:24Z</time>
      </trkpt>
      <trkpt lat="46.82457" lon="-0.96067">
        <ele>121</ele>
        <time>2023-08-30T15:20:39Z</time>
      </trkpt>
      <trkpt lat="46.82492" lon="-0.95899">
        <ele>124</ele>
        <time>2023-08-30T15:21:00Z</time>
      </trkpt>
      <trkpt lat="46.82516" lon="-0.95714">
        <ele>124</ele>
        <time>2023-08-30T15:21:23Z</time>
      </trkpt>
      <trkpt lat="46.82525" lon="-0.95626">
        <ele>124</ele>
        <time>2023-08-30T15:21:34Z</time>
      </trkpt>
      <trkpt lat="46.82537" lon="-0.95598">
        <ele>124</ele>
        <time>2023-08-30T15:21:38Z</time>
      </trkpt>
      <trkpt lat="46.82652" lon="-0.95445">
        <ele>126</ele>
        <time>2023-08-30T15:22:06Z</time>
      </trkpt>
      <trkpt lat="46.82684" lon="-0.95359">
        <ele>127</ele>
        <time>2023-08-30T15:22:17Z</time>
      </trkpt>
      <trkpt lat="46.82708" lon="-0.9528">
        <ele>127</ele>
        <time>2023-08-30T15:22:28Z</time>
      </trkpt>
      <trkpt lat="46.82752" lon="-0.95207">
        <ele>128</ele>
        <time>2023-08-30T15:22:40Z</time>
      </trkpt>
      <trkpt lat="46.82775" lon="-0.9516">
        <ele>128</ele>
        <time>2023-08-30T15:22:47Z</time>
      </trkpt>
      <trkpt lat="46.82838" lon="-0.9497">
        <ele>128</ele>
        <time>2023-08-30T15:23:13Z</time>
      </trkpt>
      <trkpt lat="46.82891" lon="-0.94843">
        <ele>128</ele>
        <time>2023-08-30T15:23:31Z</time>
      </trkpt>
      <trkpt lat="46.82906" lon="-0.9478">
        <ele>128</ele>
        <time>2023-08-30T15:23:39Z</time>
      </trkpt>
      <trkpt lat="46.82915" lon="-0.94713">
        <ele>129</ele>
        <time>2023-08-30T15:23:47Z</time>
      </trkpt>
      <trkpt lat="46.82935" lon="-0.94493">
        <ele>129</ele>
        <time>2023-08-30T15:24:14Z</time>
      </trkpt>
      <trkpt lat="46.82936" lon="-0.94438">
        <ele>129</ele>
        <time>2023-08-30T15:24:21Z</time>
      </trkpt>
      <trkpt lat="46.82924" lon="-0.94396">
        <ele>129</ele>
        <time>2023-08-30T15:24:26Z</time>
      </trkpt>
      <trkpt lat="46.82904" lon="-0.94362">
        <ele>129</ele>
        <time>2023-08-30T15:24:32Z</time>
      </trkpt>
      <trkpt lat="46.82848" lon="-0.94306">
        <ele>129</ele>
        <time>2023-08-30T15:24:44Z</time>
      </trkpt>
      <trkpt lat="46.82832" lon="-0.94286">
        <ele>129</ele>
        <time>2023-08-30T15:24:48Z</time>
      </trkpt>
      <trkpt lat="46.82807" lon="-0.94247">
        <ele>129</ele>
        <time>2023-08-30T15:24:54Z</time>
      </trkpt>
      <trkpt lat="46.82798" lon="-0.94229">
        <ele>130</ele>
        <time>2023-08-30T15:24:57Z</time>
      </trkpt>
      <trkpt lat="46.82784" lon="-0.94183">
        <ele>130</ele>
        <time>2023-08-30T15:25:03Z</time>
      </trkpt>
      <trkpt lat="46.82781" lon="-0.94124">
        <ele>129</ele>
        <time>2023-08-30T15:25:10Z</time>
      </trkpt>
      <trkpt lat="46.82761" lon="-0.93621">
        <ele>127</ele>
        <time>2023-08-30T15:26:11Z</time>
      </trkpt>
      <trkpt lat="46.82747" lon="-0.93162">
        <ele>135</ele>
        <time>2023-08-30T15:27:07Z</time>
      </trkpt>
      <trkpt lat="46.82747" lon="-0.93077">
        <ele>137</ele>
        <time>2023-08-30T15:27:18Z</time>
      </trkpt>
      <trkpt lat="46.82741" lon="-0.93019">
        <ele>138</ele>
        <time>2023-08-30T15:27:25Z</time>
      </trkpt>
      <trkpt lat="46.82741" lon="-0.92982">
        <ele>139</ele>
        <time>2023-08-30T15:27:29Z</time>
      </trkpt>
      <trkpt lat="46.82771" lon="-0.9287">
        <ele>139</ele>
        <time>2023-08-30T15:27:44Z</time>
      </trkpt>
      <trkpt lat="46.82777" lon="-0.9286">
        <ele>139</ele>
        <time>2023-08-30T15:27:46Z</time>
      </trkpt>
      <trkpt lat="46.82784" lon="-0.92841">
        <ele>139</ele>
        <time>2023-08-30T15:27:48Z</time>
      </trkpt>
      <trkpt lat="46.82801" lon="-0.92785">
        <ele>139</ele>
        <time>2023-08-30T15:27:56Z</time>
      </trkpt>
      <trkpt lat="46.82812" lon="-0.92744">
        <ele>140</ele>
        <time>2023-08-30T15:28:01Z</time>
      </trkpt>
      <trkpt lat="46.82815" lon="-0.9272">
        <ele>140</ele>
        <time>2023-08-30T15:28:04Z</time>
      </trkpt>
      <trkpt lat="46.8282" lon="-0.92648">
        <ele>143</ele>
        <time>2023-08-30T15:28:13Z</time>
      </trkpt>
      <trkpt lat="46.82826" lon="-0.92605">
        <ele>144</ele>
        <time>2023-08-30T15:28:18Z</time>
      </trkpt>
      <trkpt lat="46.82889" lon="-0.92305">
        <ele>141</ele>
        <time>2023-08-30T15:28:56Z</time>
      </trkpt>
      <trkpt lat="46.82896" lon="-0.9228">
        <ele>141</ele>
        <time>2023-08-30T15:29:00Z</time>
      </trkpt>
      <trkpt lat="46.82907" lon="-0.92256">
        <ele>141</ele>
        <time>2023-08-30T15:29:03Z</time>
      </trkpt>
      <trkpt lat="46.82944" lon="-0.92194">
        <ele>142</ele>
        <time>2023-08-30T15:29:13Z</time>
      </trkpt>
      <trkpt lat="46.82954" lon="-0.92198">
        <ele>142</ele>
        <time>2023-08-30T15:29:15Z</time>
      </trkpt>
      <trkpt lat="46.82989" lon="-0.92194">
        <ele>142</ele>
        <time>2023-08-30T15:29:21Z</time>
      </trkpt>
      <trkpt lat="46.83009" lon="-0.92191">
        <ele>143</ele>
        <time>2023-08-30T15:29:25Z</time>
      </trkpt>
      <trkpt lat="46.83077" lon="-0.92172">
        <ele>146</ele>
        <time>2023-08-30T15:29:37Z</time>
      </trkpt>
      <trkpt lat="46.83099" lon="-0.92171">
        <ele>147</ele>
        <time>2023-08-30T15:29:41Z</time>
      </trkpt>
      <trkpt lat="46.83143" lon="-0.92185">
        <ele>149</ele>
        <time>2023-08-30T15:29:49Z</time>
      </trkpt>
      <trkpt lat="46.83184" lon="-0.92195">
        <ele>152</ele>
        <time>2023-08-30T15:29:57Z</time>
      </trkpt>
      <trkpt lat="46.83223" lon="-0.92192">
        <ele>154</ele>
        <time>2023-08-30T15:30:04Z</time>
      </trkpt>
      <trkpt lat="46.83242" lon="-0.92182">
        <ele>154</ele>
        <time>2023-08-30T15:30:07Z</time>
      </trkpt>
      <trkpt lat="46.83258" lon="-0.92173">
        <ele>155</ele>
        <time>2023-08-30T15:30:10Z</time>
      </trkpt>
      <trkpt lat="46.83284" lon="-0.92151">
        <ele>157</ele>
        <time>2023-08-30T15:30:16Z</time>
      </trkpt>
      <trkpt lat="46.83356" lon="-0.92058">
        <ele>163</ele>
        <time>2023-08-30T15:30:33Z</time>
      </trkpt>
      <trkpt lat="46.8337" lon="-0.92046">
        <ele>165</ele>
        <time>2023-08-30T15:30:36Z</time>
      </trkpt>
      <trkpt lat="46.83395" lon="-0.92033">
        <ele>167</ele>
        <time>2023-08-30T15:30:40Z</time>
      </trkpt>
      <trkpt lat="46.83407" lon="-0.92022">
        <ele>168</ele>
        <time>2023-08-30T15:30:43Z</time>
      </trkpt>
      <trkpt lat="46.83438" lon="-0.91972">
        <ele>170</ele>
        <time>2023-08-30T15:30:51Z</time>
      </trkpt>
      <trkpt lat="46.83445" lon="-0.91965">
        <ele>170</ele>
        <time>2023-08-30T15:30:52Z</time>
      </trkpt>
      <trkpt lat="46.83451" lon="-0.9196">
        <ele>171</ele>
        <time>2023-08-30T15:30:54Z</time>
      </trkpt>
      <trkpt lat="46.83459" lon="-0.9196">
        <ele>171</ele>
        <time>2023-08-30T15:30:55Z</time>
      </trkpt>
      <trkpt lat="46.83485" lon="-0.91971">
        <ele>172</ele>
        <time>2023-08-30T15:31:00Z</time>
      </trkpt>
      <trkpt lat="46.8349" lon="-0.9197">
        <ele>172</ele>
        <time>2023-08-30T15:31:01Z</time>
      </trkpt>
      <trkpt lat="46.83491" lon="-0.91955">
        <ele>173</ele>
        <time>2023-08-30T15:31:03Z</time>
      </trkpt>
      <trkpt lat="46.83502" lon="-0.91924">
        <ele>174</ele>
        <time>2023-08-30T15:31:07Z</time>
      </trkpt>
      <trkpt lat="46.83522" lon="-0.9189">
        <ele>176</ele>
        <time>2023-08-30T15:31:12Z</time>
      </trkpt>
      <trkpt lat="46.83527" lon="-0.91876">
        <ele>177</ele>
        <time>2023-08-30T15:31:14Z</time>
      </trkpt>
      <trkpt lat="46.83529" lon="-0.91859">
        <ele>178</ele>
        <time>2023-08-30T15:31:16Z</time>
      </trkpt>
      <trkpt lat="46.83526" lon="-0.91772">
        <ele>182</ele>
        <time>2023-08-30T15:31:27Z</time>
      </trkpt>
      <trkpt lat="46.83529" lon="-0.91715">
        <ele>185</ele>
        <time>2023-08-30T15:31:34Z</time>
      </trkpt>
      <trkpt lat="46.83552" lon="-0.9158">
        <ele>190</ele>
        <time>2023-08-30T15:31:51Z</time>
      </trkpt>
      <trkpt lat="46.83549" lon="-0.91542">
        <ele>191</ele>
        <time>2023-08-30T15:31:56Z</time>
      </trkpt>
      <trkpt lat="46.83543" lon="-0.91497">
        <ele>193</ele>
        <time>2023-08-30T15:32:01Z</time>
      </trkpt>
      <trkpt lat="46.83544" lon="-0.91452">
        <ele>194</ele>
        <time>2023-08-30T15:32:07Z</time>
      </trkpt>
      <trkpt lat="46.83554" lon="-0.91383">
        <ele>195</ele>
        <time>2023-08-30T15:32:15Z</time>
      </trkpt>
      <trkpt lat="46.83565" lon="-0.91326">
        <ele>197</ele>
        <time>2023-08-30T15:32:22Z</time>
      </trkpt>
      <trkpt lat="46.83575" lon="-0.91283">
        <ele>199</ele>
        <time>2023-08-30T15:32:28Z</time>
      </trkpt>
      <trkpt lat="46.83618" lon="-0.91153">
        <ele>208</ele>
        <time>2023-08-30T15:32:46Z</time>
      </trkpt>
      <trkpt lat="46.83623" lon="-0.91119">
        <ele>210</ele>
        <time>2023-08-30T15:32:50Z</time>
      </trkpt>
      <trkpt lat="46.83623" lon="-0.91108">
        <ele>211</ele>
        <time>2023-08-30T15:32:51Z</time>
      </trkpt>
      <trkpt lat="46.83616" lon="-0.91077">
        <ele>213</ele>
        <time>2023-08-30T15:32:55Z</time>
      </trkpt>
      <trkpt lat="46.83599" lon="-0.91031">
        <ele>216</ele>
        <time>2023-08-30T15:33:01Z</time>
      </trkpt>
      <trkpt lat="46.83594" lon="-0.91006">
        <ele>218</ele>
        <time>2023-08-30T15:33:05Z</time>
      </trkpt>
      <trkpt lat="46.83585" lon="-0.90917">
        <ele>223</ele>
        <time>2023-08-30T15:33:16Z</time>
      </trkpt>
      <trkpt lat="46.83584" lon="-0.90903">
        <ele>224</ele>
        <time>2023-08-30T15:33:17Z</time>
      </trkpt>
      <trkpt lat="46.83578" lon="-0.90883">
        <ele>225</ele>
        <time>2023-08-30T15:33:20Z</time>
      </trkpt>
      <trkpt lat="46.83568" lon="-0.90858">
        <ele>225</ele>
        <time>2023-08-30T15:33:23Z</time>
      </trkpt>
      <trkpt lat="46.83553" lon="-0.90834">
        <ele>225</ele>
        <time>2023-08-30T15:33:27Z</time>
      </trkpt>
      <trkpt lat="46.83541" lon="-0.90809">
        <ele>225</ele>
        <time>2023-08-30T15:33:31Z</time>
      </trkpt>
      <trkpt lat="46.83537" lon="-0.90797">
        <ele>226</ele>
        <time>2023-08-30T15:33:33Z</time>
      </trkpt>
      <trkpt lat="46.83524" lon="-0.90726">
        <ele>227</ele>
        <time>2023-08-30T15:33:42Z</time>
      </trkpt>
      <trkpt lat="46.83521" lon="-0.90698">
        <ele>228</ele>
        <time>2023-08-30T15:33:45Z</time>
      </trkpt>
      <trkpt lat="46.83536" lon="-0.90685">
        <ele>229</ele>
        <time>2023-08-30T15:33:48Z</time>
      </trkpt>
      <trkpt lat="46.83555" lon="-0.90662">
        <ele>231</ele>
        <time>2023-08-30T15:33:53Z</time>
      </trkpt>
      <trkpt lat="46.83563" lon="-0.90645">
        <ele>232</ele>
        <time>2023-08-30T15:33:55Z</time>
      </trkpt>
      <trkpt lat="46.83559" lon="-0.90641">
        <ele>232</ele>
        <time>2023-08-30T15:33:56Z</time>
      </trkpt>
      <trkpt lat="46.8356" lon="-0.90612">
        <ele>232</ele>
        <time>2023-08-30T15:34:00Z</time>
      </trkpt>
      <trkpt lat="46.83558" lon="-0.90518">
        <ele>236</ele>
        <time>2023-08-30T15:34:11Z</time>
      </trkpt>
      <trkpt lat="46.83549" lon="-0.9042">
        <ele>239</ele>
        <time>2023-08-30T15:34:23Z</time>
      </trkpt>
      <trkpt lat="46.83551" lon="-0.90416">
        <ele>239</ele>
        <time>2023-08-30T15:34:24Z</time>
      </trkpt>
      <trkpt lat="46.83535" lon="-0.90255">
        <ele>242</ele>
        <time>2023-08-30T15:34:43Z</time>
      </trkpt>
      <trkpt lat="46.83462" lon="-0.8964">
        <ele>242</ele>
        <time>2023-08-30T15:35:59Z</time>
      </trkpt>
      <trkpt lat="46.83457" lon="-0.89616">
        <ele>240</ele>
        <time>2023-08-30T15:36:02Z</time>
      </trkpt>
      <trkpt lat="46.83422" lon="-0.89382">
        <ele>237</ele>
        <time>2023-08-30T15:36:32Z</time>
      </trkpt>
      <trkpt lat="46.83421" lon="-0.89365">
        <ele>237</ele>
        <time>2023-08-30T15:36:34Z</time>
      </trkpt>
      <trkpt lat="46.83404" lon="-0.89266">
        <ele>240</ele>
        <time>2023-08-30T15:36:46Z</time>
      </trkpt>
      <trkpt lat="46.83398" lon="-0.89241">
        <ele>241</ele>
        <time>2023-08-30T15:36:49Z</time>
      </trkpt>
      <trkpt lat="46.83391" lon="-0.8923">
        <ele>242</ele>
        <time>2023-08-30T15:36:51Z</time>
      </trkpt>
      <trkpt lat="46.83379" lon="-0.89218">
        <ele>242</ele>
        <time>2023-08-30T15:36:54Z</time>
      </trkpt>
      <trkpt lat="46.83376" lon="-0.8921">
        <ele>243</ele>
        <time>2023-08-30T15:36:55Z</time>
      </trkpt>
      <trkpt lat="46.83375" lon="-0.89189">
        <ele>244</ele>
        <time>2023-08-30T15:36:57Z</time>
      </trkpt>
      <trkpt lat="46.83386" lon="-0.89181">
        <ele>244</ele>
        <time>2023-08-30T15:37:00Z</time>
      </trkpt>
      <trkpt lat="46.83389" lon="-0.89173">
        <ele>245</ele>
        <time>2023-08-30T15:37:01Z</time>
      </trkpt>
      <trkpt lat="46.83393" lon="-0.8917">
        <ele>245</ele>
        <time>2023-08-30T15:37:02Z</time>
      </trkpt>
      <trkpt lat="46.83391" lon="-0.89159">
        <ele>246</ele>
        <time>2023-08-30T15:37:03Z</time>
      </trkpt>
      <trkpt lat="46.83326" lon="-0.88911">
        <ele>248</ele>
        <time>2023-08-30T15:37:35Z</time>
      </trkpt>
      <trkpt lat="46.83281" lon="-0.88725">
        <ele>252</ele>
        <time>2023-08-30T15:37:59Z</time>
      </trkpt>
      <trkpt lat="46.83259" lon="-0.88648">
        <ele>254</ele>
        <time>2023-08-30T15:38:09Z</time>
      </trkpt>
      <trkpt lat="46.83251" lon="-0.88623">
        <ele>255</ele>
        <time>2023-08-30T15:38:13Z</time>
      </trkpt>
      <trkpt lat="46.83238" lon="-0.88593">
        <ele>256</ele>
        <time>2023-08-30T15:38:17Z</time>
      </trkpt>
      <trkpt lat="46.83222" lon="-0.88562">
        <ele>258</ele>
        <time>2023-08-30T15:38:22Z</time>
      </trkpt>
      <trkpt lat="46.83211" lon="-0.88546">
        <ele>259</ele>
        <time>2023-08-30T15:38:25Z</time>
      </trkpt>
      <trkpt lat="46.83184" lon="-0.88516">
        <ele>260</ele>
        <time>2023-08-30T15:38:31Z</time>
      </trkpt>
      <trkpt lat="46.8314" lon="-0.88479">
        <ele>262</ele>
        <time>2023-08-30T15:38:40Z</time>
      </trkpt>
      <trkpt lat="46.83113" lon="-0.88464">
        <ele>264</ele>
        <time>2023-08-30T15:38:45Z</time>
      </trkpt>
      <trkpt lat="46.83054" lon="-0.88436">
        <ele>266</ele>
        <time>2023-08-30T15:38:56Z</time>
      </trkpt>
      <trkpt lat="46.82992" lon="-0.88411">
        <ele>265</ele>
        <time>2023-08-30T15:39:07Z</time>
      </trkpt>
      <trkpt lat="46.82966" lon="-0.8839">
        <ele>264</ele>
        <time>2023-08-30T15:39:13Z</time>
      </trkpt>
      <trkpt lat="46.82956" lon="-0.88379">
        <ele>264</ele>
        <time>2023-08-30T15:39:15Z</time>
      </trkpt>
      <trkpt lat="46.82939" lon="-0.88356">
        <ele>263</ele>
        <time>2023-08-30T15:39:19Z</time>
      </trkpt>
      <trkpt lat="46.82903" lon="-0.88281">
        <ele>262</ele>
        <time>2023-08-30T15:39:30Z</time>
      </trkpt>
      <trkpt lat="46.82877" lon="-0.88244">
        <ele>261</ele>
        <time>2023-08-30T15:39:37Z</time>
      </trkpt>
      <trkpt lat="46.82791" lon="-0.88159">
        <ele>258</ele>
        <time>2023-08-30T15:39:55Z</time>
      </trkpt>
      <trkpt lat="46.82413" lon="-0.87798">
        <ele>237</ele>
        <time>2023-08-30T15:41:15Z</time>
      </trkpt>
      <trkpt lat="46.82346" lon="-0.87736">
        <ele>234</ele>
        <time>2023-08-30T15:41:29Z</time>
      </trkpt>
      <trkpt lat="46.82259" lon="-0.87669">
        <ele>229</ele>
        <time>2023-08-30T15:41:47Z</time>
      </trkpt>
      <trkpt lat="46.82187" lon="-0.87608">
        <ele>227</ele>
        <time>2023-08-30T15:42:02Z</time>
      </trkpt>
      <trkpt lat="46.82132" lon="-0.87557">
        <ele>227</ele>
        <time>2023-08-30T15:42:13Z</time>
      </trkpt>
      <trkpt lat="46.82049" lon="-0.87473">
        <ele>226</ele>
        <time>2023-08-30T15:42:31Z</time>
      </trkpt>
      <trkpt lat="46.81992" lon="-0.874">
        <ele>222</ele>
        <time>2023-08-30T15:42:45Z</time>
      </trkpt>
      <trkpt lat="46.81937" lon="-0.87316">
        <ele>216</ele>
        <time>2023-08-30T15:42:59Z</time>
      </trkpt>
      <trkpt lat="46.81896" lon="-0.87257">
        <ele>212</ele>
        <time>2023-08-30T15:43:09Z</time>
      </trkpt>
      <trkpt lat="46.81817" lon="-0.87159">
        <ele>211</ele>
        <time>2023-08-30T15:43:28Z</time>
      </trkpt>
      <trkpt lat="46.8178" lon="-0.87103">
        <ele>214</ele>
        <time>2023-08-30T15:43:37Z</time>
      </trkpt>
      <trkpt lat="46.81554" lon="-0.8674">
        <ele>225</ele>
        <time>2023-08-30T15:44:37Z</time>
      </trkpt>
      <trkpt lat="46.81516" lon="-0.86675">
        <ele>226</ele>
        <time>2023-08-30T15:44:47Z</time>
      </trkpt>
      <trkpt lat="46.81476" lon="-0.86592">
        <ele>225</ele>
        <time>2023-08-30T15:45:00Z</time>
      </trkpt>
      <trkpt lat="46.81458" lon="-0.86559">
        <ele>225</ele>
        <time>2023-08-30T15:45:05Z</time>
      </trkpt>
      <trkpt lat="46.81438" lon="-0.86527">
        <ele>225</ele>
        <time>2023-08-30T15:45:10Z</time>
      </trkpt>
      <trkpt lat="46.81415" lon="-0.86497">
        <ele>225</ele>
        <time>2023-08-30T15:45:16Z</time>
      </trkpt>
      <trkpt lat="46.81335" lon="-0.86409">
        <ele>228</ele>
        <time>2023-08-30T15:45:33Z</time>
      </trkpt>
      <trkpt lat="46.81144" lon="-0.86145">
        <ele>217</ele>
        <time>2023-08-30T15:46:20Z</time>
      </trkpt>
      <trkpt lat="46.8112" lon="-0.8611">
        <ele>215</ele>
        <time>2023-08-30T15:46:26Z</time>
      </trkpt>
      <trkpt lat="46.81108" lon="-0.86082">
        <ele>214</ele>
        <time>2023-08-30T15:46:30Z</time>
      </trkpt>
      <trkpt lat="46.811" lon="-0.86056">
        <ele>215</ele>
        <time>2023-08-30T15:46:34Z</time>
      </trkpt>
      <trkpt lat="46.81089" lon="-0.85993">
        <ele>216</ele>
        <time>2023-08-30T15:46:42Z</time>
      </trkpt>
      <trkpt lat="46.8108" lon="-0.85969">
        <ele>216</ele>
        <time>2023-08-30T15:46:45Z</time>
      </trkpt>
      <trkpt lat="46.81068" lon="-0.85953">
        <ele>216</ele>
        <time>2023-08-30T15:46:48Z</time>
      </trkpt>
      <trkpt lat="46.81055" lon="-0.85942">
        <ele>216</ele>
        <time>2023-08-30T15:46:50Z</time>
      </trkpt>
      <trkpt lat="46.81041" lon="-0.85937">
        <ele>216</ele>
        <time>2023-08-30T15:46:53Z</time>
      </trkpt>
      <trkpt lat="46.81025" lon="-0.85935">
        <ele>216</ele>
        <time>2023-08-30T15:46:56Z</time>
      </trkpt>
      <trkpt lat="46.81016" lon="-0.85909">
        <ele>217</ele>
        <time>2023-08-30T15:46:59Z</time>
      </trkpt>
      <trkpt lat="46.81008" lon="-0.85895">
        <ele>217</ele>
        <time>2023-08-30T15:47:02Z</time>
      </trkpt>
      <trkpt lat="46.80986" lon="-0.85869">
        <ele>216</ele>
        <time>2023-08-30T15:47:07Z</time>
      </trkpt>
      <trkpt lat="46.8097" lon="-0.85862">
        <ele>215</ele>
        <time>2023-08-30T15:47:10Z</time>
      </trkpt>
      <trkpt lat="46.80964" lon="-0.85861">
        <ele>215</ele>
        <time>2023-08-30T15:47:11Z</time>
      </trkpt>
      <trkpt lat="46.80959" lon="-0.85856">
        <ele>215</ele>
        <time>2023-08-30T15:47:12Z</time>
      </trkpt>
      <trkpt lat="46.80956" lon="-0.85849">
        <ele>215</ele>
        <time>2023-08-30T15:47:13Z</time>
      </trkpt>
      <trkpt lat="46.80955" lon="-0.85839">
        <ele>215</ele>
        <time>2023-08-30T15:47:14Z</time>
      </trkpt>
      <trkpt lat="46.80959" lon="-0.85829">
        <ele>215</ele>
        <time>2023-08-30T15:47:15Z</time>
      </trkpt>
      <trkpt lat="46.80937" lon="-0.85815">
        <ele>214</ele>
        <time>2023-08-30T15:47:20Z</time>
      </trkpt>
      <trkpt lat="46.8092" lon="-0.85812">
        <ele>213</ele>
        <time>2023-08-30T15:47:23Z</time>
      </trkpt>
      <trkpt lat="46.80903" lon="-0.85815">
        <ele>213</ele>
        <time>2023-08-30T15:47:26Z</time>
      </trkpt>
      <trkpt lat="46.80864" lon="-0.8583">
        <ele>213</ele>
        <time>2023-08-30T15:47:33Z</time>
      </trkpt>
      <trkpt lat="46.8085" lon="-0.85833">
        <ele>213</ele>
        <time>2023-08-30T15:47:36Z</time>
      </trkpt>
      <trkpt lat="46.80833" lon="-0.85833">
        <ele>213</ele>
        <time>2023-08-30T15:47:39Z</time>
      </trkpt>
      <trkpt lat="46.8082" lon="-0.8583">
        <ele>214</ele>
        <time>2023-08-30T15:47:41Z</time>
      </trkpt>
      <trkpt lat="46.80746" lon="-0.85792">
        <ele>216</ele>
        <time>2023-08-30T15:47:55Z</time>
      </trkpt>
      <trkpt lat="46.80654" lon="-0.85749">
        <ele>216</ele>
        <time>2023-08-30T15:48:12Z</time>
      </trkpt>
      <trkpt lat="46.80589" lon="-0.85722">
        <ele>214</ele>
        <time>2023-08-30T15:48:24Z</time>
      </trkpt>
      <trkpt lat="46.8053" lon="-0.85702">
        <ele>211</ele>
        <time>2023-08-30T15:48:35Z</time>
      </trkpt>
      <trkpt lat="46.80465" lon="-0.85684">
        <ele>210</ele>
        <time>2023-08-30T15:48:47Z</time>
      </trkpt>
      <trkpt lat="46.80347" lon="-0.8566">
        <ele>207</ele>
        <time>2023-08-30T15:49:08Z</time>
      </trkpt>
      <trkpt lat="46.80304" lon="-0.85649">
        <ele>205</ele>
        <time>2023-08-30T15:49:16Z</time>
      </trkpt>
      <trkpt lat="46.80209" lon="-0.85616">
        <ele>204</ele>
        <time>2023-08-30T15:49:33Z</time>
      </trkpt>
      <trkpt lat="46.80174" lon="-0.85597">
        <ele>204</ele>
        <time>2023-08-30T15:49:40Z</time>
      </trkpt>
      <trkpt lat="46.80159" lon="-0.85584">
        <ele>204</ele>
        <time>2023-08-30T15:49:43Z</time>
      </trkpt>
      <trkpt lat="46.80101" lon="-0.85516">
        <ele>206</ele>
        <time>2023-08-30T15:49:56Z</time>
      </trkpt>
      <trkpt lat="46.80067" lon="-0.85486">
        <ele>207</ele>
        <time>2023-08-30T15:50:03Z</time>
      </trkpt>
      <trkpt lat="46.80036" lon="-0.85464">
        <ele>208</ele>
        <time>2023-08-30T15:50:09Z</time>
      </trkpt>
      <trkpt lat="46.80019" lon="-0.85455">
        <ele>208</ele>
        <time>2023-08-30T15:50:12Z</time>
      </trkpt>
      <trkpt lat="46.79988" lon="-0.85443">
        <ele>210</ele>
        <time>2023-08-30T15:50:18Z</time>
      </trkpt>
      <trkpt lat="46.7997" lon="-0.85438">
        <ele>211</ele>
        <time>2023-08-30T15:50:21Z</time>
      </trkpt>
      <trkpt lat="46.79946" lon="-0.85436">
        <ele>213</ele>
        <time>2023-08-30T15:50:26Z</time>
      </trkpt>
      <trkpt lat="46.79919" lon="-0.85436">
        <ele>215</ele>
        <time>2023-08-30T15:50:30Z</time>
      </trkpt>
      <trkpt lat="46.79886" lon="-0.85448">
        <ele>219</ele>
        <time>2023-08-30T15:50:36Z</time>
      </trkpt>
      <trkpt lat="46.79834" lon="-0.85487">
        <ele>220</ele>
        <time>2023-08-30T15:50:47Z</time>
      </trkpt>
      <trkpt lat="46.79824" lon="-0.85492">
        <ele>220</ele>
        <time>2023-08-30T15:50:49Z</time>
      </trkpt>
      <trkpt lat="46.798" lon="-0.85493">
        <ele>222</ele>
        <time>2023-08-30T15:50:53Z</time>
      </trkpt>
      <trkpt lat="46.79774" lon="-0.85485">
        <ele>226</ele>
        <time>2023-08-30T15:50:58Z</time>
      </trkpt>
      <trkpt lat="46.79705" lon="-0.85437">
        <ele>233</ele>
        <time>2023-08-30T15:51:11Z</time>
      </trkpt>
      <trkpt lat="46.79688" lon="-0.85423">
        <ele>234</ele>
        <time>2023-08-30T15:51:15Z</time>
      </trkpt>
      <trkpt lat="46.79659" lon="-0.85385">
        <ele>235</ele>
        <time>2023-08-30T15:51:22Z</time>
      </trkpt>
      <trkpt lat="46.79642" lon="-0.85356">
        <ele>236</ele>
        <time>2023-08-30T15:51:26Z</time>
      </trkpt>
      <trkpt lat="46.79629" lon="-0.85329">
        <ele>238</ele>
        <time>2023-08-30T15:51:30Z</time>
      </trkpt>
      <trkpt lat="46.7961" lon="-0.8527">
        <ele>239</ele>
        <time>2023-08-30T15:51:38Z</time>
      </trkpt>
      <trkpt lat="46.79594" lon="-0.8521">
        <ele>238</ele>
        <time>2023-08-30T15:51:46Z</time>
      </trkpt>
      <trkpt lat="46.79573" lon="-0.85142">
        <ele>237</ele>
        <time>2023-08-30T15:51:55Z</time>
      </trkpt>
      <trkpt lat="46.79555" lon="-0.85111">
        <ele>238</ele>
        <time>2023-08-30T15:52:00Z</time>
      </trkpt>
      <trkpt lat="46.79528" lon="-0.85081">
        <ele>238</ele>
        <time>2023-08-30T15:52:06Z</time>
      </trkpt>
      <trkpt lat="46.79497" lon="-0.85058">
        <ele>238</ele>
        <time>2023-08-30T15:52:12Z</time>
      </trkpt>
      <trkpt lat="46.79484" lon="-0.85052">
        <ele>239</ele>
        <time>2023-08-30T15:52:15Z</time>
      </trkpt>
      <trkpt lat="46.79463" lon="-0.85047">
        <ele>240</ele>
        <time>2023-08-30T15:52:19Z</time>
      </trkpt>
      <trkpt lat="46.79434" lon="-0.85044">
        <ele>241</ele>
        <time>2023-08-30T15:52:24Z</time>
      </trkpt>
      <trkpt lat="46.79387" lon="-0.85042">
        <ele>244</ele>
        <time>2023-08-30T15:52:32Z</time>
      </trkpt>
      <trkpt lat="46.7937" lon="-0.85045">
        <ele>245</ele>
        <time>2023-08-30T15:52:35Z</time>
      </trkpt>
      <trkpt lat="46.79348" lon="-0.85053">
        <ele>246</ele>
        <time>2023-08-30T15:52:39Z</time>
      </trkpt>
      <trkpt lat="46.79328" lon="-0.85065">
        <ele>247</ele>
        <time>2023-08-30T15:52:43Z</time>
      </trkpt>
      <trkpt lat="46.79308" lon="-0.85083">
        <ele>247</ele>
        <time>2023-08-30T15:52:47Z</time>
      </trkpt>
      <trkpt lat="46.79255" lon="-0.85139">
        <ele>244</ele>
        <time>2023-08-30T15:52:59Z</time>
      </trkpt>
      <trkpt lat="46.79241" lon="-0.85149">
        <ele>243</ele>
        <time>2023-08-30T15:53:02Z</time>
      </trkpt>
      <trkpt lat="46.79212" lon="-0.85163">
        <ele>239</ele>
        <time>2023-08-30T15:53:07Z</time>
      </trkpt>
      <trkpt lat="46.79195" lon="-0.85168">
        <ele>236</ele>
        <time>2023-08-30T15:53:10Z</time>
      </trkpt>
      <trkpt lat="46.79174" lon="-0.85168">
        <ele>234</ele>
        <time>2023-08-30T15:53:14Z</time>
      </trkpt>
      <trkpt lat="46.79161" lon="-0.85164">
        <ele>233</ele>
        <time>2023-08-30T15:53:16Z</time>
      </trkpt>
      <trkpt lat="46.79134" lon="-0.85149">
        <ele>231</ele>
        <time>2023-08-30T15:53:21Z</time>
      </trkpt>
      <trkpt lat="46.79122" lon="-0.85139">
        <ele>230</ele>
        <time>2023-08-30T15:53:24Z</time>
      </trkpt>
      <trkpt lat="46.79114" lon="-0.8513">
        <ele>230</ele>
        <time>2023-08-30T15:53:26Z</time>
      </trkpt>
      <trkpt lat="46.79094" lon="-0.85098">
        <ele>230</ele>
        <time>2023-08-30T15:53:31Z</time>
      </trkpt>
      <trkpt lat="46.7908" lon="-0.85065">
        <ele>230</ele>
        <time>2023-08-30T15:53:36Z</time>
      </trkpt>
      <trkpt lat="46.79071" lon="-0.85029">
        <ele>229</ele>
        <time>2023-08-30T15:53:40Z</time>
      </trkpt>
      <trkpt lat="46.79068" lon="-0.85005">
        <ele>229</ele>
        <time>2023-08-30T15:53:43Z</time>
      </trkpt>
      <trkpt lat="46.79061" lon="-0.84915">
        <ele>228</ele>
        <time>2023-08-30T15:53:54Z</time>
      </trkpt>
      <trkpt lat="46.79055" lon="-0.84881">
        <ele>228</ele>
        <time>2023-08-30T15:53:59Z</time>
      </trkpt>
      <trkpt lat="46.79045" lon="-0.84856">
        <ele>227</ele>
        <time>2023-08-30T15:54:02Z</time>
      </trkpt>
      <trkpt lat="46.79036" lon="-0.84839">
        <ele>225</ele>
        <time>2023-08-30T15:54:05Z</time>
      </trkpt>
      <trkpt lat="46.79024" lon="-0.84821">
        <ele>224</ele>
        <time>2023-08-30T15:54:08Z</time>
      </trkpt>
      <trkpt lat="46.79" lon="-0.84793">
        <ele>223</ele>
        <time>2023-08-30T15:54:13Z</time>
      </trkpt>
      <trkpt lat="46.78955" lon="-0.8475">
        <ele>220</ele>
        <time>2023-08-30T15:54:23Z</time>
      </trkpt>
      <trkpt lat="46.78939" lon="-0.84738">
        <ele>219</ele>
        <time>2023-08-30T15:54:26Z</time>
      </trkpt>
      <trkpt lat="46.78919" lon="-0.84729">
        <ele>216</ele>
        <time>2023-08-30T15:54:30Z</time>
      </trkpt>
      <trkpt lat="46.78889" lon="-0.84721">
        <ele>215</ele>
        <time>2023-08-30T15:54:35Z</time>
      </trkpt>
      <trkpt lat="46.78866" lon="-0.84719">
        <ele>214</ele>
        <time>2023-08-30T15:54:39Z</time>
      </trkpt>
      <trkpt lat="46.78808" lon="-0.84723">
        <ele>209</ele>
        <time>2023-08-30T15:54:50Z</time>
      </trkpt>
      <trkpt lat="46.78801" lon="-0.84719">
        <ele>209</ele>
        <time>2023-08-30T15:54:51Z</time>
      </trkpt>
      <trkpt lat="46.78787" lon="-0.84717">
        <ele>208</ele>
        <time>2023-08-30T15:54:54Z</time>
      </trkpt>
      <trkpt lat="46.78781" lon="-0.84719">
        <ele>207</ele>
        <time>2023-08-30T15:54:55Z</time>
      </trkpt>
      <trkpt lat="46.78714" lon="-0.84694">
        <ele>204</ele>
        <time>2023-08-30T15:55:07Z</time>
      </trkpt>
      <trkpt lat="46.78643" lon="-0.84648">
        <ele>202</ele>
        <time>2023-08-30T15:55:21Z</time>
      </trkpt>
      <trkpt lat="46.7858" lon="-0.84578">
        <ele>200</ele>
        <time>2023-08-30T15:55:35Z</time>
      </trkpt>
      <trkpt lat="46.78551" lon="-0.84544">
        <ele>199</ele>
        <time>2023-08-30T15:55:41Z</time>
      </trkpt>
      <trkpt lat="46.78509" lon="-0.84486">
        <ele>199</ele>
        <time>2023-08-30T15:55:52Z</time>
      </trkpt>
      <trkpt lat="46.78441" lon="-0.84399">
        <ele>200</ele>
        <time>2023-08-30T15:56:08Z</time>
      </trkpt>
      <trkpt lat="46.78424" lon="-0.84369">
        <ele>200</ele>
        <time>2023-08-30T15:56:13Z</time>
      </trkpt>
      <trkpt lat="46.78413" lon="-0.84343">
        <ele>200</ele>
        <time>2023-08-30T15:56:16Z</time>
      </trkpt>
      <trkpt lat="46.78399" lon="-0.843">
        <ele>200</ele>
        <time>2023-08-30T15:56:22Z</time>
      </trkpt>
      <trkpt lat="46.78363" lon="-0.84169">
        <ele>205</ele>
        <time>2023-08-30T15:56:39Z</time>
      </trkpt>
      <trkpt lat="46.7835" lon="-0.84132">
        <ele>206</ele>
        <time>2023-08-30T15:56:44Z</time>
      </trkpt>
      <trkpt lat="46.78329" lon="-0.84092">
        <ele>206</ele>
        <time>2023-08-30T15:56:50Z</time>
      </trkpt>
      <trkpt lat="46.78226" lon="-0.83916">
        <ele>206</ele>
        <time>2023-08-30T15:57:19Z</time>
      </trkpt>
      <trkpt lat="46.78191" lon="-0.83862">
        <ele>208</ele>
        <time>2023-08-30T15:57:28Z</time>
      </trkpt>
      <trkpt lat="46.78178" lon="-0.83849">
        <ele>208</ele>
        <time>2023-08-30T15:57:31Z</time>
      </trkpt>
      <trkpt lat="46.7817" lon="-0.83843">
        <ele>207</ele>
        <time>2023-08-30T15:57:32Z</time>
      </trkpt>
      <trkpt lat="46.78152" lon="-0.8384">
        <ele>206</ele>
        <time>2023-08-30T15:57:35Z</time>
      </trkpt>
      <trkpt lat="46.78145" lon="-0.83856">
        <ele>205</ele>
        <time>2023-08-30T15:57:38Z</time>
      </trkpt>
      <trkpt lat="46.78127" lon="-0.8388">
        <ele>203</ele>
        <time>2023-08-30T15:57:42Z</time>
      </trkpt>
      <trkpt lat="46.78111" lon="-0.83895">
        <ele>203</ele>
        <time>2023-08-30T15:57:45Z</time>
      </trkpt>
      <trkpt lat="46.78087" lon="-0.83913">
        <ele>202</ele>
        <time>2023-08-30T15:57:50Z</time>
      </trkpt>
      <trkpt lat="46.78079" lon="-0.839">
        <ele>201</ele>
        <time>2023-08-30T15:57:52Z</time>
      </trkpt>
      <trkpt lat="46.78071" lon="-0.83897">
        <ele>201</ele>
        <time>2023-08-30T15:57:54Z</time>
      </trkpt>
      <trkpt lat="46.78029" lon="-0.83889">
        <ele>197</ele>
        <time>2023-08-30T15:58:01Z</time>
      </trkpt>
      <trkpt lat="46.78003" lon="-0.83893">
        <ele>195</ele>
        <time>2023-08-30T15:58:06Z</time>
      </trkpt>
      <trkpt lat="46.77956" lon="-0.83907">
        <ele>192</ele>
        <time>2023-08-30T15:58:15Z</time>
      </trkpt>
      <trkpt lat="46.77944" lon="-0.83908">
        <ele>192</ele>
        <time>2023-08-30T15:58:17Z</time>
      </trkpt>
      <trkpt lat="46.77937" lon="-0.83908">
        <ele>191</ele>
        <time>2023-08-30T15:58:18Z</time>
      </trkpt>
      <trkpt lat="46.77923" lon="-0.83902">
        <ele>190</ele>
        <time>2023-08-30T15:58:21Z</time>
      </trkpt>
      <trkpt lat="46.77914" lon="-0.83892">
        <ele>189</ele>
        <time>2023-08-30T15:58:23Z</time>
      </trkpt>
      <trkpt lat="46.77903" lon="-0.8387">
        <ele>188</ele>
        <time>2023-08-30T15:58:26Z</time>
      </trkpt>
      <trkpt lat="46.77897" lon="-0.83848">
        <ele>187</ele>
        <time>2023-08-30T15:58:29Z</time>
      </trkpt>
      <trkpt lat="46.77878" lon="-0.83754">
        <ele>181</ele>
        <time>2023-08-30T15:58:41Z</time>
      </trkpt>
      <trkpt lat="46.7787" lon="-0.83727">
        <ele>179</ele>
        <time>2023-08-30T15:58:44Z</time>
      </trkpt>
      <trkpt lat="46.77863" lon="-0.83713">
        <ele>177</ele>
        <time>2023-08-30T15:58:46Z</time>
      </trkpt>
      <trkpt lat="46.77855" lon="-0.83704">
        <ele>177</ele>
        <time>2023-08-30T15:58:48Z</time>
      </trkpt>
      <trkpt lat="46.77846" lon="-0.83697">
        <ele>176</ele>
        <time>2023-08-30T15:58:50Z</time>
      </trkpt>
      <trkpt lat="46.7777" lon="-0.8366">
        <ele>172</ele>
        <time>2023-08-30T15:59:04Z</time>
      </trkpt>
      <trkpt lat="46.77748" lon="-0.83648">
        <ele>171</ele>
        <time>2023-08-30T15:59:08Z</time>
      </trkpt>
      <trkpt lat="46.77702" lon="-0.83606">
        <ele>168</ele>
        <time>2023-08-30T15:59:18Z</time>
      </trkpt>
      <trkpt lat="46.77647" lon="-0.83546">
        <ele>166</ele>
        <time>2023-08-30T15:59:30Z</time>
      </trkpt>
      <trkpt lat="46.7763" lon="-0.83522">
        <ele>165</ele>
        <time>2023-08-30T15:59:34Z</time>
      </trkpt>
      <trkpt lat="46.77623" lon="-0.8351">
        <ele>165</ele>
        <time>2023-08-30T15:59:36Z</time>
      </trkpt>
      <trkpt lat="46.77607" lon="-0.83476">
        <ele>165</ele>
        <time>2023-08-30T15:59:41Z</time>
      </trkpt>
      <trkpt lat="46.7757" lon="-0.83389">
        <ele>163</ele>
        <time>2023-08-30T15:59:54Z</time>
      </trkpt>
      <trkpt lat="46.77553" lon="-0.83363">
        <ele>162</ele>
        <time>2023-08-30T15:59:58Z</time>
      </trkpt>
      <trkpt lat="46.77538" lon="-0.83347">
        <ele>162</ele>
        <time>2023-08-30T16:00:02Z</time>
      </trkpt>
      <trkpt lat="46.77521" lon="-0.83334">
        <ele>162</ele>
        <time>2023-08-30T16:00:05Z</time>
      </trkpt>
      <trkpt lat="46.77448" lon="-0.83291">
        <ele>162</ele>
        <time>2023-08-30T16:00:19Z</time>
      </trkpt>
      <trkpt lat="46.77426" lon="-0.83276">
        <ele>161</ele>
        <time>2023-08-30T16:00:23Z</time>
      </trkpt>
      <trkpt lat="46.77385" lon="-0.83241">
        <ele>157</ele>
        <time>2023-08-30T16:00:32Z</time>
      </trkpt>
      <trkpt lat="46.77339" lon="-0.83191">
        <ele>152</ele>
        <time>2023-08-30T16:00:42Z</time>
      </trkpt>
      <trkpt lat="46.77329" lon="-0.83185">
        <ele>151</ele>
        <time>2023-08-30T16:00:44Z</time>
      </trkpt>
      <trkpt lat="46.77319" lon="-0.83191">
        <ele>151</ele>
        <time>2023-08-30T16:00:46Z</time>
      </trkpt>
      <trkpt lat="46.77307" lon="-0.83188">
        <ele>150</ele>
        <time>2023-08-30T16:00:48Z</time>
      </trkpt>
      <trkpt lat="46.77301" lon="-0.83182">
        <ele>149</ele>
        <time>2023-08-30T16:00:49Z</time>
      </trkpt>
      <trkpt lat="46.77295" lon="-0.83168">
        <ele>148</ele>
        <time>2023-08-30T16:00:51Z</time>
      </trkpt>
      <trkpt lat="46.77294" lon="-0.8316">
        <ele>148</ele>
        <time>2023-08-30T16:00:52Z</time>
      </trkpt>
      <trkpt lat="46.77285" lon="-0.83151">
        <ele>148</ele>
        <time>2023-08-30T16:00:54Z</time>
      </trkpt>
      <trkpt lat="46.77262" lon="-0.8314">
        <ele>146</ele>
        <time>2023-08-30T16:00:59Z</time>
      </trkpt>
      <trkpt lat="46.77257" lon="-0.83133">
        <ele>146</ele>
        <time>2023-08-30T16:01:00Z</time>
      </trkpt>
      <trkpt lat="46.77249" lon="-0.83129">
        <ele>146</ele>
        <time>2023-08-30T16:01:01Z</time>
      </trkpt>
      <trkpt lat="46.77156" lon="-0.83086">
        <ele>143</ele>
        <time>2023-08-30T16:01:19Z</time>
      </trkpt>
      <trkpt lat="46.7711" lon="-0.83054">
        <ele>146</ele>
        <time>2023-08-30T16:01:28Z</time>
      </trkpt>
      <trkpt lat="46.77084" lon="-0.83031">
        <ele>148</ele>
        <time>2023-08-30T16:01:33Z</time>
      </trkpt>
      <trkpt lat="46.77049" lon="-0.82995">
        <ele>148</ele>
        <time>2023-08-30T16:01:41Z</time>
      </trkpt>
      <trkpt lat="46.76991" lon="-0.82928">
        <ele>148</ele>
        <time>2023-08-30T16:01:54Z</time>
      </trkpt>
      <trkpt lat="46.76895" lon="-0.82796">
        <ele>152</ele>
        <time>2023-08-30T16:02:17Z</time>
      </trkpt>
      <trkpt lat="46.76808" lon="-0.82666">
        <ele>156</ele>
        <time>2023-08-30T16:02:40Z</time>
      </trkpt>
      <trkpt lat="46.76791" lon="-0.82646">
        <ele>158</ele>
        <time>2023-08-30T16:02:43Z</time>
      </trkpt>
      <trkpt lat="46.76759" lon="-0.82615">
        <ele>160</ele>
        <time>2023-08-30T16:02:50Z</time>
      </trkpt>
      <trkpt lat="46.76727" lon="-0.82591">
        <ele>159</ele>
        <time>2023-08-30T16:02:57Z</time>
      </trkpt>
      <trkpt lat="46.76679" lon="-0.82564">
        <ele>156</ele>
        <time>2023-08-30T16:03:06Z</time>
      </trkpt>
      <trkpt lat="46.76665" lon="-0.82559">
        <ele>155</ele>
        <time>2023-08-30T16:03:08Z</time>
      </trkpt>
      <trkpt lat="46.76658" lon="-0.82562">
        <ele>155</ele>
        <time>2023-08-30T16:03:10Z</time>
      </trkpt>
      <trkpt lat="46.76651" lon="-0.82561">
        <ele>154</ele>
        <time>2023-08-30T16:03:11Z</time>
      </trkpt>
      <trkpt lat="46.76645" lon="-0.82557">
        <ele>154</ele>
        <time>2023-08-30T16:03:12Z</time>
      </trkpt>
      <trkpt lat="46.7664" lon="-0.8255">
        <ele>153</ele>
        <time>2023-08-30T16:03:13Z</time>
      </trkpt>
      <trkpt lat="46.76628" lon="-0.82546">
        <ele>152</ele>
        <time>2023-08-30T16:03:16Z</time>
      </trkpt>
      <trkpt lat="46.76608" lon="-0.82547">
        <ele>151</ele>
        <time>2023-08-30T16:03:19Z</time>
      </trkpt>
      <trkpt lat="46.76581" lon="-0.82561">
        <ele>150</ele>
        <time>2023-08-30T16:03:24Z</time>
      </trkpt>
      <trkpt lat="46.76567" lon="-0.82572">
        <ele>149</ele>
        <time>2023-08-30T16:03:27Z</time>
      </trkpt>
      <trkpt lat="46.76552" lon="-0.82581">
        <ele>148</ele>
        <time>2023-08-30T16:03:30Z</time>
      </trkpt>
      <trkpt lat="46.765" lon="-0.826">
        <ele>144</ele>
        <time>2023-08-30T16:03:39Z</time>
      </trkpt>
      <trkpt lat="46.76467" lon="-0.82609">
        <ele>144</ele>
        <time>2023-08-30T16:03:45Z</time>
      </trkpt>
      <trkpt lat="46.76433" lon="-0.82613">
        <ele>143</ele>
        <time>2023-08-30T16:03:51Z</time>
      </trkpt>
      <trkpt lat="46.76415" lon="-0.82612">
        <ele>143</ele>
        <time>2023-08-30T16:03:55Z</time>
      </trkpt>
      <trkpt lat="46.76383" lon="-0.82605">
        <ele>143</ele>
        <time>2023-08-30T16:04:00Z</time>
      </trkpt>
      <trkpt lat="46.76355" lon="-0.82593">
        <ele>144</ele>
        <time>2023-08-30T16:04:06Z</time>
      </trkpt>
      <trkpt lat="46.76331" lon="-0.82578">
        <ele>144</ele>
        <time>2023-08-30T16:04:10Z</time>
      </trkpt>
      <trkpt lat="46.7632" lon="-0.82567">
        <ele>145</ele>
        <time>2023-08-30T16:04:13Z</time>
      </trkpt>
      <trkpt lat="46.7631" lon="-0.82553">
        <ele>145</ele>
        <time>2023-08-30T16:04:15Z</time>
      </trkpt>
      <trkpt lat="46.76245" lon="-0.82432">
        <ele>149</ele>
        <time>2023-08-30T16:04:34Z</time>
      </trkpt>
      <trkpt lat="46.76211" lon="-0.82374">
        <ele>152</ele>
        <time>2023-08-30T16:04:43Z</time>
      </trkpt>
      <trkpt lat="46.76188" lon="-0.82341">
        <ele>152</ele>
        <time>2023-08-30T16:04:49Z</time>
      </trkpt>
      <trkpt lat="46.76159" lon="-0.82309">
        <ele>151</ele>
        <time>2023-08-30T16:04:55Z</time>
      </trkpt>
      <trkpt lat="46.76106" lon="-0.82264">
        <ele>148</ele>
        <time>2023-08-30T16:05:06Z</time>
      </trkpt>
      <trkpt lat="46.76037" lon="-0.82216">
        <ele>145</ele>
        <time>2023-08-30T16:05:20Z</time>
      </trkpt>
      <trkpt lat="46.75938" lon="-0.82155">
        <ele>144</ele>
        <time>2023-08-30T16:05:39Z</time>
      </trkpt>
      <trkpt lat="46.75922" lon="-0.82145">
        <ele>144</ele>
        <time>2023-08-30T16:05:42Z</time>
      </trkpt>
      <trkpt lat="46.75803" lon="-0.82059">
        <ele>150</ele>
        <time>2023-08-30T16:06:06Z</time>
      </trkpt>
      <trkpt lat="46.75628" lon="-0.81937">
        <ele>158</ele>
        <time>2023-08-30T16:06:40Z</time>
      </trkpt>
      <trkpt lat="46.75542" lon="-0.8189">
        <ele>161</ele>
        <time>2023-08-30T16:06:57Z</time>
      </trkpt>
      <trkpt lat="46.75019" lon="-0.8162">
        <ele>160</ele>
        <time>2023-08-30T16:08:35Z</time>
      </trkpt>
      <trkpt lat="46.74814" lon="-0.81511">
        <ele>155</ele>
        <time>2023-08-30T16:09:14Z</time>
      </trkpt>
      <trkpt lat="46.74786" lon="-0.81499">
        <ele>154</ele>
        <time>2023-08-30T16:09:19Z</time>
      </trkpt>
      <trkpt lat="46.74725" lon="-0.81467">
        <ele>151</ele>
        <time>2023-08-30T16:09:31Z</time>
      </trkpt>
      <trkpt lat="46.74664" lon="-0.81433">
        <ele>149</ele>
        <time>2023-08-30T16:09:42Z</time>
      </trkpt>
      <trkpt lat="46.74646" lon="-0.81427">
        <ele>148</ele>
        <time>2023-08-30T16:09:46Z</time>
      </trkpt>
      <trkpt lat="46.74629" lon="-0.81426">
        <ele>147</ele>
        <time>2023-08-30T16:09:49Z</time>
      </trkpt>
      <trkpt lat="46.74622" lon="-0.81434">
        <ele>146</ele>
        <time>2023-08-30T16:09:50Z</time>
      </trkpt>
      <trkpt lat="46.74616" lon="-0.81435">
        <ele>146</ele>
        <time>2023-08-30T16:09:51Z</time>
      </trkpt>
      <trkpt lat="46.74607" lon="-0.81429">
        <ele>146</ele>
        <time>2023-08-30T16:09:53Z</time>
      </trkpt>
      <trkpt lat="46.74601" lon="-0.81418">
        <ele>145</ele>
        <time>2023-08-30T16:09:55Z</time>
      </trkpt>
      <trkpt lat="46.74587" lon="-0.81403">
        <ele>144</ele>
        <time>2023-08-30T16:09:58Z</time>
      </trkpt>
      <trkpt lat="46.74552" lon="-0.81375">
        <ele>144</ele>
        <time>2023-08-30T16:10:05Z</time>
      </trkpt>
      <trkpt lat="46.74399" lon="-0.81294">
        <ele>142</ele>
        <time>2023-08-30T16:10:34Z</time>
      </trkpt>
      <trkpt lat="46.74357" lon="-0.81267">
        <ele>141</ele>
        <time>2023-08-30T16:10:42Z</time>
      </trkpt>
      <trkpt lat="46.7434" lon="-0.81253">
        <ele>141</ele>
        <time>2023-08-30T16:10:46Z</time>
      </trkpt>
      <trkpt lat="46.74304" lon="-0.81217">
        <ele>139</ele>
        <time>2023-08-30T16:10:53Z</time>
      </trkpt>
      <trkpt lat="46.74272" lon="-0.81178">
        <ele>137</ele>
        <time>2023-08-30T16:11:01Z</time>
      </trkpt>
      <trkpt lat="46.7424" lon="-0.81133">
        <ele>136</ele>
        <time>2023-08-30T16:11:09Z</time>
      </trkpt>
      <trkpt lat="46.74165" lon="-0.81018">
        <ele>132</ele>
        <time>2023-08-30T16:11:28Z</time>
      </trkpt>
      <trkpt lat="46.74139" lon="-0.80985">
        <ele>130</ele>
        <time>2023-08-30T16:11:34Z</time>
      </trkpt>
      <trkpt lat="46.74111" lon="-0.80959">
        <ele>129</ele>
        <time>2023-08-30T16:11:40Z</time>
      </trkpt>
      <trkpt lat="46.741" lon="-0.80949">
        <ele>129</ele>
        <time>2023-08-30T16:11:42Z</time>
      </trkpt>
      <trkpt lat="46.74054" lon="-0.80918">
        <ele>130</ele>
        <time>2023-08-30T16:11:51Z</time>
      </trkpt>
      <trkpt lat="46.74015" lon="-0.80898">
        <ele>134</ele>
        <time>2023-08-30T16:11:59Z</time>
      </trkpt>
      <trkpt lat="46.73979" lon="-0.80883">
        <ele>136</ele>
        <time>2023-08-30T16:12:05Z</time>
      </trkpt>
      <trkpt lat="46.73959" lon="-0.80878">
        <ele>137</ele>
        <time>2023-08-30T16:12:09Z</time>
      </trkpt>
      <trkpt lat="46.73876" lon="-0.80864">
        <ele>142</ele>
        <time>2023-08-30T16:12:24Z</time>
      </trkpt>
      <trkpt lat="46.73842" lon="-0.80851">
        <ele>143</ele>
        <time>2023-08-30T16:12:30Z</time>
      </trkpt>
      <trkpt lat="46.73805" lon="-0.80826">
        <ele>145</ele>
        <time>2023-08-30T16:12:37Z</time>
      </trkpt>
      <trkpt lat="46.73781" lon="-0.80807">
        <ele>146</ele>
        <time>2023-08-30T16:12:42Z</time>
      </trkpt>
      <trkpt lat="46.73677" lon="-0.80716">
        <ele>151</ele>
        <time>2023-08-30T16:13:04Z</time>
      </trkpt>
      <trkpt lat="46.73645" lon="-0.80692">
        <ele>152</ele>
        <time>2023-08-30T16:13:10Z</time>
      </trkpt>
      <trkpt lat="46.73613" lon="-0.80675">
        <ele>152</ele>
        <time>2023-08-30T16:13:16Z</time>
      </trkpt>
      <trkpt lat="46.7358" lon="-0.80664">
        <ele>153</ele>
        <time>2023-08-30T16:13:22Z</time>
      </trkpt>
      <trkpt lat="46.73545" lon="-0.80661">
        <ele>152</ele>
        <time>2023-08-30T16:13:29Z</time>
      </trkpt>
      <trkpt lat="46.73448" lon="-0.8067">
        <ele>150</ele>
        <time>2023-08-30T16:13:46Z</time>
      </trkpt>
      <trkpt lat="46.73423" lon="-0.80669">
        <ele>149</ele>
        <time>2023-08-30T16:13:50Z</time>
      </trkpt>
      <trkpt lat="46.73307" lon="-0.8066">
        <ele>147</ele>
        <time>2023-08-30T16:14:11Z</time>
      </trkpt>
      <trkpt lat="46.73293" lon="-0.80662">
        <ele>147</ele>
        <time>2023-08-30T16:14:14Z</time>
      </trkpt>
      <trkpt lat="46.73281" lon="-0.80668">
        <ele>146</ele>
        <time>2023-08-30T16:14:16Z</time>
      </trkpt>
      <trkpt lat="46.73267" lon="-0.80678">
        <ele>146</ele>
        <time>2023-08-30T16:14:19Z</time>
      </trkpt>
      <trkpt lat="46.73256" lon="-0.80683">
        <ele>146</ele>
        <time>2023-08-30T16:14:21Z</time>
      </trkpt>
      <trkpt lat="46.73243" lon="-0.80682">
        <ele>146</ele>
        <time>2023-08-30T16:14:23Z</time>
      </trkpt>
      <trkpt lat="46.73231" lon="-0.80675">
        <ele>146</ele>
        <time>2023-08-30T16:14:25Z</time>
      </trkpt>
      <trkpt lat="46.73223" lon="-0.80666">
        <ele>146</ele>
        <time>2023-08-30T16:14:27Z</time>
      </trkpt>
      <trkpt lat="46.73204" lon="-0.80629">
        <ele>146</ele>
        <time>2023-08-30T16:14:33Z</time>
      </trkpt>
      <trkpt lat="46.73198" lon="-0.80623">
        <ele>146</ele>
        <time>2023-08-30T16:14:34Z</time>
      </trkpt>
      <trkpt lat="46.73187" lon="-0.80621">
        <ele>146</ele>
        <time>2023-08-30T16:14:36Z</time>
      </trkpt>
      <trkpt lat="46.73182" lon="-0.80618">
        <ele>146</ele>
        <time>2023-08-30T16:14:37Z</time>
      </trkpt>
      <trkpt lat="46.73174" lon="-0.80605">
        <ele>145</ele>
        <time>2023-08-30T16:14:39Z</time>
      </trkpt>
      <trkpt lat="46.7317" lon="-0.80588">
        <ele>145</ele>
        <time>2023-08-30T16:14:41Z</time>
      </trkpt>
      <trkpt lat="46.73162" lon="-0.80576">
        <ele>145</ele>
        <time>2023-08-30T16:14:43Z</time>
      </trkpt>
      <trkpt lat="46.73141" lon="-0.80565">
        <ele>144</ele>
        <time>2023-08-30T16:14:47Z</time>
      </trkpt>
      <trkpt lat="46.73131" lon="-0.80568">
        <ele>144</ele>
        <time>2023-08-30T16:14:49Z</time>
      </trkpt>
      <trkpt lat="46.73096" lon="-0.80596">
        <ele>143</ele>
        <time>2023-08-30T16:14:56Z</time>
      </trkpt>
      <trkpt lat="46.73084" lon="-0.80603">
        <ele>143</ele>
        <time>2023-08-30T16:14:58Z</time>
      </trkpt>
      <trkpt lat="46.73073" lon="-0.80605">
        <ele>142</ele>
        <time>2023-08-30T16:15:00Z</time>
      </trkpt>
      <trkpt lat="46.73052" lon="-0.80602">
        <ele>141</ele>
        <time>2023-08-30T16:15:04Z</time>
      </trkpt>
      <trkpt lat="46.7301" lon="-0.80582">
        <ele>139</ele>
        <time>2023-08-30T16:15:12Z</time>
      </trkpt>
      <trkpt lat="46.72908" lon="-0.80528">
        <ele>134</ele>
        <time>2023-08-30T16:15:31Z</time>
      </trkpt>
      <trkpt lat="46.72828" lon="-0.80496">
        <ele>134</ele>
        <time>2023-08-30T16:15:46Z</time>
      </trkpt>
      <trkpt lat="46.72732" lon="-0.80464">
        <ele>132</ele>
        <time>2023-08-30T16:16:04Z</time>
      </trkpt>
      <trkpt lat="46.7257" lon="-0.80385">
        <ele>128</ele>
        <time>2023-08-30T16:16:34Z</time>
      </trkpt>
      <trkpt lat="46.72483" lon="-0.80346">
        <ele>122</ele>
        <time>2023-08-30T16:16:50Z</time>
      </trkpt>
      <trkpt lat="46.72491" lon="-0.80279">
        <ele>123</ele>
        <time>2023-08-30T16:16:59Z</time>
      </trkpt>
      <trkpt lat="46.72497" lon="-0.80253">
        <ele>124</ele>
        <time>2023-08-30T16:17:02Z</time>
      </trkpt>
      <trkpt lat="46.72504" lon="-0.80234">
        <ele>125</ele>
        <time>2023-08-30T16:17:04Z</time>
      </trkpt>
      <trkpt lat="46.72534" lon="-0.80176">
        <ele>128</ele>
        <time>2023-08-30T16:17:13Z</time>
      </trkpt>
      <trkpt lat="46.72545" lon="-0.80144">
        <ele>129</ele>
        <time>2023-08-30T16:17:18Z</time>
      </trkpt>
      <trkpt lat="46.72556" lon="-0.80108">
        <ele>131</ele>
        <time>2023-08-30T16:17:23Z</time>
      </trkpt>
      <trkpt lat="46.72924" lon="-0.78914">
        <ele>138</ele>
        <time>2023-08-30T16:20:02Z</time>
      </trkpt>
      <trkpt lat="46.7296" lon="-0.78825">
        <ele>141</ele>
        <time>2023-08-30T16:20:15Z</time>
      </trkpt>
      <trkpt lat="46.7302" lon="-0.78703">
        <ele>145</ele>
        <time>2023-08-30T16:20:33Z</time>
      </trkpt>
      <trkpt lat="46.73047" lon="-0.78636">
        <ele>146</ele>
        <time>2023-08-30T16:20:43Z</time>
      </trkpt>
      <trkpt lat="46.73063" lon="-0.78587">
        <ele>146</ele>
        <time>2023-08-30T16:20:49Z</time>
      </trkpt>
      <trkpt lat="46.73094" lon="-0.78464">
        <ele>148</ele>
        <time>2023-08-30T16:21:05Z</time>
      </trkpt>
      <trkpt lat="46.73121" lon="-0.78386">
        <ele>151</ele>
        <time>2023-08-30T16:21:16Z</time>
      </trkpt>
      <trkpt lat="46.73139" lon="-0.78352">
        <ele>153</ele>
        <time>2023-08-30T16:21:21Z</time>
      </trkpt>
      <trkpt lat="46.73183" lon="-0.78285">
        <ele>156</ele>
        <time>2023-08-30T16:21:32Z</time>
      </trkpt>
      <trkpt lat="46.73334" lon="-0.77999">
        <ele>160</ele>
        <time>2023-08-30T16:22:16Z</time>
      </trkpt>
      <trkpt lat="46.73351" lon="-0.77971">
        <ele>160</ele>
        <time>2023-08-30T16:22:21Z</time>
      </trkpt>
      <trkpt lat="46.73369" lon="-0.77951">
        <ele>160</ele>
        <time>2023-08-30T16:22:25Z</time>
      </trkpt>
      <trkpt lat="46.73485" lon="-0.77831">
        <ele>161</ele>
        <time>2023-08-30T16:22:50Z</time>
      </trkpt>
      <trkpt lat="46.73653" lon="-0.77636">
        <ele>170</ele>
        <time>2023-08-30T16:23:29Z</time>
      </trkpt>
      <trkpt lat="46.73709" lon="-0.77581">
        <ele>171</ele>
        <time>2023-08-30T16:23:41Z</time>
      </trkpt>
      <trkpt lat="46.73778" lon="-0.77521">
        <ele>170</ele>
        <time>2023-08-30T16:23:55Z</time>
      </trkpt>
      <trkpt lat="46.73796" lon="-0.77499">
        <ele>170</ele>
        <time>2023-08-30T16:23:59Z</time>
      </trkpt>
      <trkpt lat="46.73815" lon="-0.77466">
        <ele>170</ele>
        <time>2023-08-30T16:24:04Z</time>
      </trkpt>
      <trkpt lat="46.73925" lon="-0.77256">
        <ele>163</ele>
        <time>2023-08-30T16:24:36Z</time>
      </trkpt>
      <trkpt lat="46.7393" lon="-0.77234">
        <ele>163</ele>
        <time>2023-08-30T16:24:39Z</time>
      </trkpt>
      <trkpt lat="46.73932" lon="-0.77203">
        <ele>162</ele>
        <time>2023-08-30T16:24:43Z</time>
      </trkpt>
      <trkpt lat="46.73923" lon="-0.77061">
        <ele>157</ele>
        <time>2023-08-30T16:25:00Z</time>
      </trkpt>
      <trkpt lat="46.73923" lon="-0.77013">
        <ele>156</ele>
        <time>2023-08-30T16:25:06Z</time>
      </trkpt>
      <trkpt lat="46.73928" lon="-0.76984">
        <ele>156</ele>
        <time>2023-08-30T16:25:10Z</time>
      </trkpt>
      <trkpt lat="46.73944" lon="-0.7693">
        <ele>157</ele>
        <time>2023-08-30T16:25:17Z</time>
      </trkpt>
      <trkpt lat="46.73965" lon="-0.76882">
        <ele>159</ele>
        <time>2023-08-30T16:25:24Z</time>
      </trkpt>
      <trkpt lat="46.73981" lon="-0.76856">
        <ele>161</ele>
        <time>2023-08-30T16:25:28Z</time>
      </trkpt>
      <trkpt lat="46.73995" lon="-0.76839">
        <ele>162</ele>
        <time>2023-08-30T16:25:32Z</time>
      </trkpt>
      <trkpt lat="46.74071" lon="-0.76774">
        <ele>165</ele>
        <time>2023-08-30T16:25:47Z</time>
      </trkpt>
      <trkpt lat="46.74084" lon="-0.76753">
        <ele>165</ele>
        <time>2023-08-30T16:25:51Z</time>
      </trkpt>
      <trkpt lat="46.74097" lon="-0.76727">
        <ele>165</ele>
        <time>2023-08-30T16:25:55Z</time>
      </trkpt>
      <trkpt lat="46.74121" lon="-0.76664">
        <ele>165</ele>
        <time>2023-08-30T16:26:03Z</time>
      </trkpt>
      <trkpt lat="46.74126" lon="-0.76642">
        <ele>166</ele>
        <time>2023-08-30T16:26:06Z</time>
      </trkpt>
      <trkpt lat="46.74127" lon="-0.76613">
        <ele>166</ele>
        <time>2023-08-30T16:26:10Z</time>
      </trkpt>
      <trkpt lat="46.74124" lon="-0.76486">
        <ele>165</ele>
        <time>2023-08-30T16:26:25Z</time>
      </trkpt>
      <trkpt lat="46.74118" lon="-0.76389">
        <ele>163</ele>
        <time>2023-08-30T16:26:37Z</time>
      </trkpt>
      <trkpt lat="46.74112" lon="-0.76348">
        <ele>162</ele>
        <time>2023-08-30T16:26:42Z</time>
      </trkpt>
      <trkpt lat="46.74113" lon="-0.76335">
        <ele>162</ele>
        <time>2023-08-30T16:26:44Z</time>
      </trkpt>
      <trkpt lat="46.74156" lon="-0.7625">
        <ele>161</ele>
        <time>2023-08-30T16:26:57Z</time>
      </trkpt>
      <trkpt lat="46.74166" lon="-0.76225">
        <ele>160</ele>
        <time>2023-08-30T16:27:00Z</time>
      </trkpt>
      <trkpt lat="46.74189" lon="-0.76153">
        <ele>155</ele>
        <time>2023-08-30T16:27:10Z</time>
      </trkpt>
      <trkpt lat="46.74194" lon="-0.76146">
        <ele>155</ele>
        <time>2023-08-30T16:27:11Z</time>
      </trkpt>
      <trkpt lat="46.74207" lon="-0.7614">
        <ele>154</ele>
        <time>2023-08-30T16:27:14Z</time>
      </trkpt>
      <trkpt lat="46.74227" lon="-0.76139">
        <ele>154</ele>
        <time>2023-08-30T16:27:17Z</time>
      </trkpt>
      <trkpt lat="46.74332" lon="-0.76148">
        <ele>153</ele>
        <time>2023-08-30T16:27:36Z</time>
      </trkpt>
      <trkpt lat="46.74431" lon="-0.76137">
        <ele>157</ele>
        <time>2023-08-30T16:27:54Z</time>
      </trkpt>
      <trkpt lat="46.74517" lon="-0.7612">
        <ele>156</ele>
        <time>2023-08-30T16:28:09Z</time>
      </trkpt>
      <trkpt lat="46.74546" lon="-0.76113">
        <ele>156</ele>
        <time>2023-08-30T16:28:14Z</time>
      </trkpt>
      <trkpt lat="46.74565" lon="-0.76106">
        <ele>155</ele>
        <time>2023-08-30T16:28:18Z</time>
      </trkpt>
      <trkpt lat="46.7458" lon="-0.76094">
        <ele>155</ele>
        <time>2023-08-30T16:28:21Z</time>
      </trkpt>
      <trkpt lat="46.74608" lon="-0.76066">
        <ele>155</ele>
        <time>2023-08-30T16:28:27Z</time>
      </trkpt>
      <trkpt lat="46.7462" lon="-0.76058">
        <ele>155</ele>
        <time>2023-08-30T16:28:29Z</time>
      </trkpt>
      <trkpt lat="46.74632" lon="-0.76052">
        <ele>156</ele>
        <time>2023-08-30T16:28:31Z</time>
      </trkpt>
      <trkpt lat="46.74645" lon="-0.7605">
        <ele>156</ele>
        <time>2023-08-30T16:28:34Z</time>
      </trkpt>
      <trkpt lat="46.74657" lon="-0.76052">
        <ele>156</ele>
        <time>2023-08-30T16:28:36Z</time>
      </trkpt>
      <trkpt lat="46.74832" lon="-0.7611">
        <ele>167</ele>
        <time>2023-08-30T16:29:08Z</time>
      </trkpt>
      <trkpt lat="46.74863" lon="-0.76116">
        <ele>167</ele>
        <time>2023-08-30T16:29:13Z</time>
      </trkpt>
      <trkpt lat="46.7489" lon="-0.76113">
        <ele>168</ele>
        <time>2023-08-30T16:29:18Z</time>
      </trkpt>
      <trkpt lat="46.7491" lon="-0.76106">
        <ele>169</ele>
        <time>2023-08-30T16:29:22Z</time>
      </trkpt>
      <trkpt lat="46.74955" lon="-0.76086">
        <ele>169</ele>
        <time>2023-08-30T16:29:30Z</time>
      </trkpt>
      <trkpt lat="46.74975" lon="-0.76075">
        <ele>170</ele>
        <time>2023-08-30T16:29:34Z</time>
      </trkpt>
      <trkpt lat="46.74991" lon="-0.76061">
        <ele>171</ele>
        <time>2023-08-30T16:29:37Z</time>
      </trkpt>
      <trkpt lat="46.75005" lon="-0.76044">
        <ele>172</ele>
        <time>2023-08-30T16:29:41Z</time>
      </trkpt>
      <trkpt lat="46.75016" lon="-0.76025">
        <ele>173</ele>
        <time>2023-08-30T16:29:44Z</time>
      </trkpt>
      <trkpt lat="46.75029" lon="-0.75999">
        <ele>173</ele>
        <time>2023-08-30T16:29:48Z</time>
      </trkpt>
      <trkpt lat="46.75042" lon="-0.75955">
        <ele>175</ele>
        <time>2023-08-30T16:29:53Z</time>
      </trkpt>
      <trkpt lat="46.75064" lon="-0.75855">
        <ele>176</ele>
        <time>2023-08-30T16:30:06Z</time>
      </trkpt>
      <trkpt lat="46.75075" lon="-0.75822">
        <ele>176</ele>
        <time>2023-08-30T16:30:11Z</time>
      </trkpt>
      <trkpt lat="46.75082" lon="-0.75805">
        <ele>176</ele>
        <time>2023-08-30T16:30:13Z</time>
      </trkpt>
      <trkpt lat="46.75107" lon="-0.75767">
        <ele>177</ele>
        <time>2023-08-30T16:30:20Z</time>
      </trkpt>
      <trkpt lat="46.7518" lon="-0.75673">
        <ele>180</ele>
        <time>2023-08-30T16:30:37Z</time>
      </trkpt>
      <trkpt lat="46.75196" lon="-0.75659">
        <ele>180</ele>
        <time>2023-08-30T16:30:40Z</time>
      </trkpt>
      <trkpt lat="46.75215" lon="-0.75647">
        <ele>181</ele>
        <time>2023-08-30T16:30:44Z</time>
      </trkpt>
      <trkpt lat="46.75229" lon="-0.75643">
        <ele>181</ele>
        <time>2023-08-30T16:30:46Z</time>
      </trkpt>
      <trkpt lat="46.75389" lon="-0.75653">
        <ele>188</ele>
        <time>2023-08-30T16:31:15Z</time>
      </trkpt>
      <trkpt lat="46.75426" lon="-0.75651">
        <ele>191</ele>
        <time>2023-08-30T16:31:21Z</time>
      </trkpt>
      <trkpt lat="46.75492" lon="-0.75634">
        <ele>195</ele>
        <time>2023-08-30T16:31:33Z</time>
      </trkpt>
      <trkpt lat="46.75518" lon="-0.75622">
        <ele>197</ele>
        <time>2023-08-30T16:31:38Z</time>
      </trkpt>
      <trkpt lat="46.75535" lon="-0.75609">
        <ele>198</ele>
        <time>2023-08-30T16:31:42Z</time>
      </trkpt>
      <trkpt lat="46.75552" lon="-0.75593">
        <ele>199</ele>
        <time>2023-08-30T16:31:45Z</time>
      </trkpt>
      <trkpt lat="46.75565" lon="-0.75573">
        <ele>200</ele>
        <time>2023-08-30T16:31:49Z</time>
      </trkpt>
      <trkpt lat="46.75577" lon="-0.75547">
        <ele>202</ele>
        <time>2023-08-30T16:31:52Z</time>
      </trkpt>
      <trkpt lat="46.75586" lon="-0.75519">
        <ele>204</ele>
        <time>2023-08-30T16:31:56Z</time>
      </trkpt>
      <trkpt lat="46.75632" lon="-0.75335">
        <ele>212</ele>
        <time>2023-08-30T16:32:20Z</time>
      </trkpt>
      <trkpt lat="46.75646" lon="-0.75291">
        <ele>213</ele>
        <time>2023-08-30T16:32:26Z</time>
      </trkpt>
      <trkpt lat="46.75661" lon="-0.75255">
        <ele>213</ele>
        <time>2023-08-30T16:32:31Z</time>
      </trkpt>
      <trkpt lat="46.75682" lon="-0.75218">
        <ele>213</ele>
        <time>2023-08-30T16:32:37Z</time>
      </trkpt>
      <trkpt lat="46.75716" lon="-0.7515">
        <ele>211</ele>
        <time>2023-08-30T16:32:47Z</time>
      </trkpt>
      <trkpt lat="46.75808" lon="-0.74978">
        <ele>205</ele>
        <time>2023-08-30T16:33:14Z</time>
      </trkpt>
      <trkpt lat="46.75832" lon="-0.74921">
        <ele>203</ele>
        <time>2023-08-30T16:33:22Z</time>
      </trkpt>
      <trkpt lat="46.75925" lon="-0.74661">
        <ele>203</ele>
        <time>2023-08-30T16:33:58Z</time>
      </trkpt>
      <trkpt lat="46.7595" lon="-0.74609">
        <ele>202</ele>
        <time>2023-08-30T16:34:06Z</time>
      </trkpt>
      <trkpt lat="46.75973" lon="-0.74572">
        <ele>201</ele>
        <time>2023-08-30T16:34:12Z</time>
      </trkpt>
      <trkpt lat="46.76008" lon="-0.74532">
        <ele>201</ele>
        <time>2023-08-30T16:34:20Z</time>
      </trkpt>
      <trkpt lat="46.76068" lon="-0.74474">
        <ele>199</ele>
        <time>2023-08-30T16:34:32Z</time>
      </trkpt>
      <trkpt lat="46.76092" lon="-0.74445">
        <ele>199</ele>
        <time>2023-08-30T16:34:38Z</time>
      </trkpt>
      <trkpt lat="46.76169" lon="-0.74326">
        <ele>196</ele>
        <time>2023-08-30T16:34:58Z</time>
      </trkpt>
      <trkpt lat="46.76211" lon="-0.74277">
        <ele>194</ele>
        <time>2023-08-30T16:35:07Z</time>
      </trkpt>
      <trkpt lat="46.76235" lon="-0.74256">
        <ele>193</ele>
        <time>2023-08-30T16:35:12Z</time>
      </trkpt>
      <trkpt lat="46.76265" lon="-0.74237">
        <ele>192</ele>
        <time>2023-08-30T16:35:18Z</time>
      </trkpt>
      <trkpt lat="46.76325" lon="-0.74207">
        <ele>190</ele>
        <time>2023-08-30T16:35:29Z</time>
      </trkpt>
      <trkpt lat="46.7635" lon="-0.74191">
        <ele>189</ele>
        <time>2023-08-30T16:35:34Z</time>
      </trkpt>
      <trkpt lat="46.7644" lon="-0.74112">
        <ele>188</ele>
        <time>2023-08-30T16:35:53Z</time>
      </trkpt>
      <trkpt lat="46.76466" lon="-0.74094">
        <ele>187</ele>
        <time>2023-08-30T16:35:58Z</time>
      </trkpt>
      <trkpt lat="46.76617" lon="-0.74013">
        <ele>185</ele>
        <time>2023-08-30T16:36:27Z</time>
      </trkpt>
      <trkpt lat="46.76649" lon="-0.74001">
        <ele>185</ele>
        <time>2023-08-30T16:36:33Z</time>
      </trkpt>
      <trkpt lat="46.76719" lon="-0.73987">
        <ele>185</ele>
        <time>2023-08-30T16:36:45Z</time>
      </trkpt>
      <trkpt lat="46.76942" lon="-0.73957">
        <ele>185</ele>
        <time>2023-08-30T16:37:25Z</time>
      </trkpt>
      <trkpt lat="46.76985" lon="-0.73939">
        <ele>186</ele>
        <time>2023-08-30T16:37:33Z</time>
      </trkpt>
      <trkpt lat="46.7715" lon="-0.73833">
        <ele>188</ele>
        <time>2023-08-30T16:38:05Z</time>
      </trkpt>
      <trkpt lat="46.7722" lon="-0.73769">
        <ele>189</ele>
        <time>2023-08-30T16:38:20Z</time>
      </trkpt>
      <trkpt lat="46.7731" lon="-0.7369">
        <ele>187</ele>
        <time>2023-08-30T16:38:38Z</time>
      </trkpt>
      <trkpt lat="46.77347" lon="-0.73665">
        <ele>188</ele>
        <time>2023-08-30T16:38:46Z</time>
      </trkpt>
      <trkpt lat="46.77398" lon="-0.73639">
        <ele>188</ele>
        <time>2023-08-30T16:38:55Z</time>
      </trkpt>
      <trkpt lat="46.7748" lon="-0.73605">
        <ele>187</ele>
        <time>2023-08-30T16:39:10Z</time>
      </trkpt>
      <trkpt lat="46.77533" lon="-0.73592">
        <ele>184</ele>
        <time>2023-08-30T16:39:20Z</time>
      </trkpt>
      <trkpt lat="46.77613" lon="-0.73586">
        <ele>182</ele>
        <time>2023-08-30T16:39:34Z</time>
      </trkpt>
      <trkpt lat="46.77676" lon="-0.73586">
        <ele>181</ele>
        <time>2023-08-30T16:39:46Z</time>
      </trkpt>
      <trkpt lat="46.77739" lon="-0.73592">
        <ele>181</ele>
        <time>2023-08-30T16:39:57Z</time>
      </trkpt>
      <trkpt lat="46.7776" lon="-0.73591">
        <ele>180</ele>
        <time>2023-08-30T16:40:00Z</time>
      </trkpt>
      <trkpt lat="46.7778" lon="-0.73585">
        <ele>179</ele>
        <time>2023-08-30T16:40:04Z</time>
      </trkpt>
      <trkpt lat="46.77811" lon="-0.73569">
        <ele>178</ele>
        <time>2023-08-30T16:40:10Z</time>
      </trkpt>
      <trkpt lat="46.78061" lon="-0.73422">
        <ele>177</ele>
        <time>2023-08-30T16:40:58Z</time>
      </trkpt>
      <trkpt lat="46.78093" lon="-0.73398">
        <ele>177</ele>
        <time>2023-08-30T16:41:04Z</time>
      </trkpt>
      <trkpt lat="46.78114" lon="-0.7338">
        <ele>177</ele>
        <time>2023-08-30T16:41:09Z</time>
      </trkpt>
      <trkpt lat="46.78145" lon="-0.73338">
        <ele>178</ele>
        <time>2023-08-30T16:41:16Z</time>
      </trkpt>
      <trkpt lat="46.78204" lon="-0.73267">
        <ele>182</ele>
        <time>2023-08-30T16:41:30Z</time>
      </trkpt>
      <trkpt lat="46.78243" lon="-0.7323">
        <ele>183</ele>
        <time>2023-08-30T16:41:38Z</time>
      </trkpt>
      <trkpt lat="46.78287" lon="-0.73194">
        <ele>183</ele>
        <time>2023-08-30T16:41:47Z</time>
      </trkpt>
      <trkpt lat="46.78328" lon="-0.73165">
        <ele>180</ele>
        <time>2023-08-30T16:41:55Z</time>
      </trkpt>
      <trkpt lat="46.78396" lon="-0.73124">
        <ele>174</ele>
        <time>2023-08-30T16:42:08Z</time>
      </trkpt>
      <trkpt lat="46.78434" lon="-0.73098">
        <ele>172</ele>
        <time>2023-08-30T16:42:16Z</time>
      </trkpt>
      <trkpt lat="46.78518" lon="-0.73029">
        <ele>169</ele>
        <time>2023-08-30T16:42:33Z</time>
      </trkpt>
      <trkpt lat="46.78541" lon="-0.73014">
        <ele>169</ele>
        <time>2023-08-30T16:42:37Z</time>
      </trkpt>
      <trkpt lat="46.78582" lon="-0.72995">
        <ele>169</ele>
        <time>2023-08-30T16:42:45Z</time>
      </trkpt>
      <trkpt lat="46.78605" lon="-0.72987">
        <ele>168</ele>
        <time>2023-08-30T16:42:49Z</time>
      </trkpt>
      <trkpt lat="46.7865" lon="-0.72977">
        <ele>168</ele>
        <time>2023-08-30T16:42:57Z</time>
      </trkpt>
      <trkpt lat="46.78665" lon="-0.72976">
        <ele>168</ele>
        <time>2023-08-30T16:43:00Z</time>
      </trkpt>
      <trkpt lat="46.7868" lon="-0.72978">
        <ele>167</ele>
        <time>2023-08-30T16:43:03Z</time>
      </trkpt>
      <trkpt lat="46.78722" lon="-0.7299">
        <ele>164</ele>
        <time>2023-08-30T16:43:10Z</time>
      </trkpt>
      <trkpt lat="46.78761" lon="-0.73003">
        <ele>162</ele>
        <time>2023-08-30T16:43:17Z</time>
      </trkpt>
      <trkpt lat="46.78786" lon="-0.73016">
        <ele>161</ele>
        <time>2023-08-30T16:43:22Z</time>
      </trkpt>
      <trkpt lat="46.78814" lon="-0.73036">
        <ele>160</ele>
        <time>2023-08-30T16:43:28Z</time>
      </trkpt>
      <trkpt lat="46.78839" lon="-0.73056">
        <ele>159</ele>
        <time>2023-08-30T16:43:33Z</time>
      </trkpt>
      <trkpt lat="46.78877" lon="-0.73097">
        <ele>158</ele>
        <time>2023-08-30T16:43:41Z</time>
      </trkpt>
      <trkpt lat="46.78885" lon="-0.73104">
        <ele>158</ele>
        <time>2023-08-30T16:43:43Z</time>
      </trkpt>
      <trkpt lat="46.78931" lon="-0.73134">
        <ele>158</ele>
        <time>2023-08-30T16:43:52Z</time>
      </trkpt>
      <trkpt lat="46.78963" lon="-0.7315">
        <ele>159</ele>
        <time>2023-08-30T16:43:58Z</time>
      </trkpt>
      <trkpt lat="46.78984" lon="-0.73157">
        <ele>159</ele>
        <time>2023-08-30T16:44:02Z</time>
      </trkpt>
      <trkpt lat="46.79008" lon="-0.73161">
        <ele>159</ele>
        <time>2023-08-30T16:44:06Z</time>
      </trkpt>
      <trkpt lat="46.79076" lon="-0.7316">
        <ele>163</ele>
        <time>2023-08-30T16:44:18Z</time>
      </trkpt>
      <trkpt lat="46.79097" lon="-0.73165">
        <ele>164</ele>
        <time>2023-08-30T16:44:22Z</time>
      </trkpt>
      <trkpt lat="46.79108" lon="-0.73169">
        <ele>164</ele>
        <time>2023-08-30T16:44:24Z</time>
      </trkpt>
      <trkpt lat="46.7913" lon="-0.73183">
        <ele>165</ele>
        <time>2023-08-30T16:44:28Z</time>
      </trkpt>
      <trkpt lat="46.7914" lon="-0.73194">
        <ele>165</ele>
        <time>2023-08-30T16:44:30Z</time>
      </trkpt>
      <trkpt lat="46.79219" lon="-0.73295">
        <ele>167</ele>
        <time>2023-08-30T16:44:49Z</time>
      </trkpt>
      <trkpt lat="46.79225" lon="-0.733">
        <ele>167</ele>
        <time>2023-08-30T16:44:50Z</time>
      </trkpt>
      <trkpt lat="46.79266" lon="-0.73312">
        <ele>168</ele>
        <time>2023-08-30T16:44:58Z</time>
      </trkpt>
      <trkpt lat="46.79294" lon="-0.73314">
        <ele>168</ele>
        <time>2023-08-30T16:45:03Z</time>
      </trkpt>
      <trkpt lat="46.79334" lon="-0.73312">
        <ele>168</ele>
        <time>2023-08-30T16:45:10Z</time>
      </trkpt>
      <trkpt lat="46.79376" lon="-0.73307">
        <ele>169</ele>
        <time>2023-08-30T16:45:17Z</time>
      </trkpt>
      <trkpt lat="46.79386" lon="-0.73304">
        <ele>169</ele>
        <time>2023-08-30T16:45:19Z</time>
      </trkpt>
      <trkpt lat="46.79452" lon="-0.73302">
        <ele>169</ele>
        <time>2023-08-30T16:45:31Z</time>
      </trkpt>
      <trkpt lat="46.79458" lon="-0.73307">
        <ele>169</ele>
        <time>2023-08-30T16:45:32Z</time>
      </trkpt>
      <trkpt lat="46.79501" lon="-0.73362">
        <ele>169</ele>
        <time>2023-08-30T16:45:42Z</time>
      </trkpt>
      <trkpt lat="46.7952" lon="-0.7338">
        <ele>169</ele>
        <time>2023-08-30T16:45:46Z</time>
      </trkpt>
      <trkpt lat="46.79573" lon="-0.73413">
        <ele>168</ele>
        <time>2023-08-30T16:45:56Z</time>
      </trkpt>
      <trkpt lat="46.79644" lon="-0.73451">
        <ele>165</ele>
        <time>2023-08-30T16:46:10Z</time>
      </trkpt>
      <trkpt lat="46.79686" lon="-0.73469">
        <ele>164</ele>
        <time>2023-08-30T16:46:18Z</time>
      </trkpt>
      <trkpt lat="46.7972" lon="-0.7348">
        <ele>163</ele>
        <time>2023-08-30T16:46:24Z</time>
      </trkpt>
      <trkpt lat="46.79826" lon="-0.73505">
        <ele>161</ele>
        <time>2023-08-30T16:46:43Z</time>
      </trkpt>
      <trkpt lat="46.79861" lon="-0.73509">
        <ele>161</ele>
        <time>2023-08-30T16:46:49Z</time>
      </trkpt>
      <trkpt lat="46.80003" lon="-0.73511">
        <ele>167</ele>
        <time>2023-08-30T16:47:15Z</time>
      </trkpt>
      <trkpt lat="46.80114" lon="-0.73512">
        <ele>171</ele>
        <time>2023-08-30T16:47:34Z</time>
      </trkpt>
      <trkpt lat="46.8014" lon="-0.73511">
        <ele>172</ele>
        <time>2023-08-30T16:47:39Z</time>
      </trkpt>
      <trkpt lat="46.80196" lon="-0.73494">
        <ele>174</ele>
        <time>2023-08-30T16:47:49Z</time>
      </trkpt>
      <trkpt lat="46.80219" lon="-0.7349">
        <ele>175</ele>
        <time>2023-08-30T16:47:53Z</time>
      </trkpt>
      <trkpt lat="46.80238" lon="-0.7349">
        <ele>176</ele>
        <time>2023-08-30T16:47:57Z</time>
      </trkpt>
      <trkpt lat="46.80263" lon="-0.73494">
        <ele>177</ele>
        <time>2023-08-30T16:48:01Z</time>
      </trkpt>
      <trkpt lat="46.80275" lon="-0.73501">
        <ele>177</ele>
        <time>2023-08-30T16:48:03Z</time>
      </trkpt>
      <trkpt lat="46.80287" lon="-0.73513">
        <ele>178</ele>
        <time>2023-08-30T16:48:06Z</time>
      </trkpt>
      <trkpt lat="46.80327" lon="-0.73575">
        <ele>181</ele>
        <time>2023-08-30T16:48:16Z</time>
      </trkpt>
      <trkpt lat="46.80339" lon="-0.7359">
        <ele>181</ele>
        <time>2023-08-30T16:48:19Z</time>
      </trkpt>
      <trkpt lat="46.80351" lon="-0.736">
        <ele>182</ele>
        <time>2023-08-30T16:48:22Z</time>
      </trkpt>
      <trkpt lat="46.80367" lon="-0.73609">
        <ele>183</ele>
        <time>2023-08-30T16:48:25Z</time>
      </trkpt>
      <trkpt lat="46.80466" lon="-0.73657">
        <ele>188</ele>
        <time>2023-08-30T16:48:43Z</time>
      </trkpt>
      <trkpt lat="46.8049" lon="-0.73667">
        <ele>188</ele>
        <time>2023-08-30T16:48:48Z</time>
      </trkpt>
      <trkpt lat="46.80562" lon="-0.73687">
        <ele>189</ele>
        <time>2023-08-30T16:49:01Z</time>
      </trkpt>
      <trkpt lat="46.80723" lon="-0.73749">
        <ele>193</ele>
        <time>2023-08-30T16:49:30Z</time>
      </trkpt>
      <trkpt lat="46.80802" lon="-0.73795">
        <ele>196</ele>
        <time>2023-08-30T16:49:45Z</time>
      </trkpt>
      <trkpt lat="46.80854" lon="-0.73808">
        <ele>198</ele>
        <time>2023-08-30T16:49:55Z</time>
      </trkpt>
      <trkpt lat="46.80871" lon="-0.73817">
        <ele>198</ele>
        <time>2023-08-30T16:49:58Z</time>
      </trkpt>
      <trkpt lat="46.80947" lon="-0.73877">
        <ele>200</ele>
        <time>2023-08-30T16:50:13Z</time>
      </trkpt>
      <trkpt lat="46.81073" lon="-0.73964">
        <ele>199</ele>
        <time>2023-08-30T16:50:38Z</time>
      </trkpt>
      <trkpt lat="46.81097" lon="-0.73983">
        <ele>199</ele>
        <time>2023-08-30T16:50:43Z</time>
      </trkpt>
      <trkpt lat="46.81121" lon="-0.74013">
        <ele>197</ele>
        <time>2023-08-30T16:50:49Z</time>
      </trkpt>
      <trkpt lat="46.81159" lon="-0.74076">
        <ele>197</ele>
        <time>2023-08-30T16:50:59Z</time>
      </trkpt>
      <trkpt lat="46.81183" lon="-0.74109">
        <ele>195</ele>
        <time>2023-08-30T16:51:05Z</time>
      </trkpt>
      <trkpt lat="46.81195" lon="-0.7412">
        <ele>193</ele>
        <time>2023-08-30T16:51:07Z</time>
      </trkpt>
      <trkpt lat="46.81221" lon="-0.74131">
        <ele>191</ele>
        <time>2023-08-30T16:51:12Z</time>
      </trkpt>
      <trkpt lat="46.81329" lon="-0.74153">
        <ele>185</ele>
        <time>2023-08-30T16:51:32Z</time>
      </trkpt>
      <trkpt lat="46.81371" lon="-0.7417">
        <ele>185</ele>
        <time>2023-08-30T16:51:39Z</time>
      </trkpt>
      <trkpt lat="46.81387" lon="-0.7418">
        <ele>184</ele>
        <time>2023-08-30T16:51:42Z</time>
      </trkpt>
      <trkpt lat="46.81403" lon="-0.74193">
        <ele>184</ele>
        <time>2023-08-30T16:51:46Z</time>
      </trkpt>
      <trkpt lat="46.81435" lon="-0.74226">
        <ele>184</ele>
        <time>2023-08-30T16:51:53Z</time>
      </trkpt>
      <trkpt lat="46.81481" lon="-0.74286">
        <ele>183</ele>
        <time>2023-08-30T16:52:04Z</time>
      </trkpt>
      <trkpt lat="46.81501" lon="-0.74309">
        <ele>182</ele>
        <time>2023-08-30T16:52:08Z</time>
      </trkpt>
      <trkpt lat="46.81529" lon="-0.7433">
        <ele>183</ele>
        <time>2023-08-30T16:52:14Z</time>
      </trkpt>
      <trkpt lat="46.8157" lon="-0.74354">
        <ele>184</ele>
        <time>2023-08-30T16:52:22Z</time>
      </trkpt>
      <trkpt lat="46.81624" lon="-0.7439">
        <ele>186</ele>
        <time>2023-08-30T16:52:32Z</time>
      </trkpt>
      <trkpt lat="46.81733" lon="-0.74469">
        <ele>189</ele>
        <time>2023-08-30T16:52:54Z</time>
      </trkpt>
      <trkpt lat="46.81747" lon="-0.74477">
        <ele>189</ele>
        <time>2023-08-30T16:52:56Z</time>
      </trkpt>
      <trkpt lat="46.81823" lon="-0.74507">
        <ele>185</ele>
        <time>2023-08-30T16:53:10Z</time>
      </trkpt>
      <trkpt lat="46.81855" lon="-0.74529">
        <ele>183</ele>
        <time>2023-08-30T16:53:17Z</time>
      </trkpt>
      <trkpt lat="46.81882" lon="-0.74551">
        <ele>181</ele>
        <time>2023-08-30T16:53:22Z</time>
      </trkpt>
      <trkpt lat="46.8195" lon="-0.74626">
        <ele>177</ele>
        <time>2023-08-30T16:53:37Z</time>
      </trkpt>
      <trkpt lat="46.81984" lon="-0.74659">
        <ele>175</ele>
        <time>2023-08-30T16:53:45Z</time>
      </trkpt>
      <trkpt lat="46.82056" lon="-0.74717">
        <ele>172</ele>
        <time>2023-08-30T16:53:59Z</time>
      </trkpt>
      <trkpt lat="46.82234" lon="-0.74851">
        <ele>165</ele>
        <time>2023-08-30T16:54:35Z</time>
      </trkpt>
      <trkpt lat="46.82345" lon="-0.74938">
        <ele>163</ele>
        <time>2023-08-30T16:54:57Z</time>
      </trkpt>
      <trkpt lat="46.82439" lon="-0.75034">
        <ele>160</ele>
        <time>2023-08-30T16:55:18Z</time>
      </trkpt>
      <trkpt lat="46.82472" lon="-0.75058">
        <ele>159</ele>
        <time>2023-08-30T16:55:24Z</time>
      </trkpt>
      <trkpt lat="46.8252" lon="-0.75081">
        <ele>157</ele>
        <time>2023-08-30T16:55:33Z</time>
      </trkpt>
      <trkpt lat="46.82533" lon="-0.75089">
        <ele>156</ele>
        <time>2023-08-30T16:55:36Z</time>
      </trkpt>
      <trkpt lat="46.82542" lon="-0.75097">
        <ele>155</ele>
        <time>2023-08-30T16:55:38Z</time>
      </trkpt>
      <trkpt lat="46.82558" lon="-0.75116">
        <ele>155</ele>
        <time>2023-08-30T16:55:41Z</time>
      </trkpt>
      <trkpt lat="46.82573" lon="-0.75144">
        <ele>154</ele>
        <time>2023-08-30T16:55:46Z</time>
      </trkpt>
      <trkpt lat="46.82692" lon="-0.75407">
        <ele>151</ele>
        <time>2023-08-30T16:56:24Z</time>
      </trkpt>
      <trkpt lat="46.82701" lon="-0.75434">
        <ele>151</ele>
        <time>2023-08-30T16:56:28Z</time>
      </trkpt>
      <trkpt lat="46.82724" lon="-0.75515">
        <ele>152</ele>
        <time>2023-08-30T16:56:38Z</time>
      </trkpt>
      <trkpt lat="46.82734" lon="-0.75544">
        <ele>151</ele>
        <time>2023-08-30T16:56:42Z</time>
      </trkpt>
      <trkpt lat="46.82747" lon="-0.75572">
        <ele>151</ele>
        <time>2023-08-30T16:56:46Z</time>
      </trkpt>
      <trkpt lat="46.8278" lon="-0.75628">
        <ele>149</ele>
        <time>2023-08-30T16:56:55Z</time>
      </trkpt>
      <trkpt lat="46.82814" lon="-0.75696">
        <ele>147</ele>
        <time>2023-08-30T16:57:06Z</time>
      </trkpt>
      <trkpt lat="46.82819" lon="-0.75707">
        <ele>147</ele>
        <time>2023-08-30T16:57:07Z</time>
      </trkpt>
      <trkpt lat="46.82856" lon="-0.75815">
        <ele>149</ele>
        <time>2023-08-30T16:57:22Z</time>
      </trkpt>
      <trkpt lat="46.82918" lon="-0.76007">
        <ele>149</ele>
        <time>2023-08-30T16:57:48Z</time>
      </trkpt>
      <trkpt lat="46.82921" lon="-0.76018">
        <ele>148</ele>
        <time>2023-08-30T16:57:49Z</time>
      </trkpt>
      <trkpt lat="46.82945" lon="-0.76087">
        <ele>147</ele>
        <time>2023-08-30T16:57:59Z</time>
      </trkpt>
      <trkpt lat="46.8296" lon="-0.76124">
        <ele>146</ele>
        <time>2023-08-30T16:58:04Z</time>
      </trkpt>
      <trkpt lat="46.82964" lon="-0.76135">
        <ele>146</ele>
        <time>2023-08-30T16:58:05Z</time>
      </trkpt>
      <trkpt lat="46.83032" lon="-0.76285">
        <ele>149</ele>
        <time>2023-08-30T16:58:27Z</time>
      </trkpt>
      <trkpt lat="46.83086" lon="-0.76441">
        <ele>153</ele>
        <time>2023-08-30T16:58:49Z</time>
      </trkpt>
      <trkpt lat="46.83102" lon="-0.76481">
        <ele>153</ele>
        <time>2023-08-30T16:58:54Z</time>
      </trkpt>
      <trkpt lat="46.83185" lon="-0.76663">
        <ele>154</ele>
        <time>2023-08-30T16:59:21Z</time>
      </trkpt>
      <trkpt lat="46.83232" lon="-0.76783">
        <ele>153</ele>
        <time>2023-08-30T16:59:38Z</time>
      </trkpt>
      <trkpt lat="46.83213" lon="-0.76799">
        <ele>153</ele>
        <time>2023-08-30T16:59:42Z</time>
      </trkpt>
      <trkpt lat="46.83201" lon="-0.76802">
        <ele>153</ele>
        <time>2023-08-30T16:59:44Z</time>
      </trkpt>
      <trkpt lat="46.83195" lon="-0.76793">
        <ele>153</ele>
        <time>2023-08-30T16:59:45Z</time>
      </trkpt>
      <trkpt lat="46.83186" lon="-0.7677">
        <ele>154</ele>
        <time>2023-08-30T16:59:49Z</time>
      </trkpt>
      <trkpt lat="46.83184" lon="-0.76757">
        <ele>154</ele>
        <time>2023-08-30T16:59:50Z</time>
      </trkpt>
      <trkpt lat="46.83172" lon="-0.76725">
        <ele>154</ele>
        <time>2023-08-30T16:59:55Z</time>
      </trkpt>
      <trkpt lat="46.83184" lon="-0.76757">
        <ele>154</ele>
        <time>2023-08-30T16:59:59Z</time>
      </trkpt>
      <trkpt lat="46.8319" lon="-0.76767">
        <ele>154</ele>
        <time>2023-08-30T17:00:01Z</time>
      </trkpt>
      <trkpt lat="46.83199" lon="-0.7679">
        <ele>153</ele>
        <time>2023-08-30T17:00:04Z</time>
      </trkpt>
      <trkpt lat="46.83201" lon="-0.76802">
        <ele>153</ele>
        <time>2023-08-30T17:00:05Z</time>
      </trkpt>
      <trkpt lat="46.83213" lon="-0.76799">
        <ele>153</ele>
        <time>2023-08-30T17:00:08Z</time>
      </trkpt>
      <trkpt lat="46.83232" lon="-0.76783">
        <ele>153</ele>
        <time>2023-08-30T17:00:12Z</time>
      </trkpt>
      <trkpt lat="46.83258" lon="-0.76833">
        <ele>152</ele>
        <time>2023-08-30T17:00:19Z</time>
      </trkpt>
      <trkpt lat="46.83393" lon="-0.77026">
        <ele>152</ele>
        <time>2023-08-30T17:00:53Z</time>
      </trkpt>
      <trkpt lat="46.83459" lon="-0.77143">
        <ele>153</ele>
        <time>2023-08-30T17:01:11Z</time>
      </trkpt>
      <trkpt lat="46.83462" lon="-0.7714">
        <ele>153</ele>
        <time>2023-08-30T17:01:12Z</time>
      </trkpt>
      <trkpt lat="46.83471" lon="-0.7714">
        <ele>153</ele>
        <time>2023-08-30T17:01:13Z</time>
      </trkpt>
      <trkpt lat="46.83478" lon="-0.77148">
        <ele>152</ele>
        <time>2023-08-30T17:01:15Z</time>
      </trkpt>
      <trkpt lat="46.8348" lon="-0.77161">
        <ele>152</ele>
        <time>2023-08-30T17:01:17Z</time>
      </trkpt>
      <trkpt lat="46.83498" lon="-0.77165">
        <ele>152</ele>
        <time>2023-08-30T17:01:20Z</time>
      </trkpt>
      <trkpt lat="46.83517" lon="-0.77174">
        <ele>151</ele>
        <time>2023-08-30T17:01:23Z</time>
      </trkpt>
      <trkpt lat="46.83535" lon="-0.7719">
        <ele>151</ele>
        <time>2023-08-30T17:01:27Z</time>
      </trkpt>
      <trkpt lat="46.83545" lon="-0.77203">
        <ele>150</ele>
        <time>2023-08-30T17:01:30Z</time>
      </trkpt>
      <trkpt lat="46.83562" lon="-0.77232">
        <ele>150</ele>
        <time>2023-08-30T17:01:34Z</time>
      </trkpt>
      <trkpt lat="46.83581" lon="-0.77274">
        <ele>149</ele>
        <time>2023-08-30T17:01:40Z</time>
      </trkpt>
      <trkpt lat="46.83589" lon="-0.77288">
        <ele>149</ele>
        <time>2023-08-30T17:01:43Z</time>
      </trkpt>
      <trkpt lat="46.83605" lon="-0.77306">
        <ele>149</ele>
        <time>2023-08-30T17:01:46Z</time>
      </trkpt>
      <trkpt lat="46.83644" lon="-0.77341">
        <ele>148</ele>
        <time>2023-08-30T17:01:54Z</time>
      </trkpt>
      <trkpt lat="46.83658" lon="-0.77357">
        <ele>148</ele>
        <time>2023-08-30T17:01:57Z</time>
      </trkpt>
      <trkpt lat="46.83692" lon="-0.77417">
        <ele>147</ele>
        <time>2023-08-30T17:02:07Z</time>
      </trkpt>
      <trkpt lat="46.83739" lon="-0.77513">
        <ele>147</ele>
        <time>2023-08-30T17:02:21Z</time>
      </trkpt>
      <trkpt lat="46.83743" lon="-0.77529">
        <ele>147</ele>
        <time>2023-08-30T17:02:23Z</time>
      </trkpt>
      <trkpt lat="46.8376" lon="-0.77657">
        <ele>149</ele>
        <time>2023-08-30T17:02:39Z</time>
      </trkpt>
      <trkpt lat="46.83769" lon="-0.77672">
        <ele>149</ele>
        <time>2023-08-30T17:02:42Z</time>
      </trkpt>
      <trkpt lat="46.83782" lon="-0.77687">
        <ele>149</ele>
        <time>2023-08-30T17:02:45Z</time>
      </trkpt>
      <trkpt lat="46.83806" lon="-0.77704">
        <ele>148</ele>
        <time>2023-08-30T17:02:49Z</time>
      </trkpt>
      <trkpt lat="46.83842" lon="-0.77711">
        <ele>147</ele>
        <time>2023-08-30T17:02:56Z</time>
      </trkpt>
      <trkpt lat="46.83858" lon="-0.77719">
        <ele>146</ele>
        <time>2023-08-30T17:02:59Z</time>
      </trkpt>
      <trkpt lat="46.83907" lon="-0.77781">
        <ele>143</ele>
        <time>2023-08-30T17:03:10Z</time>
      </trkpt>
      <trkpt lat="46.83939" lon="-0.77823">
        <ele>142</ele>
        <time>2023-08-30T17:03:18Z</time>
      </trkpt>
      <trkpt lat="46.83946" lon="-0.77835">
        <ele>142</ele>
        <time>2023-08-30T17:03:20Z</time>
      </trkpt>
      <trkpt lat="46.83959" lon="-0.77865">
        <ele>141</ele>
        <time>2023-08-30T17:03:24Z</time>
      </trkpt>
      <trkpt lat="46.83969" lon="-0.77893">
        <ele>141</ele>
        <time>2023-08-30T17:03:28Z</time>
      </trkpt>
      <trkpt lat="46.8407" lon="-0.78278">
        <ele>143</ele>
        <time>2023-08-30T17:04:18Z</time>
      </trkpt>
      <trkpt lat="46.84078" lon="-0.78323">
        <ele>143</ele>
        <time>2023-08-30T17:04:24Z</time>
      </trkpt>
      <trkpt lat="46.84084" lon="-0.78404">
        <ele>145</ele>
        <time>2023-08-30T17:04:34Z</time>
      </trkpt>
      <trkpt lat="46.8409" lon="-0.78549">
        <ele>145</ele>
        <time>2023-08-30T17:04:52Z</time>
      </trkpt>
      <trkpt lat="46.84094" lon="-0.7859">
        <ele>145</ele>
        <time>2023-08-30T17:04:57Z</time>
      </trkpt>
      <trkpt lat="46.84099" lon="-0.78622">
        <ele>147</ele>
        <time>2023-08-30T17:05:01Z</time>
      </trkpt>
      <trkpt lat="46.84106" lon="-0.78649">
        <ele>147</ele>
        <time>2023-08-30T17:05:04Z</time>
      </trkpt>
      <trkpt lat="46.84134" lon="-0.78738">
        <ele>150</ele>
        <time>2023-08-30T17:05:16Z</time>
      </trkpt>
      <trkpt lat="46.84154" lon="-0.78811">
        <ele>151</ele>
        <time>2023-08-30T17:05:26Z</time>
      </trkpt>
      <trkpt lat="46.84163" lon="-0.78864">
        <ele>152</ele>
        <time>2023-08-30T17:05:32Z</time>
      </trkpt>
      <trkpt lat="46.84165" lon="-0.78889">
        <ele>152</ele>
        <time>2023-08-30T17:05:35Z</time>
      </trkpt>
      <trkpt lat="46.84166" lon="-0.78915">
        <ele>153</ele>
        <time>2023-08-30T17:05:38Z</time>
      </trkpt>
      <trkpt lat="46.84165" lon="-0.78956">
        <ele>154</ele>
        <time>2023-08-30T17:05:43Z</time>
      </trkpt>
      <trkpt lat="46.84158" lon="-0.79028">
        <ele>156</ele>
        <time>2023-08-30T17:05:52Z</time>
      </trkpt>
      <trkpt lat="46.84154" lon="-0.79059">
        <ele>157</ele>
        <time>2023-08-30T17:05:56Z</time>
      </trkpt>
      <trkpt lat="46.84134" lon="-0.79165">
        <ele>162</ele>
        <time>2023-08-30T17:06:10Z</time>
      </trkpt>
      <trkpt lat="46.84134" lon="-0.79211">
        <ele>163</ele>
        <time>2023-08-30T17:06:15Z</time>
      </trkpt>
      <trkpt lat="46.84137" lon="-0.79252">
        <ele>164</ele>
        <time>2023-08-30T17:06:20Z</time>
      </trkpt>
      <trkpt lat="46.84144" lon="-0.79299">
        <ele>164</ele>
        <time>2023-08-30T17:06:26Z</time>
      </trkpt>
      <trkpt lat="46.84153" lon="-0.79345">
        <ele>164</ele>
        <time>2023-08-30T17:06:32Z</time>
      </trkpt>
      <trkpt lat="46.84213" lon="-0.796">
        <ele>160</ele>
        <time>2023-08-30T17:07:05Z</time>
      </trkpt>
      <trkpt lat="46.84295" lon="-0.79969">
        <ele>161</ele>
        <time>2023-08-30T17:07:52Z</time>
      </trkpt>
      <trkpt lat="46.84299" lon="-0.79992">
        <ele>160</ele>
        <time>2023-08-30T17:07:55Z</time>
      </trkpt>
      <trkpt lat="46.84301" lon="-0.80027">
        <ele>160</ele>
        <time>2023-08-30T17:07:59Z</time>
      </trkpt>
      <trkpt lat="46.84301" lon="-0.80065">
        <ele>158</ele>
        <time>2023-08-30T17:08:04Z</time>
      </trkpt>
      <trkpt lat="46.84297" lon="-0.80191">
        <ele>156</ele>
        <time>2023-08-30T17:08:19Z</time>
      </trkpt>
      <trkpt lat="46.84298" lon="-0.80221">
        <ele>157</ele>
        <time>2023-08-30T17:08:23Z</time>
      </trkpt>
      <trkpt lat="46.84301" lon="-0.80247">
        <ele>157</ele>
        <time>2023-08-30T17:08:26Z</time>
      </trkpt>
      <trkpt lat="46.84306" lon="-0.80271">
        <ele>157</ele>
        <time>2023-08-30T17:08:29Z</time>
      </trkpt>
      <trkpt lat="46.84323" lon="-0.8033">
        <ele>156</ele>
        <time>2023-08-30T17:08:37Z</time>
      </trkpt>
      <trkpt lat="46.84329" lon="-0.80357">
        <ele>156</ele>
        <time>2023-08-30T17:08:40Z</time>
      </trkpt>
      <trkpt lat="46.8433" lon="-0.80394">
        <ele>156</ele>
        <time>2023-08-30T17:08:45Z</time>
      </trkpt>
      <trkpt lat="46.84327" lon="-0.80501">
        <ele>155</ele>
        <time>2023-08-30T17:08:58Z</time>
      </trkpt>
      <trkpt lat="46.8433" lon="-0.80563">
        <ele>154</ele>
        <time>2023-08-30T17:09:05Z</time>
      </trkpt>
      <trkpt lat="46.84334" lon="-0.80593">
        <ele>154</ele>
        <time>2023-08-30T17:09:09Z</time>
      </trkpt>
      <trkpt lat="46.84344" lon="-0.8064">
        <ele>152</ele>
        <time>2023-08-30T17:09:15Z</time>
      </trkpt>
      <trkpt lat="46.84351" lon="-0.80656">
        <ele>151</ele>
        <time>2023-08-30T17:09:17Z</time>
      </trkpt>
      <trkpt lat="46.84359" lon="-0.80669">
        <ele>151</ele>
        <time>2023-08-30T17:09:19Z</time>
      </trkpt>
      <trkpt lat="46.84376" lon="-0.80687">
        <ele>149</ele>
        <time>2023-08-30T17:09:23Z</time>
      </trkpt>
      <trkpt lat="46.84392" lon="-0.80697">
        <ele>148</ele>
        <time>2023-08-30T17:09:26Z</time>
      </trkpt>
      <trkpt lat="46.8441" lon="-0.80703">
        <ele>147</ele>
        <time>2023-08-30T17:09:30Z</time>
      </trkpt>
      <trkpt lat="46.84385" lon="-0.81014">
        <ele>151</ele>
        <time>2023-08-30T17:10:08Z</time>
      </trkpt>
      <trkpt lat="46.84385" lon="-0.8104">
        <ele>151</ele>
        <time>2023-08-30T17:10:11Z</time>
      </trkpt>
      <trkpt lat="46.84388" lon="-0.8109">
        <ele>152</ele>
        <time>2023-08-30T17:10:17Z</time>
      </trkpt>
      <trkpt lat="46.84408" lon="-0.81184">
        <ele>153</ele>
        <time>2023-08-30T17:10:29Z</time>
      </trkpt>
      <trkpt lat="46.84412" lon="-0.81213">
        <ele>153</ele>
        <time>2023-08-30T17:10:33Z</time>
      </trkpt>
      <trkpt lat="46.8441" lon="-0.81252">
        <ele>153</ele>
        <time>2023-08-30T17:10:37Z</time>
      </trkpt>
      <trkpt lat="46.84405" lon="-0.81273">
        <ele>154</ele>
        <time>2023-08-30T17:10:40Z</time>
      </trkpt>
      <trkpt lat="46.84329" lon="-0.81519">
        <ele>156</ele>
        <time>2023-08-30T17:11:13Z</time>
      </trkpt>
      <trkpt lat="46.84317" lon="-0.8157">
        <ele>157</ele>
        <time>2023-08-30T17:11:19Z</time>
      </trkpt>
      <trkpt lat="46.84311" lon="-0.81619">
        <ele>157</ele>
        <time>2023-08-30T17:11:25Z</time>
      </trkpt>
      <trkpt lat="46.84295" lon="-0.81777">
        <ele>159</ele>
        <time>2023-08-30T17:11:45Z</time>
      </trkpt>
      <trkpt lat="46.84289" lon="-0.81846">
        <ele>160</ele>
        <time>2023-08-30T17:11:53Z</time>
      </trkpt>
      <trkpt lat="46.84291" lon="-0.81898">
        <ele>160</ele>
        <time>2023-08-30T17:12:00Z</time>
      </trkpt>
      <trkpt lat="46.84321" lon="-0.82035">
        <ele>162</ele>
        <time>2023-08-30T17:12:17Z</time>
      </trkpt>
      <trkpt lat="46.84325" lon="-0.82071">
        <ele>162</ele>
        <time>2023-08-30T17:12:22Z</time>
      </trkpt>
      <trkpt lat="46.84326" lon="-0.82109">
        <ele>161</ele>
        <time>2023-08-30T17:12:26Z</time>
      </trkpt>
      <trkpt lat="46.84319" lon="-0.82217">
        <ele>159</ele>
        <time>2023-08-30T17:12:39Z</time>
      </trkpt>
      <trkpt lat="46.84291" lon="-0.82561">
        <ele>156</ele>
        <time>2023-08-30T17:13:22Z</time>
      </trkpt>
      <trkpt lat="46.8428" lon="-0.82685">
        <ele>156</ele>
        <time>2023-08-30T17:13:37Z</time>
      </trkpt>
      <trkpt lat="46.84282" lon="-0.82766">
        <ele>158</ele>
        <time>2023-08-30T17:13:47Z</time>
      </trkpt>
      <trkpt lat="46.84279" lon="-0.82811">
        <ele>159</ele>
        <time>2023-08-30T17:13:52Z</time>
      </trkpt>
      <trkpt lat="46.84293" lon="-0.8283">
        <ele>159</ele>
        <time>2023-08-30T17:13:56Z</time>
      </trkpt>
      <trkpt lat="46.84333" lon="-0.82909">
        <ele>160</ele>
        <time>2023-08-30T17:14:08Z</time>
      </trkpt>
      <trkpt lat="46.84356" lon="-0.82945">
        <ele>159</ele>
        <time>2023-08-30T17:14:14Z</time>
      </trkpt>
      <trkpt lat="46.84403" lon="-0.83002">
        <ele>155</ele>
        <time>2023-08-30T17:14:24Z</time>
      </trkpt>
      <trkpt lat="46.84465" lon="-0.83093">
        <ele>156</ele>
        <time>2023-08-30T17:14:40Z</time>
      </trkpt>
      <trkpt lat="46.84477" lon="-0.83103">
        <ele>157</ele>
        <time>2023-08-30T17:14:43Z</time>
      </trkpt>
      <trkpt lat="46.84487" lon="-0.83103">
        <ele>158</ele>
        <time>2023-08-30T17:14:44Z</time>
      </trkpt>
      <trkpt lat="46.84498" lon="-0.83098">
        <ele>158</ele>
        <time>2023-08-30T17:14:46Z</time>
      </trkpt>
      <trkpt lat="46.84508" lon="-0.83087">
        <ele>158</ele>
        <time>2023-08-30T17:14:49Z</time>
      </trkpt>
      <trkpt lat="46.84521" lon="-0.83116">
        <ele>161</ele>
        <time>2023-08-30T17:14:53Z</time>
      </trkpt>
      <trkpt lat="46.84537" lon="-0.8317">
        <ele>166</ele>
        <time>2023-08-30T17:15:00Z</time>
      </trkpt>
      <trkpt lat="46.84541" lon="-0.83187">
        <ele>168</ele>
        <time>2023-08-30T17:15:02Z</time>
      </trkpt>
      <trkpt lat="46.84542" lon="-0.83205">
        <ele>169</ele>
        <time>2023-08-30T17:15:04Z</time>
      </trkpt>
      <trkpt lat="46.84544" lon="-0.83262">
        <ele>171</ele>
        <time>2023-08-30T17:15:11Z</time>
      </trkpt>
      <trkpt lat="46.84556" lon="-0.8332">
        <ele>171</ele>
        <time>2023-08-30T17:15:19Z</time>
      </trkpt>
      <trkpt lat="46.84569" lon="-0.83371">
        <ele>171</ele>
        <time>2023-08-30T17:15:25Z</time>
      </trkpt>
      <trkpt lat="46.84582" lon="-0.8341">
        <ele>170</ele>
        <time>2023-08-30T17:15:31Z</time>
      </trkpt>
      <trkpt lat="46.84586" lon="-0.83415">
        <ele>170</ele>
        <time>2023-08-30T17:15:32Z</time>
      </trkpt>
      <trkpt lat="46.84582" lon="-0.83425">
        <ele>170</ele>
        <time>2023-08-30T17:15:33Z</time>
      </trkpt>
      <trkpt lat="46.84582" lon="-0.83432">
        <ele>170</ele>
        <time>2023-08-30T17:15:34Z</time>
      </trkpt>
      <trkpt lat="46.84585" lon="-0.8344">
        <ele>169</ele>
        <time>2023-08-30T17:15:35Z</time>
      </trkpt>
      <trkpt lat="46.84607" lon="-0.83485">
        <ele>168</ele>
        <time>2023-08-30T17:15:42Z</time>
      </trkpt>
      <trkpt lat="46.84618" lon="-0.83532">
        <ele>168</ele>
        <time>2023-08-30T17:15:48Z</time>
      </trkpt>
      <trkpt lat="46.84619" lon="-0.83545">
        <ele>169</ele>
        <time>2023-08-30T17:15:49Z</time>
      </trkpt>
      <trkpt lat="46.84618" lon="-0.8356">
        <ele>169</ele>
        <time>2023-08-30T17:15:51Z</time>
      </trkpt>
      <trkpt lat="46.84599" lon="-0.8365">
        <ele>170</ele>
        <time>2023-08-30T17:16:03Z</time>
      </trkpt>
      <trkpt lat="46.84576" lon="-0.83716">
        <ele>170</ele>
        <time>2023-08-30T17:16:12Z</time>
      </trkpt>
      <trkpt lat="46.84549" lon="-0.83827">
        <ele>172</ele>
        <time>2023-08-30T17:16:26Z</time>
      </trkpt>
      <trkpt lat="46.84539" lon="-0.83854">
        <ele>172</ele>
        <time>2023-08-30T17:16:30Z</time>
      </trkpt>
      <trkpt lat="46.84525" lon="-0.83877">
        <ele>171</ele>
        <time>2023-08-30T17:16:33Z</time>
      </trkpt>
      <trkpt lat="46.84514" lon="-0.83887">
        <ele>170</ele>
        <time>2023-08-30T17:16:36Z</time>
      </trkpt>
      <trkpt lat="46.84472" lon="-0.83911">
        <ele>169</ele>
        <time>2023-08-30T17:16:44Z</time>
      </trkpt>
      <trkpt lat="46.84459" lon="-0.83923">
        <ele>169</ele>
        <time>2023-08-30T17:16:46Z</time>
      </trkpt>
      <trkpt lat="46.84447" lon="-0.83939">
        <ele>169</ele>
        <time>2023-08-30T17:16:49Z</time>
      </trkpt>
      <trkpt lat="46.84439" lon="-0.83961">
        <ele>170</ele>
        <time>2023-08-30T17:16:52Z</time>
      </trkpt>
      <trkpt lat="46.84436" lon="-0.83988">
        <ele>170</ele>
        <time>2023-08-30T17:16:56Z</time>
      </trkpt>
      <trkpt lat="46.84438" lon="-0.84026">
        <ele>171</ele>
        <time>2023-08-30T17:17:00Z</time>
      </trkpt>
      <trkpt lat="46.84456" lon="-0.84149">
        <ele>174</ele>
        <time>2023-08-30T17:17:16Z</time>
      </trkpt>
      <trkpt lat="46.8448" lon="-0.84316">
        <ele>175</ele>
        <time>2023-08-30T17:17:36Z</time>
      </trkpt>
      <trkpt lat="46.8448" lon="-0.84329">
        <ele>175</ele>
        <time>2023-08-30T17:17:38Z</time>
      </trkpt>
      <trkpt lat="46.84478" lon="-0.84339">
        <ele>175</ele>
        <time>2023-08-30T17:17:39Z</time>
      </trkpt>
      <trkpt lat="46.84474" lon="-0.84347">
        <ele>174</ele>
        <time>2023-08-30T17:17:40Z</time>
      </trkpt>
      <trkpt lat="46.84467" lon="-0.84354">
        <ele>173</ele>
        <time>2023-08-30T17:17:42Z</time>
      </trkpt>
      <trkpt lat="46.84459" lon="-0.8436">
        <ele>172</ele>
        <time>2023-08-30T17:17:44Z</time>
      </trkpt>
      <trkpt lat="46.84386" lon="-0.84387">
        <ele>168</ele>
        <time>2023-08-30T17:17:57Z</time>
      </trkpt>
      <trkpt lat="46.84291" lon="-0.84419">
        <ele>169</ele>
        <time>2023-08-30T17:18:14Z</time>
      </trkpt>
      <trkpt lat="46.84251" lon="-0.84438">
        <ele>169</ele>
        <time>2023-08-30T17:18:22Z</time>
      </trkpt>
      <trkpt lat="46.84223" lon="-0.84463">
        <ele>172</ele>
        <time>2023-08-30T17:18:28Z</time>
      </trkpt>
      <trkpt lat="46.8419" lon="-0.84502">
        <ele>175</ele>
        <time>2023-08-30T17:18:35Z</time>
      </trkpt>
      <trkpt lat="46.84168" lon="-0.84531">
        <ele>176</ele>
        <time>2023-08-30T17:18:40Z</time>
      </trkpt>
      <trkpt lat="46.84125" lon="-0.84591">
        <ele>179</ele>
        <time>2023-08-30T17:18:51Z</time>
      </trkpt>
      <trkpt lat="46.841" lon="-0.8463">
        <ele>180</ele>
        <time>2023-08-30T17:18:58Z</time>
      </trkpt>
      <trkpt lat="46.84049" lon="-0.8472">
        <ele>184</ele>
        <time>2023-08-30T17:19:12Z</time>
      </trkpt>
      <trkpt lat="46.84038" lon="-0.84744">
        <ele>185</ele>
        <time>2023-08-30T17:19:15Z</time>
      </trkpt>
      <trkpt lat="46.84005" lon="-0.84841">
        <ele>189</ele>
        <time>2023-08-30T17:19:28Z</time>
      </trkpt>
      <trkpt lat="46.83999" lon="-0.84855">
        <ele>190</ele>
        <time>2023-08-30T17:19:30Z</time>
      </trkpt>
      <trkpt lat="46.83988" lon="-0.84869">
        <ele>191</ele>
        <time>2023-08-30T17:19:33Z</time>
      </trkpt>
      <trkpt lat="46.83959" lon="-0.84897">
        <ele>193</ele>
        <time>2023-08-30T17:19:39Z</time>
      </trkpt>
      <trkpt lat="46.83911" lon="-0.84925">
        <ele>198</ele>
        <time>2023-08-30T17:19:48Z</time>
      </trkpt>
      <trkpt lat="46.83885" lon="-0.84946">
        <ele>200</ele>
        <time>2023-08-30T17:19:54Z</time>
      </trkpt>
      <trkpt lat="46.83872" lon="-0.84964">
        <ele>202</ele>
        <time>2023-08-30T17:19:57Z</time>
      </trkpt>
      <trkpt lat="46.83861" lon="-0.8499">
        <ele>202</ele>
        <time>2023-08-30T17:20:01Z</time>
      </trkpt>
      <trkpt lat="46.83825" lon="-0.85111">
        <ele>203</ele>
        <time>2023-08-30T17:20:17Z</time>
      </trkpt>
      <trkpt lat="46.83808" lon="-0.85143">
        <ele>202</ele>
        <time>2023-08-30T17:20:22Z</time>
      </trkpt>
      <trkpt lat="46.83792" lon="-0.85163">
        <ele>202</ele>
        <time>2023-08-30T17:20:25Z</time>
      </trkpt>
      <trkpt lat="46.83778" lon="-0.85174">
        <ele>201</ele>
        <time>2023-08-30T17:20:28Z</time>
      </trkpt>
      <trkpt lat="46.83737" lon="-0.85201">
        <ele>199</ele>
        <time>2023-08-30T17:20:36Z</time>
      </trkpt>
      <trkpt lat="46.83712" lon="-0.85221">
        <ele>198</ele>
        <time>2023-08-30T17:20:41Z</time>
      </trkpt>
      <trkpt lat="46.83689" lon="-0.85249">
        <ele>196</ele>
        <time>2023-08-30T17:20:47Z</time>
      </trkpt>
      <trkpt lat="46.83658" lon="-0.85298">
        <ele>192</ele>
        <time>2023-08-30T17:20:55Z</time>
      </trkpt>
      <trkpt lat="46.83632" lon="-0.85355">
        <ele>191</ele>
        <time>2023-08-30T17:21:03Z</time>
      </trkpt>
      <trkpt lat="46.83622" lon="-0.85384">
        <ele>191</ele>
        <time>2023-08-30T17:21:07Z</time>
      </trkpt>
      <trkpt lat="46.83564" lon="-0.85579">
        <ele>199</ele>
        <time>2023-08-30T17:21:33Z</time>
      </trkpt>
      <trkpt lat="46.83555" lon="-0.85624">
        <ele>200</ele>
        <time>2023-08-30T17:21:39Z</time>
      </trkpt>
      <trkpt lat="46.83539" lon="-0.85777">
        <ele>197</ele>
        <time>2023-08-30T17:21:57Z</time>
      </trkpt>
      <trkpt lat="46.83533" lon="-0.85799">
        <ele>197</ele>
        <time>2023-08-30T17:22:00Z</time>
      </trkpt>
      <trkpt lat="46.8352" lon="-0.85824">
        <ele>198</ele>
        <time>2023-08-30T17:22:04Z</time>
      </trkpt>
      <trkpt lat="46.83505" lon="-0.85842">
        <ele>200</ele>
        <time>2023-08-30T17:22:08Z</time>
      </trkpt>
      <trkpt lat="46.83482" lon="-0.85859">
        <ele>202</ele>
        <time>2023-08-30T17:22:12Z</time>
      </trkpt>
      <trkpt lat="46.8346" lon="-0.85866">
        <ele>204</ele>
        <time>2023-08-30T17:22:16Z</time>
      </trkpt>
      <trkpt lat="46.8341" lon="-0.85877">
        <ele>207</ele>
        <time>2023-08-30T17:22:25Z</time>
      </trkpt>
      <trkpt lat="46.83403" lon="-0.85877">
        <ele>207</ele>
        <time>2023-08-30T17:22:26Z</time>
      </trkpt>
      <trkpt lat="46.83391" lon="-0.85874">
        <ele>207</ele>
        <time>2023-08-30T17:22:29Z</time>
      </trkpt>
      <trkpt lat="46.83377" lon="-0.85868">
        <ele>206</ele>
        <time>2023-08-30T17:22:31Z</time>
      </trkpt>
      <trkpt lat="46.83352" lon="-0.85851">
        <ele>205</ele>
        <time>2023-08-30T17:22:36Z</time>
      </trkpt>
      <trkpt lat="46.83333" lon="-0.85847">
        <ele>205</ele>
        <time>2023-08-30T17:22:40Z</time>
      </trkpt>
      <trkpt lat="46.8331" lon="-0.85851">
        <ele>205</ele>
        <time>2023-08-30T17:22:44Z</time>
      </trkpt>
      <trkpt lat="46.83281" lon="-0.85872">
        <ele>206</ele>
        <time>2023-08-30T17:22:49Z</time>
      </trkpt>
      <trkpt lat="46.83265" lon="-0.85878">
        <ele>206</ele>
        <time>2023-08-30T17:22:52Z</time>
      </trkpt>
      <trkpt lat="46.83251" lon="-0.85877">
        <ele>207</ele>
        <time>2023-08-30T17:22:55Z</time>
      </trkpt>
      <trkpt lat="46.83239" lon="-0.85868">
        <ele>207</ele>
        <time>2023-08-30T17:22:57Z</time>
      </trkpt>
      <trkpt lat="46.83172" lon="-0.85807">
        <ele>212</ele>
        <time>2023-08-30T17:23:11Z</time>
      </trkpt>
      <trkpt lat="46.83165" lon="-0.85804">
        <ele>212</ele>
        <time>2023-08-30T17:23:13Z</time>
      </trkpt>
      <trkpt lat="46.83155" lon="-0.85807">
        <ele>212</ele>
        <time>2023-08-30T17:23:14Z</time>
      </trkpt>
      <trkpt lat="46.83134" lon="-0.85828">
        <ele>213</ele>
        <time>2023-08-30T17:23:19Z</time>
      </trkpt>
      <trkpt lat="46.83126" lon="-0.85832">
        <ele>213</ele>
        <time>2023-08-30T17:23:20Z</time>
      </trkpt>
      <trkpt lat="46.83111" lon="-0.85835">
        <ele>214</ele>
        <time>2023-08-30T17:23:23Z</time>
      </trkpt>
      <trkpt lat="46.83094" lon="-0.8583">
        <ele>215</ele>
        <time>2023-08-30T17:23:26Z</time>
      </trkpt>
      <trkpt lat="46.82982" lon="-0.8578">
        <ele>212</ele>
        <time>2023-08-30T17:23:47Z</time>
      </trkpt>
      <trkpt lat="46.82971" lon="-0.85774">
        <ele>212</ele>
        <time>2023-08-30T17:23:49Z</time>
      </trkpt>
      <trkpt lat="46.82954" lon="-0.85759">
        <ele>211</ele>
        <time>2023-08-30T17:23:53Z</time>
      </trkpt>
      <trkpt lat="46.82916" lon="-0.85711">
        <ele>208</ele>
        <time>2023-08-30T17:24:02Z</time>
      </trkpt>
      <trkpt lat="46.82894" lon="-0.85691">
        <ele>205</ele>
        <time>2023-08-30T17:24:06Z</time>
      </trkpt>
      <trkpt lat="46.82839" lon="-0.85655">
        <ele>199</ele>
        <time>2023-08-30T17:24:17Z</time>
      </trkpt>
      <trkpt lat="46.82828" lon="-0.85653">
        <ele>198</ele>
        <time>2023-08-30T17:24:19Z</time>
      </trkpt>
      <trkpt lat="46.82823" lon="-0.85654">
        <ele>197</ele>
        <time>2023-08-30T17:24:20Z</time>
      </trkpt>
      <trkpt lat="46.82817" lon="-0.85653">
        <ele>197</ele>
        <time>2023-08-30T17:24:21Z</time>
      </trkpt>
      <trkpt lat="46.82812" lon="-0.85647">
        <ele>197</ele>
        <time>2023-08-30T17:24:22Z</time>
      </trkpt>
      <trkpt lat="46.8281" lon="-0.85641">
        <ele>196</ele>
        <time>2023-08-30T17:24:23Z</time>
      </trkpt>
      <trkpt lat="46.828" lon="-0.85633">
        <ele>196</ele>
        <time>2023-08-30T17:24:25Z</time>
      </trkpt>
      <trkpt lat="46.82718" lon="-0.85587">
        <ele>191</ele>
        <time>2023-08-30T17:24:41Z</time>
      </trkpt>
      <trkpt lat="46.82701" lon="-0.8558">
        <ele>190</ele>
        <time>2023-08-30T17:24:44Z</time>
      </trkpt>
      <trkpt lat="46.82672" lon="-0.85574">
        <ele>188</ele>
        <time>2023-08-30T17:24:49Z</time>
      </trkpt>
      <trkpt lat="46.82643" lon="-0.85573">
        <ele>187</ele>
        <time>2023-08-30T17:24:54Z</time>
      </trkpt>
      <trkpt lat="46.82569" lon="-0.85587">
        <ele>185</ele>
        <time>2023-08-30T17:25:07Z</time>
      </trkpt>
      <trkpt lat="46.82544" lon="-0.85589">
        <ele>186</ele>
        <time>2023-08-30T17:25:12Z</time>
      </trkpt>
      <trkpt lat="46.82522" lon="-0.85588">
        <ele>187</ele>
        <time>2023-08-30T17:25:16Z</time>
      </trkpt>
      <trkpt lat="46.82432" lon="-0.85563">
        <ele>192</ele>
        <time>2023-08-30T17:25:32Z</time>
      </trkpt>
      <trkpt lat="46.82388" lon="-0.85556">
        <ele>194</ele>
        <time>2023-08-30T17:25:40Z</time>
      </trkpt>
      <trkpt lat="46.82199" lon="-0.85536">
        <ele>201</ele>
        <time>2023-08-30T17:26:14Z</time>
      </trkpt>
      <trkpt lat="46.82178" lon="-0.85536">
        <ele>202</ele>
        <time>2023-08-30T17:26:17Z</time>
      </trkpt>
      <trkpt lat="46.82129" lon="-0.85541">
        <ele>204</ele>
        <time>2023-08-30T17:26:26Z</time>
      </trkpt>
      <trkpt lat="46.82094" lon="-0.85539">
        <ele>205</ele>
        <time>2023-08-30T17:26:32Z</time>
      </trkpt>
      <trkpt lat="46.82028" lon="-0.85523">
        <ele>210</ele>
        <time>2023-08-30T17:26:44Z</time>
      </trkpt>
      <trkpt lat="46.81987" lon="-0.85506">
        <ele>214</ele>
        <time>2023-08-30T17:26:52Z</time>
      </trkpt>
      <trkpt lat="46.81951" lon="-0.85484">
        <ele>217</ele>
        <time>2023-08-30T17:26:59Z</time>
      </trkpt>
      <trkpt lat="46.81803" lon="-0.85361">
        <ele>219</ele>
        <time>2023-08-30T17:27:29Z</time>
      </trkpt>
      <trkpt lat="46.81761" lon="-0.85319">
        <ele>221</ele>
        <time>2023-08-30T17:27:38Z</time>
      </trkpt>
      <trkpt lat="46.8174" lon="-0.85306">
        <ele>221</ele>
        <time>2023-08-30T17:27:42Z</time>
      </trkpt>
      <trkpt lat="46.81725" lon="-0.85303">
        <ele>221</ele>
        <time>2023-08-30T17:27:45Z</time>
      </trkpt>
      <trkpt lat="46.81689" lon="-0.85301">
        <ele>222</ele>
        <time>2023-08-30T17:27:51Z</time>
      </trkpt>
      <trkpt lat="46.81484" lon="-0.85343">
        <ele>225</ele>
        <time>2023-08-30T17:28:28Z</time>
      </trkpt>
      <trkpt lat="46.81352" lon="-0.85394">
        <ele>226</ele>
        <time>2023-08-30T17:28:52Z</time>
      </trkpt>
      <trkpt lat="46.81332" lon="-0.8541">
        <ele>227</ele>
        <time>2023-08-30T17:28:56Z</time>
      </trkpt>
      <trkpt lat="46.81293" lon="-0.85473">
        <ele>223</ele>
        <time>2023-08-30T17:29:07Z</time>
      </trkpt>
      <trkpt lat="46.81238" lon="-0.85551">
        <ele>219</ele>
        <time>2023-08-30T17:29:20Z</time>
      </trkpt>
      <trkpt lat="46.812" lon="-0.85596">
        <ele>220</ele>
        <time>2023-08-30T17:29:29Z</time>
      </trkpt>
      <trkpt lat="46.81061" lon="-0.85733">
        <ele>219</ele>
        <time>2023-08-30T17:29:59Z</time>
      </trkpt>
      <trkpt lat="46.80977" lon="-0.8583">
        <ele>216</ele>
        <time>2023-08-30T17:30:18Z</time>
      </trkpt>
      <trkpt lat="46.8098" lon="-0.8584">
        <ele>216</ele>
        <time>2023-08-30T17:30:19Z</time>
      </trkpt>
      <trkpt lat="46.8098" lon="-0.85848">
        <ele>216</ele>
        <time>2023-08-30T17:30:20Z</time>
      </trkpt>
      <trkpt lat="46.80983" lon="-0.85861">
        <ele>216</ele>
        <time>2023-08-30T17:30:22Z</time>
      </trkpt>
      <trkpt lat="46.81016" lon="-0.85909">
        <ele>217</ele>
        <time>2023-08-30T17:30:30Z</time>
      </trkpt>
      <trkpt lat="46.81025" lon="-0.85935">
        <ele>216</ele>
        <time>2023-08-30T17:30:34Z</time>
      </trkpt>
      <trkpt lat="46.81026" lon="-0.85953">
        <ele>215</ele>
        <time>2023-08-30T17:30:36Z</time>
      </trkpt>
      <trkpt lat="46.81024" lon="-0.8597">
        <ele>214</ele>
        <time>2023-08-30T17:30:38Z</time>
      </trkpt>
      <trkpt lat="46.8102" lon="-0.85991">
        <ele>213</ele>
        <time>2023-08-30T17:30:41Z</time>
      </trkpt>
      <trkpt lat="46.81013" lon="-0.86009">
        <ele>212</ele>
        <time>2023-08-30T17:30:43Z</time>
      </trkpt>
      <trkpt lat="46.81004" lon="-0.86028">
        <ele>211</ele>
        <time>2023-08-30T17:30:46Z</time>
      </trkpt>
      <trkpt lat="46.80989" lon="-0.86053">
        <ele>210</ele>
        <time>2023-08-30T17:30:50Z</time>
      </trkpt>
      <trkpt lat="46.80975" lon="-0.86066">
        <ele>210</ele>
        <time>2023-08-30T17:30:53Z</time>
      </trkpt>
      <trkpt lat="46.80958" lon="-0.86074">
        <ele>210</ele>
        <time>2023-08-30T17:30:56Z</time>
      </trkpt>
      <trkpt lat="46.80949" lon="-0.86073">
        <ele>210</ele>
        <time>2023-08-30T17:30:58Z</time>
      </trkpt>
      <trkpt lat="46.80914" lon="-0.86063">
        <ele>211</ele>
        <time>2023-08-30T17:31:04Z</time>
      </trkpt>
      <trkpt lat="46.8087" lon="-0.86046">
        <ele>212</ele>
        <time>2023-08-30T17:31:12Z</time>
      </trkpt>
      <trkpt lat="46.80863" lon="-0.86041">
        <ele>213</ele>
        <time>2023-08-30T17:31:14Z</time>
      </trkpt>
      <trkpt lat="46.80851" lon="-0.8602">
        <ele>213</ele>
        <time>2023-08-30T17:31:17Z</time>
      </trkpt>
      <trkpt lat="46.80846" lon="-0.86003">
        <ele>213</ele>
        <time>2023-08-30T17:31:19Z</time>
      </trkpt>
      <trkpt lat="46.8083" lon="-0.86004">
        <ele>213</ele>
        <time>2023-08-30T17:31:22Z</time>
      </trkpt>
      <trkpt lat="46.80823" lon="-0.86008">
        <ele>213</ele>
        <time>2023-08-30T17:31:23Z</time>
      </trkpt>
      <trkpt lat="46.80752" lon="-0.86078">
        <ele>214</ele>
        <time>2023-08-30T17:31:39Z</time>
      </trkpt>
      <trkpt lat="46.80659" lon="-0.86159">
        <ele>208</ele>
        <time>2023-08-30T17:31:58Z</time>
      </trkpt>
      <trkpt lat="46.80651" lon="-0.86173">
        <ele>207</ele>
        <time>2023-08-30T17:32:00Z</time>
      </trkpt>
      <trkpt lat="46.80649" lon="-0.86187">
        <ele>206</ele>
        <time>2023-08-30T17:32:02Z</time>
      </trkpt>
      <trkpt lat="46.80658" lon="-0.86332">
        <ele>196</ele>
        <time>2023-08-30T17:32:20Z</time>
      </trkpt>
      <trkpt lat="46.80653" lon="-0.86366">
        <ele>194</ele>
        <time>2023-08-30T17:32:24Z</time>
      </trkpt>
      <trkpt lat="46.8064" lon="-0.86408">
        <ele>190</ele>
        <time>2023-08-30T17:32:30Z</time>
      </trkpt>
      <trkpt lat="46.80628" lon="-0.86457">
        <ele>190</ele>
        <time>2023-08-30T17:32:36Z</time>
      </trkpt>
      <trkpt lat="46.80625" lon="-0.86482">
        <ele>190</ele>
        <time>2023-08-30T17:32:39Z</time>
      </trkpt>
      <trkpt lat="46.80631" lon="-0.86546">
        <ele>190</ele>
        <time>2023-08-30T17:32:47Z</time>
      </trkpt>
      <trkpt lat="46.80626" lon="-0.86569">
        <ele>190</ele>
        <time>2023-08-30T17:32:50Z</time>
      </trkpt>
      <trkpt lat="46.80605" lon="-0.86611">
        <ele>188</ele>
        <time>2023-08-30T17:32:56Z</time>
      </trkpt>
      <trkpt lat="46.80601" lon="-0.86626">
        <ele>188</ele>
        <time>2023-08-30T17:32:58Z</time>
      </trkpt>
      <trkpt lat="46.80604" lon="-0.86644">
        <ele>187</ele>
        <time>2023-08-30T17:33:00Z</time>
      </trkpt>
      <trkpt lat="46.80682" lon="-0.86797">
        <ele>188</ele>
        <time>2023-08-30T17:33:24Z</time>
      </trkpt>
      <trkpt lat="46.80683" lon="-0.8682">
        <ele>187</ele>
        <time>2023-08-30T17:33:26Z</time>
      </trkpt>
      <trkpt lat="46.80671" lon="-0.87004">
        <ele>181</ele>
        <time>2023-08-30T17:33:49Z</time>
      </trkpt>
      <trkpt lat="46.80668" lon="-0.87095">
        <ele>179</ele>
        <time>2023-08-30T17:34:00Z</time>
      </trkpt>
      <trkpt lat="46.80659" lon="-0.87156">
        <ele>179</ele>
        <time>2023-08-30T17:34:08Z</time>
      </trkpt>
      <trkpt lat="46.80649" lon="-0.87297">
        <ele>177</ele>
        <time>2023-08-30T17:34:25Z</time>
      </trkpt>
      <trkpt lat="46.80646" lon="-0.87351">
        <ele>176</ele>
        <time>2023-08-30T17:34:31Z</time>
      </trkpt>
      <trkpt lat="46.80639" lon="-0.87384">
        <ele>174</ele>
        <time>2023-08-30T17:34:36Z</time>
      </trkpt>
      <trkpt lat="46.8062" lon="-0.87455">
        <ele>171</ele>
        <time>2023-08-30T17:34:45Z</time>
      </trkpt>
      <trkpt lat="46.80618" lon="-0.87488">
        <ele>169</ele>
        <time>2023-08-30T17:34:49Z</time>
      </trkpt>
      <trkpt lat="46.80625" lon="-0.87532">
        <ele>168</ele>
        <time>2023-08-30T17:34:54Z</time>
      </trkpt>
      <trkpt lat="46.8062" lon="-0.87557">
        <ele>166</ele>
        <time>2023-08-30T17:34:58Z</time>
      </trkpt>
      <trkpt lat="46.80609" lon="-0.87588">
        <ele>165</ele>
        <time>2023-08-30T17:35:02Z</time>
      </trkpt>
      <trkpt lat="46.80577" lon="-0.87645">
        <ele>163</ele>
        <time>2023-08-30T17:35:11Z</time>
      </trkpt>
      <trkpt lat="46.80556" lon="-0.87701">
        <ele>162</ele>
        <time>2023-08-30T17:35:19Z</time>
      </trkpt>
      <trkpt lat="46.80551" lon="-0.87753">
        <ele>161</ele>
        <time>2023-08-30T17:35:25Z</time>
      </trkpt>
      <trkpt lat="46.80561" lon="-0.8779">
        <ele>163</ele>
        <time>2023-08-30T17:35:30Z</time>
      </trkpt>
      <trkpt lat="46.80581" lon="-0.87826">
        <ele>165</ele>
        <time>2023-08-30T17:35:35Z</time>
      </trkpt>
      <trkpt lat="46.80617" lon="-0.87882">
        <ele>168</ele>
        <time>2023-08-30T17:35:45Z</time>
      </trkpt>
      <trkpt lat="46.80619" lon="-0.87908">
        <ele>169</ele>
        <time>2023-08-30T17:35:48Z</time>
      </trkpt>
      <trkpt lat="46.80608" lon="-0.8794">
        <ele>168</ele>
        <time>2023-08-30T17:35:52Z</time>
      </trkpt>
      <trkpt lat="46.80589" lon="-0.87978">
        <ele>168</ele>
        <time>2023-08-30T17:35:58Z</time>
      </trkpt>
      <trkpt lat="46.80575" lon="-0.88011">
        <ele>168</ele>
        <time>2023-08-30T17:36:03Z</time>
      </trkpt>
      <trkpt lat="46.8055" lon="-0.8814">
        <ele>164</ele>
        <time>2023-08-30T17:36:19Z</time>
      </trkpt>
      <trkpt lat="46.80524" lon="-0.88249">
        <ele>163</ele>
        <time>2023-08-30T17:36:33Z</time>
      </trkpt>
      <trkpt lat="46.80517" lon="-0.88289">
        <ele>161</ele>
        <time>2023-08-30T17:36:38Z</time>
      </trkpt>
      <trkpt lat="46.80515" lon="-0.88321">
        <ele>160</ele>
        <time>2023-08-30T17:36:42Z</time>
      </trkpt>
      <trkpt lat="46.80519" lon="-0.88337">
        <ele>158</ele>
        <time>2023-08-30T17:36:44Z</time>
      </trkpt>
      <trkpt lat="46.80531" lon="-0.88353">
        <ele>157</ele>
        <time>2023-08-30T17:36:47Z</time>
      </trkpt>
      <trkpt lat="46.80504" lon="-0.88413">
        <ele>156</ele>
        <time>2023-08-30T17:36:56Z</time>
      </trkpt>
      <trkpt lat="46.80417" lon="-0.88521">
        <ele>156</ele>
        <time>2023-08-30T17:37:16Z</time>
      </trkpt>
      <trkpt lat="46.80384" lon="-0.88566">
        <ele>154</ele>
        <time>2023-08-30T17:37:24Z</time>
      </trkpt>
      <trkpt lat="46.80375" lon="-0.88584">
        <ele>153</ele>
        <time>2023-08-30T17:37:27Z</time>
      </trkpt>
      <trkpt lat="46.80358" lon="-0.88631">
        <ele>152</ele>
        <time>2023-08-30T17:37:33Z</time>
      </trkpt>
      <trkpt lat="46.80346" lon="-0.88661">
        <ele>151</ele>
        <time>2023-08-30T17:37:38Z</time>
      </trkpt>
      <trkpt lat="46.80329" lon="-0.88695">
        <ele>152</ele>
        <time>2023-08-30T17:37:43Z</time>
      </trkpt>
      <trkpt lat="46.80284" lon="-0.88767">
        <ele>151</ele>
        <time>2023-08-30T17:37:55Z</time>
      </trkpt>
      <trkpt lat="46.80243" lon="-0.88826">
        <ele>149</ele>
        <time>2023-08-30T17:38:05Z</time>
      </trkpt>
      <trkpt lat="46.80218" lon="-0.88857">
        <ele>147</ele>
        <time>2023-08-30T17:38:11Z</time>
      </trkpt>
      <trkpt lat="46.80103" lon="-0.8897">
        <ele>139</ele>
        <time>2023-08-30T17:38:35Z</time>
      </trkpt>
      <trkpt lat="46.80071" lon="-0.89005">
        <ele>137</ele>
        <time>2023-08-30T17:38:43Z</time>
      </trkpt>
      <trkpt lat="46.80053" lon="-0.89031">
        <ele>136</ele>
        <time>2023-08-30T17:38:47Z</time>
      </trkpt>
      <trkpt lat="46.80046" lon="-0.89047">
        <ele>135</ele>
        <time>2023-08-30T17:38:49Z</time>
      </trkpt>
      <trkpt lat="46.80014" lon="-0.89165">
        <ele>133</ele>
        <time>2023-08-30T17:39:05Z</time>
      </trkpt>
      <trkpt lat="46.80007" lon="-0.89178">
        <ele>132</ele>
        <time>2023-08-30T17:39:07Z</time>
      </trkpt>
      <trkpt lat="46.79984" lon="-0.89203">
        <ele>130</ele>
        <time>2023-08-30T17:39:12Z</time>
      </trkpt>
      <trkpt lat="46.79979" lon="-0.89213">
        <ele>130</ele>
        <time>2023-08-30T17:39:13Z</time>
      </trkpt>
      <trkpt lat="46.79964" lon="-0.89225">
        <ele>128</ele>
        <time>2023-08-30T17:39:16Z</time>
      </trkpt>
      <trkpt lat="46.79926" lon="-0.8924">
        <ele>126</ele>
        <time>2023-08-30T17:39:23Z</time>
      </trkpt>
      <trkpt lat="46.79911" lon="-0.89242">
        <ele>125</ele>
        <time>2023-08-30T17:39:26Z</time>
      </trkpt>
      <trkpt lat="46.79892" lon="-0.89241">
        <ele>124</ele>
        <time>2023-08-30T17:39:30Z</time>
      </trkpt>
      <trkpt lat="46.79866" lon="-0.89234">
        <ele>124</ele>
        <time>2023-08-30T17:39:34Z</time>
      </trkpt>
      <trkpt lat="46.79846" lon="-0.89232">
        <ele>123</ele>
        <time>2023-08-30T17:39:38Z</time>
      </trkpt>
      <trkpt lat="46.79835" lon="-0.89233">
        <ele>122</ele>
        <time>2023-08-30T17:39:40Z</time>
      </trkpt>
      <trkpt lat="46.79824" lon="-0.89238">
        <ele>122</ele>
        <time>2023-08-30T17:39:42Z</time>
      </trkpt>
      <trkpt lat="46.79809" lon="-0.89248">
        <ele>122</ele>
        <time>2023-08-30T17:39:45Z</time>
      </trkpt>
      <trkpt lat="46.79792" lon="-0.89267">
        <ele>121</ele>
        <time>2023-08-30T17:39:49Z</time>
      </trkpt>
      <trkpt lat="46.79762" lon="-0.89307">
        <ele>120</ele>
        <time>2023-08-30T17:39:56Z</time>
      </trkpt>
      <trkpt lat="46.79746" lon="-0.89334">
        <ele>119</ele>
        <time>2023-08-30T17:40:00Z</time>
      </trkpt>
      <trkpt lat="46.7973" lon="-0.89364">
        <ele>119</ele>
        <time>2023-08-30T17:40:05Z</time>
      </trkpt>
      <trkpt lat="46.79717" lon="-0.89386">
        <ele>119</ele>
        <time>2023-08-30T17:40:08Z</time>
      </trkpt>
      <trkpt lat="46.79657" lon="-0.8947">
        <ele>118</ele>
        <time>2023-08-30T17:40:23Z</time>
      </trkpt>
      <trkpt lat="46.79648" lon="-0.89486">
        <ele>117</ele>
        <time>2023-08-30T17:40:26Z</time>
      </trkpt>
      <trkpt lat="46.79641" lon="-0.89505">
        <ele>117</ele>
        <time>2023-08-30T17:40:28Z</time>
      </trkpt>
      <trkpt lat="46.79648" lon="-0.89528">
        <ele>116</ele>
        <time>2023-08-30T17:40:31Z</time>
      </trkpt>
      <trkpt lat="46.79671" lon="-0.89579">
        <ele>115</ele>
        <time>2023-08-30T17:40:39Z</time>
      </trkpt>
      <trkpt lat="46.79685" lon="-0.89609">
        <ele>114</ele>
        <time>2023-08-30T17:40:43Z</time>
      </trkpt>
      <trkpt lat="46.79708" lon="-0.89647">
        <ele>112</ele>
        <time>2023-08-30T17:40:49Z</time>
      </trkpt>
      <trkpt lat="46.79761" lon="-0.89734">
        <ele>108</ele>
        <time>2023-08-30T17:41:04Z</time>
      </trkpt>
      <trkpt lat="46.79804" lon="-0.89787">
        <ele>105</ele>
        <time>2023-08-30T17:41:14Z</time>
      </trkpt>
      <trkpt lat="46.7982" lon="-0.89811">
        <ele>104</ele>
        <time>2023-08-30T17:41:18Z</time>
      </trkpt>
      <trkpt lat="46.79827" lon="-0.89829">
        <ele>104</ele>
        <time>2023-08-30T17:41:20Z</time>
      </trkpt>
      <trkpt lat="46.79887" lon="-0.90037">
        <ele>110</ele>
        <time>2023-08-30T17:41:48Z</time>
      </trkpt>
      <trkpt lat="46.79892" lon="-0.90064">
        <ele>111</ele>
        <time>2023-08-30T17:41:51Z</time>
      </trkpt>
      <trkpt lat="46.79895" lon="-0.90107">
        <ele>113</ele>
        <time>2023-08-30T17:41:56Z</time>
      </trkpt>
      <trkpt lat="46.79888" lon="-0.90244">
        <ele>119</ele>
        <time>2023-08-30T17:42:13Z</time>
      </trkpt>
      <trkpt lat="46.79888" lon="-0.90353">
        <ele>122</ele>
        <time>2023-08-30T17:42:26Z</time>
      </trkpt>
      <trkpt lat="46.79876" lon="-0.90444">
        <ele>123</ele>
        <time>2023-08-30T17:42:38Z</time>
      </trkpt>
      <trkpt lat="46.79876" lon="-0.90568">
        <ele>127</ele>
        <time>2023-08-30T17:42:53Z</time>
      </trkpt>
      <trkpt lat="46.79869" lon="-0.90711">
        <ele>133</ele>
        <time>2023-08-30T17:43:10Z</time>
      </trkpt>
      <trkpt lat="46.79862" lon="-0.90738">
        <ele>133</ele>
        <time>2023-08-30T17:43:14Z</time>
      </trkpt>
      <trkpt lat="46.79837" lon="-0.90788">
        <ele>134</ele>
        <time>2023-08-30T17:43:21Z</time>
      </trkpt>
      <trkpt lat="46.79826" lon="-0.90819">
        <ele>133</ele>
        <time>2023-08-30T17:43:25Z</time>
      </trkpt>
      <trkpt lat="46.79814" lon="-0.90895">
        <ele>134</ele>
        <time>2023-08-30T17:43:35Z</time>
      </trkpt>
      <trkpt lat="46.79792" lon="-0.91031">
        <ele>137</ele>
        <time>2023-08-30T17:43:52Z</time>
      </trkpt>
      <trkpt lat="46.79788" lon="-0.91069">
        <ele>138</ele>
        <time>2023-08-30T17:43:57Z</time>
      </trkpt>
      <trkpt lat="46.79788" lon="-0.91086">
        <ele>138</ele>
        <time>2023-08-30T17:43:59Z</time>
      </trkpt>
      <trkpt lat="46.79792" lon="-0.91104">
        <ele>139</ele>
        <time>2023-08-30T17:44:01Z</time>
      </trkpt>
      <trkpt lat="46.798" lon="-0.91124">
        <ele>140</ele>
        <time>2023-08-30T17:44:04Z</time>
      </trkpt>
      <trkpt lat="46.79827" lon="-0.91174">
        <ele>142</ele>
        <time>2023-08-30T17:44:12Z</time>
      </trkpt>
      <trkpt lat="46.79842" lon="-0.91207">
        <ele>142</ele>
        <time>2023-08-30T17:44:16Z</time>
      </trkpt>
      <trkpt lat="46.79845" lon="-0.91224">
        <ele>142</ele>
        <time>2023-08-30T17:44:19Z</time>
      </trkpt>
      <trkpt lat="46.79846" lon="-0.91247">
        <ele>141</ele>
        <time>2023-08-30T17:44:21Z</time>
      </trkpt>
      <trkpt lat="46.79849" lon="-0.91257">
        <ele>141</ele>
        <time>2023-08-30T17:44:23Z</time>
      </trkpt>
      <trkpt lat="46.79853" lon="-0.91263">
        <ele>141</ele>
        <time>2023-08-30T17:44:24Z</time>
      </trkpt>
      <trkpt lat="46.7987" lon="-0.91274">
        <ele>141</ele>
        <time>2023-08-30T17:44:27Z</time>
      </trkpt>
      <trkpt lat="46.79881" lon="-0.91289">
        <ele>141</ele>
        <time>2023-08-30T17:44:30Z</time>
      </trkpt>
      <trkpt lat="46.79898" lon="-0.91316">
        <ele>141</ele>
        <time>2023-08-30T17:44:34Z</time>
      </trkpt>
      <trkpt lat="46.79901" lon="-0.91324">
        <ele>141</ele>
        <time>2023-08-30T17:44:35Z</time>
      </trkpt>
      <trkpt lat="46.79902" lon="-0.91332">
        <ele>140</ele>
        <time>2023-08-30T17:44:36Z</time>
      </trkpt>
      <trkpt lat="46.799" lon="-0.91339">
        <ele>140</ele>
        <time>2023-08-30T17:44:37Z</time>
      </trkpt>
      <trkpt lat="46.7989" lon="-0.91352">
        <ele>140</ele>
        <time>2023-08-30T17:44:40Z</time>
      </trkpt>
      <trkpt lat="46.79855" lon="-0.91378">
        <ele>138</ele>
        <time>2023-08-30T17:44:47Z</time>
      </trkpt>
      <trkpt lat="46.79814" lon="-0.91421">
        <ele>136</ele>
        <time>2023-08-30T17:44:56Z</time>
      </trkpt>
      <trkpt lat="46.79799" lon="-0.9144">
        <ele>136</ele>
        <time>2023-08-30T17:44:59Z</time>
      </trkpt>
      <trkpt lat="46.79795" lon="-0.91451">
        <ele>136</ele>
        <time>2023-08-30T17:45:01Z</time>
      </trkpt>
      <trkpt lat="46.79791" lon="-0.91464">
        <ele>136</ele>
        <time>2023-08-30T17:45:02Z</time>
      </trkpt>
      <trkpt lat="46.79781" lon="-0.9156">
        <ele>136</ele>
        <time>2023-08-30T17:45:14Z</time>
      </trkpt>
      <trkpt lat="46.79777" lon="-0.91582">
        <ele>137</ele>
        <time>2023-08-30T17:45:17Z</time>
      </trkpt>
      <trkpt lat="46.79769" lon="-0.91603">
        <ele>136</ele>
        <time>2023-08-30T17:45:20Z</time>
      </trkpt>
      <trkpt lat="46.79747" lon="-0.91655">
        <ele>136</ele>
        <time>2023-08-30T17:45:27Z</time>
      </trkpt>
      <trkpt lat="46.79736" lon="-0.91692">
        <ele>136</ele>
        <time>2023-08-30T17:45:32Z</time>
      </trkpt>
      <trkpt lat="46.79719" lon="-0.91761">
        <ele>136</ele>
        <time>2023-08-30T17:45:41Z</time>
      </trkpt>
      <trkpt lat="46.79698" lon="-0.91838">
        <ele>133</ele>
        <time>2023-08-30T17:45:51Z</time>
      </trkpt>
      <trkpt lat="46.79692" lon="-0.91877">
        <ele>133</ele>
        <time>2023-08-30T17:45:56Z</time>
      </trkpt>
      <trkpt lat="46.79688" lon="-0.91936">
        <ele>132</ele>
        <time>2023-08-30T17:46:03Z</time>
      </trkpt>
      <trkpt lat="46.79682" lon="-0.92069">
        <ele>129</ele>
        <time>2023-08-30T17:46:20Z</time>
      </trkpt>
      <trkpt lat="46.79678" lon="-0.92096">
        <ele>128</ele>
        <time>2023-08-30T17:46:23Z</time>
      </trkpt>
      <trkpt lat="46.79675" lon="-0.9211">
        <ele>127</ele>
        <time>2023-08-30T17:46:25Z</time>
      </trkpt>
      <trkpt lat="46.7967" lon="-0.92125">
        <ele>126</ele>
        <time>2023-08-30T17:46:27Z</time>
      </trkpt>
      <trkpt lat="46.79662" lon="-0.9214">
        <ele>125</ele>
        <time>2023-08-30T17:46:29Z</time>
      </trkpt>
      <trkpt lat="46.7961" lon="-0.92224">
        <ele>121</ele>
        <time>2023-08-30T17:46:43Z</time>
      </trkpt>
      <trkpt lat="46.7959" lon="-0.92271">
        <ele>120</ele>
        <time>2023-08-30T17:46:50Z</time>
      </trkpt>
      <trkpt lat="46.79552" lon="-0.92392">
        <ele>126</ele>
        <time>2023-08-30T17:47:06Z</time>
      </trkpt>
      <trkpt lat="46.79544" lon="-0.92412">
        <ele>127</ele>
        <time>2023-08-30T17:47:09Z</time>
      </trkpt>
      <trkpt lat="46.79537" lon="-0.92423">
        <ele>127</ele>
        <time>2023-08-30T17:47:11Z</time>
      </trkpt>
      <trkpt lat="46.7953" lon="-0.92431">
        <ele>128</ele>
        <time>2023-08-30T17:47:12Z</time>
      </trkpt>
      <trkpt lat="46.79519" lon="-0.92438">
        <ele>128</ele>
        <time>2023-08-30T17:47:14Z</time>
      </trkpt>
      <trkpt lat="46.79418" lon="-0.92473">
        <ele>124</ele>
        <time>2023-08-30T17:47:33Z</time>
      </trkpt>
      <trkpt lat="46.79429" lon="-0.92541">
        <ele>127</ele>
        <time>2023-08-30T17:47:41Z</time>
      </trkpt>
      <trkpt lat="46.79432" lon="-0.9257">
        <ele>128</ele>
        <time>2023-08-30T17:47:45Z</time>
      </trkpt>
      <trkpt lat="46.7943" lon="-0.92574">
        <ele>128</ele>
        <time>2023-08-30T17:47:45Z</time>
      </trkpt>
      <trkpt lat="46.79436" lon="-0.92582">
        <ele>128</ele>
        <time>2023-08-30T17:47:47Z</time>
      </trkpt>
      <trkpt lat="46.79513" lon="-0.92625">
        <ele>134</ele>
        <time>2023-08-30T17:48:01Z</time>
      </trkpt>
      <trkpt lat="46.7957" lon="-0.92645">
        <ele>136</ele>
        <time>2023-08-30T17:48:12Z</time>
      </trkpt>
      <trkpt lat="46.79601" lon="-0.9265">
        <ele>137</ele>
        <time>2023-08-30T17:48:17Z</time>
      </trkpt>
      <trkpt lat="46.79644" lon="-0.9264">
        <ele>138</ele>
        <time>2023-08-30T17:48:25Z</time>
      </trkpt>
      <trkpt lat="46.79661" lon="-0.92639">
        <ele>138</ele>
        <time>2023-08-30T17:48:28Z</time>
      </trkpt>
      <trkpt lat="46.79717" lon="-0.92652">
        <ele>140</ele>
        <time>2023-08-30T17:48:38Z</time>
      </trkpt>
      <trkpt lat="46.79754" lon="-0.92654">
        <ele>141</ele>
        <time>2023-08-30T17:48:45Z</time>
      </trkpt>
      <trkpt lat="46.79767" lon="-0.92658">
        <ele>141</ele>
        <time>2023-08-30T17:48:47Z</time>
      </trkpt>
      <trkpt lat="46.79784" lon="-0.92664">
        <ele>141</ele>
        <time>2023-08-30T17:48:50Z</time>
      </trkpt>
      <trkpt lat="46.79893" lon="-0.92714">
        <ele>143</ele>
        <time>2023-08-30T17:49:11Z</time>
      </trkpt>
      <trkpt lat="46.80059" lon="-0.92796">
        <ele>138</ele>
        <time>2023-08-30T17:49:42Z</time>
      </trkpt>
      <trkpt lat="46.80083" lon="-0.92814">
        <ele>138</ele>
        <time>2023-08-30T17:49:47Z</time>
      </trkpt>
      <trkpt lat="46.80182" lon="-0.92913">
        <ele>137</ele>
        <time>2023-08-30T17:50:08Z</time>
      </trkpt>
      <trkpt lat="46.80235" lon="-0.9298">
        <ele>137</ele>
        <time>2023-08-30T17:50:21Z</time>
      </trkpt>
      <trkpt lat="46.80256" lon="-0.93011">
        <ele>137</ele>
        <time>2023-08-30T17:50:26Z</time>
      </trkpt>
      <trkpt lat="46.80324" lon="-0.93098">
        <ele>138</ele>
        <time>2023-08-30T17:50:42Z</time>
      </trkpt>
      <trkpt lat="46.80409" lon="-0.93183">
        <ele>140</ele>
        <time>2023-08-30T17:51:00Z</time>
      </trkpt>
      <trkpt lat="46.80437" lon="-0.93216">
        <ele>139</ele>
        <time>2023-08-30T17:51:07Z</time>
      </trkpt>
      <trkpt lat="46.80463" lon="-0.93237">
        <ele>138</ele>
        <time>2023-08-30T17:51:12Z</time>
      </trkpt>
      <trkpt lat="46.80487" lon="-0.93246">
        <ele>137</ele>
        <time>2023-08-30T17:51:16Z</time>
      </trkpt>
      <trkpt lat="46.80544" lon="-0.93253">
        <ele>134</ele>
        <time>2023-08-30T17:51:27Z</time>
      </trkpt>
      <trkpt lat="46.80579" lon="-0.93252">
        <ele>132</ele>
        <time>2023-08-30T17:51:33Z</time>
      </trkpt>
      <trkpt lat="46.8061" lon="-0.93244">
        <ele>130</ele>
        <time>2023-08-30T17:51:38Z</time>
      </trkpt>
      <trkpt lat="46.80711" lon="-0.93194">
        <ele>123</ele>
        <time>2023-08-30T17:51:57Z</time>
      </trkpt>
      <trkpt lat="46.80723" lon="-0.9319">
        <ele>123</ele>
        <time>2023-08-30T17:52:00Z</time>
      </trkpt>
      <trkpt lat="46.80736" lon="-0.9319">
        <ele>122</ele>
        <time>2023-08-30T17:52:02Z</time>
      </trkpt>
      <trkpt lat="46.8075" lon="-0.93193">
        <ele>122</ele>
        <time>2023-08-30T17:52:04Z</time>
      </trkpt>
      <trkpt lat="46.80801" lon="-0.93216">
        <ele>120</ele>
        <time>2023-08-30T17:52:14Z</time>
      </trkpt>
      <trkpt lat="46.80809" lon="-0.9322">
        <ele>120</ele>
        <time>2023-08-30T17:52:15Z</time>
      </trkpt>
      <trkpt lat="46.80846" lon="-0.93241">
        <ele>120</ele>
        <time>2023-08-30T17:52:22Z</time>
      </trkpt>
      <trkpt lat="46.80904" lon="-0.93267">
        <ele>123</ele>
        <time>2023-08-30T17:52:33Z</time>
      </trkpt>
      <trkpt lat="46.8092" lon="-0.9327">
        <ele>124</ele>
        <time>2023-08-30T17:52:36Z</time>
      </trkpt>
      <trkpt lat="46.80954" lon="-0.9327">
        <ele>126</ele>
        <time>2023-08-30T17:52:42Z</time>
      </trkpt>
      <trkpt lat="46.81166" lon="-0.93221">
        <ele>132</ele>
        <time>2023-08-30T17:53:20Z</time>
      </trkpt>
      <trkpt lat="46.812" lon="-0.93217">
        <ele>133</ele>
        <time>2023-08-30T17:53:26Z</time>
      </trkpt>
      <trkpt lat="46.81425" lon="-0.93208">
        <ele>136</ele>
        <time>2023-08-30T17:54:06Z</time>
      </trkpt>
      <trkpt lat="46.81447" lon="-0.93205">
        <ele>137</ele>
        <time>2023-08-30T17:54:10Z</time>
      </trkpt>
      <trkpt lat="46.81485" lon="-0.93189">
        <ele>138</ele>
        <time>2023-08-30T17:54:17Z</time>
      </trkpt>
      <trkpt lat="46.81634" lon="-0.93086">
        <ele>139</ele>
        <time>2023-08-30T17:54:47Z</time>
      </trkpt>
      <trkpt lat="46.81653" lon="-0.93075">
        <ele>139</ele>
        <time>2023-08-30T17:54:50Z</time>
      </trkpt>
      <trkpt lat="46.81675" lon="-0.93067">
        <ele>139</ele>
        <time>2023-08-30T17:54:54Z</time>
      </trkpt>
      <trkpt lat="46.81728" lon="-0.93052">
        <ele>139</ele>
        <time>2023-08-30T17:55:04Z</time>
      </trkpt>
      <trkpt lat="46.81743" lon="-0.93045">
        <ele>139</ele>
        <time>2023-08-30T17:55:07Z</time>
      </trkpt>
      <trkpt lat="46.81759" lon="-0.93035">
        <ele>140</ele>
        <time>2023-08-30T17:55:10Z</time>
      </trkpt>
      <trkpt lat="46.81804" lon="-0.93">
        <ele>141</ele>
        <time>2023-08-30T17:55:19Z</time>
      </trkpt>
      <trkpt lat="46.81824" lon="-0.9299">
        <ele>141</ele>
        <time>2023-08-30T17:55:23Z</time>
      </trkpt>
      <trkpt lat="46.8187" lon="-0.92976">
        <ele>141</ele>
        <time>2023-08-30T17:55:31Z</time>
      </trkpt>
      <trkpt lat="46.81911" lon="-0.92968">
        <ele>140</ele>
        <time>2023-08-30T17:55:38Z</time>
      </trkpt>
      <trkpt lat="46.81949" lon="-0.92966">
        <ele>139</ele>
        <time>2023-08-30T17:55:45Z</time>
      </trkpt>
      <trkpt lat="46.81974" lon="-0.92971">
        <ele>139</ele>
        <time>2023-08-30T17:55:50Z</time>
      </trkpt>
      <trkpt lat="46.82009" lon="-0.92991">
        <ele>138</ele>
        <time>2023-08-30T17:55:56Z</time>
      </trkpt>
      <trkpt lat="46.82115" lon="-0.93102">
        <ele>131</ele>
        <time>2023-08-30T17:56:20Z</time>
      </trkpt>
      <trkpt lat="46.82133" lon="-0.93114">
        <ele>130</ele>
        <time>2023-08-30T17:56:23Z</time>
      </trkpt>
      <trkpt lat="46.82165" lon="-0.93128">
        <ele>129</ele>
        <time>2023-08-30T17:56:29Z</time>
      </trkpt>
      <trkpt lat="46.8223" lon="-0.93147">
        <ele>127</ele>
        <time>2023-08-30T17:56:41Z</time>
      </trkpt>
      <trkpt lat="46.82266" lon="-0.9315">
        <ele>126</ele>
        <time>2023-08-30T17:56:47Z</time>
      </trkpt>
      <trkpt lat="46.8231" lon="-0.93146">
        <ele>126</ele>
        <time>2023-08-30T17:56:55Z</time>
      </trkpt>
      <trkpt lat="46.82334" lon="-0.9314">
        <ele>126</ele>
        <time>2023-08-30T17:56:59Z</time>
      </trkpt>
      <trkpt lat="46.82385" lon="-0.9312">
        <ele>125</ele>
        <time>2023-08-30T17:57:09Z</time>
      </trkpt>
      <trkpt lat="46.82405" lon="-0.93116">
        <ele>125</ele>
        <time>2023-08-30T17:57:12Z</time>
      </trkpt>
      <trkpt lat="46.82424" lon="-0.93115">
        <ele>125</ele>
        <time>2023-08-30T17:57:16Z</time>
      </trkpt>
      <trkpt lat="46.8248" lon="-0.93119">
        <ele>127</ele>
        <time>2023-08-30T17:57:26Z</time>
      </trkpt>
      <trkpt lat="46.82662" lon="-0.93136">
        <ele>137</ele>
        <time>2023-08-30T17:57:58Z</time>
      </trkpt>
      <trkpt lat="46.82686" lon="-0.93141">
        <ele>137</ele>
        <time>2023-08-30T17:58:03Z</time>
      </trkpt>
      <trkpt lat="46.82747" lon="-0.93162">
        <ele>135</ele>
        <time>2023-08-30T17:58:14Z</time>
      </trkpt>
      <trkpt lat="46.82793" lon="-0.93186">
        <ele>134</ele>
        <time>2023-08-30T17:58:22Z</time>
      </trkpt>
      <trkpt lat="46.82877" lon="-0.93254">
        <ele>133</ele>
        <time>2023-08-30T17:58:39Z</time>
      </trkpt>
      <trkpt lat="46.82912" lon="-0.9327">
        <ele>135</ele>
        <time>2023-08-30T17:58:46Z</time>
      </trkpt>
      <trkpt lat="46.82927" lon="-0.93273">
        <ele>135</ele>
        <time>2023-08-30T17:58:49Z</time>
      </trkpt>
      <trkpt lat="46.83" lon="-0.93277">
        <ele>138</ele>
        <time>2023-08-30T17:59:02Z</time>
      </trkpt>
      <trkpt lat="46.83242" lon="-0.93283">
        <ele>149</ele>
        <time>2023-08-30T17:59:45Z</time>
      </trkpt>
      <trkpt lat="46.83282" lon="-0.93286">
        <ele>151</ele>
        <time>2023-08-30T17:59:52Z</time>
      </trkpt>
      <trkpt lat="46.83305" lon="-0.93284">
        <ele>152</ele>
        <time>2023-08-30T17:59:56Z</time>
      </trkpt>
      <trkpt lat="46.83348" lon="-0.93273">
        <ele>154</ele>
        <time>2023-08-30T18:00:04Z</time>
      </trkpt>
      <trkpt lat="46.83397" lon="-0.93282">
        <ele>156</ele>
        <time>2023-08-30T18:00:13Z</time>
      </trkpt>
      <trkpt lat="46.83449" lon="-0.93279">
        <ele>157</ele>
        <time>2023-08-30T18:00:22Z</time>
      </trkpt>
      <trkpt lat="46.83503" lon="-0.93267">
        <ele>157</ele>
        <time>2023-08-30T18:00:32Z</time>
      </trkpt>
      <trkpt lat="46.83539" lon="-0.93263">
        <ele>158</ele>
        <time>2023-08-30T18:00:38Z</time>
      </trkpt>
      <trkpt lat="46.83557" lon="-0.93266">
        <ele>159</ele>
        <time>2023-08-30T18:00:41Z</time>
      </trkpt>
      <trkpt lat="46.83575" lon="-0.93273">
        <ele>160</ele>
        <time>2023-08-30T18:00:44Z</time>
      </trkpt>
      <trkpt lat="46.83648" lon="-0.93302">
        <ele>163</ele>
        <time>2023-08-30T18:00:58Z</time>
      </trkpt>
      <trkpt lat="46.83764" lon="-0.93326">
        <ele>164</ele>
        <time>2023-08-30T18:01:19Z</time>
      </trkpt>
      <trkpt lat="46.83799" lon="-0.93326">
        <ele>164</ele>
        <time>2023-08-30T18:01:25Z</time>
      </trkpt>
      <trkpt lat="46.8391" lon="-0.93305">
        <ele>164</ele>
        <time>2023-08-30T18:01:45Z</time>
      </trkpt>
      <trkpt lat="46.83978" lon="-0.93278">
        <ele>165</ele>
        <time>2023-08-30T18:01:57Z</time>
      </trkpt>
      <trkpt lat="46.83991" lon="-0.93278">
        <ele>165</ele>
        <time>2023-08-30T18:02:00Z</time>
      </trkpt>
      <trkpt lat="46.84003" lon="-0.9328">
        <ele>165</ele>
        <time>2023-08-30T18:02:02Z</time>
      </trkpt>
      <trkpt lat="46.84027" lon="-0.9329">
        <ele>165</ele>
        <time>2023-08-30T18:02:06Z</time>
      </trkpt>
      <trkpt lat="46.84089" lon="-0.93325">
        <ele>164</ele>
        <time>2023-08-30T18:02:18Z</time>
      </trkpt>
      <trkpt lat="46.84113" lon="-0.93335">
        <ele>165</ele>
        <time>2023-08-30T18:02:23Z</time>
      </trkpt>
      <trkpt lat="46.84139" lon="-0.93343">
        <ele>165</ele>
        <time>2023-08-30T18:02:27Z</time>
      </trkpt>
      <trkpt lat="46.84286" lon="-0.9337">
        <ele>164</ele>
        <time>2023-08-30T18:02:54Z</time>
      </trkpt>
      <trkpt lat="46.84303" lon="-0.9337">
        <ele>164</ele>
        <time>2023-08-30T18:02:57Z</time>
      </trkpt>
      <trkpt lat="46.84319" lon="-0.93367">
        <ele>165</ele>
        <time>2023-08-30T18:03:00Z</time>
      </trkpt>
      <trkpt lat="46.84338" lon="-0.93361">
        <ele>165</ele>
        <time>2023-08-30T18:03:03Z</time>
      </trkpt>
      <trkpt lat="46.84406" lon="-0.93322">
        <ele>165</ele>
        <time>2023-08-30T18:03:16Z</time>
      </trkpt>
      <trkpt lat="46.84591" lon="-0.93209">
        <ele>170</ele>
        <time>2023-08-30T18:03:52Z</time>
      </trkpt>
      <trkpt lat="46.84675" lon="-0.93155">
        <ele>168</ele>
        <time>2023-08-30T18:04:08Z</time>
      </trkpt>
      <trkpt lat="46.84759" lon="-0.93112">
        <ele>169</ele>
        <time>2023-08-30T18:04:24Z</time>
      </trkpt>
      <trkpt lat="46.84795" lon="-0.93101">
        <ele>169</ele>
        <time>2023-08-30T18:04:30Z</time>
      </trkpt>
      <trkpt lat="46.84868" lon="-0.93094">
        <ele>169</ele>
        <time>2023-08-30T18:04:43Z</time>
      </trkpt>
      <trkpt lat="46.84893" lon="-0.93098">
        <ele>169</ele>
        <time>2023-08-30T18:04:48Z</time>
      </trkpt>
      <trkpt lat="46.85005" lon="-0.93161">
        <ele>169</ele>
        <time>2023-08-30T18:05:09Z</time>
      </trkpt>
      <trkpt lat="46.85019" lon="-0.93166">
        <ele>169</ele>
        <time>2023-08-30T18:05:12Z</time>
      </trkpt>
      <trkpt lat="46.85032" lon="-0.93162">
        <ele>169</ele>
        <time>2023-08-30T18:05:14Z</time>
      </trkpt>
      <trkpt lat="46.85085" lon="-0.93368">
        <ele>162</ele>
        <time>2023-08-30T18:05:41Z</time>
      </trkpt>
      <trkpt lat="46.85115" lon="-0.93521">
        <ele>160</ele>
        <time>2023-08-30T18:06:00Z</time>
      </trkpt>
      <trkpt lat="46.8516" lon="-0.93782">
        <ele>154</ele>
        <time>2023-08-30T18:06:33Z</time>
      </trkpt>
      <trkpt lat="46.85174" lon="-0.93895">
        <ele>148</ele>
        <time>2023-08-30T18:06:47Z</time>
      </trkpt>
      <trkpt lat="46.8518" lon="-0.93973">
        <ele>146</ele>
        <time>2023-08-30T18:06:57Z</time>
      </trkpt>
      <trkpt lat="46.85181" lon="-0.94024">
        <ele>146</ele>
        <time>2023-08-30T18:07:03Z</time>
      </trkpt>
      <trkpt lat="46.8518" lon="-0.94152">
        <ele>145</ele>
        <time>2023-08-30T18:07:18Z</time>
      </trkpt>
      <trkpt lat="46.85174" lon="-0.9428">
        <ele>142</ele>
        <time>2023-08-30T18:07:34Z</time>
      </trkpt>
      <trkpt lat="46.85165" lon="-0.94357">
        <ele>139</ele>
        <time>2023-08-30T18:07:44Z</time>
      </trkpt>
      <trkpt lat="46.85153" lon="-0.94435">
        <ele>137</ele>
        <time>2023-08-30T18:07:53Z</time>
      </trkpt>
      <trkpt lat="46.85125" lon="-0.94585">
        <ele>132</ele>
        <time>2023-08-30T18:08:12Z</time>
      </trkpt>
      <trkpt lat="46.85112" lon="-0.94638">
        <ele>131</ele>
        <time>2023-08-30T18:08:19Z</time>
      </trkpt>
      <trkpt lat="46.85079" lon="-0.94748">
        <ele>129</ele>
        <time>2023-08-30T18:08:34Z</time>
      </trkpt>
      <trkpt lat="46.8507" lon="-0.94787">
        <ele>129</ele>
        <time>2023-08-30T18:08:39Z</time>
      </trkpt>
      <trkpt lat="46.85057" lon="-0.94862">
        <ele>128</ele>
        <time>2023-08-30T18:08:48Z</time>
      </trkpt>
      <trkpt lat="46.85047" lon="-0.94956">
        <ele>125</ele>
        <time>2023-08-30T18:09:00Z</time>
      </trkpt>
      <trkpt lat="46.85045" lon="-0.95008">
        <ele>124</ele>
        <time>2023-08-30T18:09:06Z</time>
      </trkpt>
      <trkpt lat="46.85044" lon="-0.95044">
        <ele>122</ele>
        <time>2023-08-30T18:09:10Z</time>
      </trkpt>
      <trkpt lat="46.85046" lon="-0.95081">
        <ele>121</ele>
        <time>2023-08-30T18:09:15Z</time>
      </trkpt>
      <trkpt lat="46.85049" lon="-0.95118">
        <ele>121</ele>
        <time>2023-08-30T18:09:19Z</time>
      </trkpt>
      <trkpt lat="46.85054" lon="-0.95155">
        <ele>121</ele>
        <time>2023-08-30T18:09:24Z</time>
      </trkpt>
      <trkpt lat="46.8507" lon="-0.95223">
        <ele>121</ele>
        <time>2023-08-30T18:09:33Z</time>
      </trkpt>
      <trkpt lat="46.85103" lon="-0.95322">
        <ele>120</ele>
        <time>2023-08-30T18:09:46Z</time>
      </trkpt>
      <trkpt lat="46.85131" lon="-0.95388">
        <ele>120</ele>
        <time>2023-08-30T18:09:56Z</time>
      </trkpt>
      <trkpt lat="46.85165" lon="-0.95452">
        <ele>117</ele>
        <time>2023-08-30T18:10:06Z</time>
      </trkpt>
      <trkpt lat="46.85216" lon="-0.95532">
        <ele>112</ele>
        <time>2023-08-30T18:10:19Z</time>
      </trkpt>
      <trkpt lat="46.85238" lon="-0.95565">
        <ele>110</ele>
        <time>2023-08-30T18:10:24Z</time>
      </trkpt>
      <trkpt lat="46.85255" lon="-0.95588">
        <ele>108</ele>
        <time>2023-08-30T18:10:29Z</time>
      </trkpt>
      <trkpt lat="46.85289" lon="-0.95626">
        <ele>105</ele>
        <time>2023-08-30T18:10:36Z</time>
      </trkpt>
      <trkpt lat="46.85339" lon="-0.95675">
        <ele>101</ele>
        <time>2023-08-30T18:10:47Z</time>
      </trkpt>
      <trkpt lat="46.85419" lon="-0.95758">
        <ele>105</ele>
        <time>2023-08-30T18:11:04Z</time>
      </trkpt>
      <trkpt lat="46.85455" lon="-0.95802">
        <ele>107</ele>
        <time>2023-08-30T18:11:13Z</time>
      </trkpt>
      <trkpt lat="46.85503" lon="-0.9587">
        <ele>109</ele>
        <time>2023-08-30T18:11:25Z</time>
      </trkpt>
      <trkpt lat="46.85521" lon="-0.95899">
        <ele>108</ele>
        <time>2023-08-30T18:11:29Z</time>
      </trkpt>
      <trkpt lat="46.85593" lon="-0.96019">
        <ele>109</ele>
        <time>2023-08-30T18:11:49Z</time>
      </trkpt>
      <trkpt lat="46.86183" lon="-0.9706">
        <ele>137</ele>
        <time>2023-08-30T18:14:33Z</time>
      </trkpt>
      <trkpt lat="46.86221" lon="-0.97131">
        <ele>137</ele>
        <time>2023-08-30T18:14:44Z</time>
      </trkpt>
      <trkpt lat="46.86237" lon="-0.97154">
        <ele>137</ele>
        <time>2023-08-30T18:14:48Z</time>
      </trkpt>
      <trkpt lat="46.86247" lon="-0.97162">
        <ele>137</ele>
        <time>2023-08-30T18:14:50Z</time>
      </trkpt>
      <trkpt lat="46.86261" lon="-0.97164">
        <ele>137</ele>
        <time>2023-08-30T18:14:53Z</time>
      </trkpt>
      <trkpt lat="46.8627" lon="-0.97172">
        <ele>138</ele>
        <time>2023-08-30T18:14:55Z</time>
      </trkpt>
      <trkpt lat="46.86275" lon="-0.9718">
        <ele>138</ele>
        <time>2023-08-30T18:14:56Z</time>
      </trkpt>
      <trkpt lat="46.86278" lon="-0.97193">
        <ele>138</ele>
        <time>2023-08-30T18:14:58Z</time>
      </trkpt>
      <trkpt lat="46.86278" lon="-0.97207">
        <ele>137</ele>
        <time>2023-08-30T18:14:59Z</time>
      </trkpt>
      <trkpt lat="46.86277" lon="-0.97214">
        <ele>137</ele>
        <time>2023-08-30T18:15:00Z</time>
      </trkpt>
      <trkpt lat="46.86281" lon="-0.97233">
        <ele>137</ele>
        <time>2023-08-30T18:15:03Z</time>
      </trkpt>
      <trkpt lat="46.86289" lon="-0.97252">
        <ele>137</ele>
        <time>2023-08-30T18:15:05Z</time>
      </trkpt>
      <trkpt lat="46.863" lon="-0.97267">
        <ele>137</ele>
        <time>2023-08-30T18:15:08Z</time>
      </trkpt>
      <trkpt lat="46.86454" lon="-0.97538">
        <ele>144</ele>
        <time>2023-08-30T18:15:51Z</time>
      </trkpt>
      <trkpt lat="46.8647" lon="-0.97569">
        <ele>146</ele>
        <time>2023-08-30T18:15:56Z</time>
      </trkpt>
      <trkpt lat="46.86498" lon="-0.9763">
        <ele>148</ele>
        <time>2023-08-30T18:16:05Z</time>
      </trkpt>
      <trkpt lat="46.8653" lon="-0.97712">
        <ele>149</ele>
        <time>2023-08-30T18:16:16Z</time>
      </trkpt>
      <trkpt lat="46.86545" lon="-0.97754">
        <ele>149</ele>
        <time>2023-08-30T18:16:22Z</time>
      </trkpt>
      <trkpt lat="46.86572" lon="-0.97844">
        <ele>151</ele>
        <time>2023-08-30T18:16:34Z</time>
      </trkpt>
      <trkpt lat="46.86596" lon="-0.97947">
        <ele>152</ele>
        <time>2023-08-30T18:16:47Z</time>
      </trkpt>
      <trkpt lat="46.86608" lon="-0.98008">
        <ele>152</ele>
        <time>2023-08-30T18:16:55Z</time>
      </trkpt>
      <trkpt lat="46.86618" lon="-0.98076">
        <ele>151</ele>
        <time>2023-08-30T18:17:03Z</time>
      </trkpt>
      <trkpt lat="46.86624" lon="-0.98135">
        <ele>150</ele>
        <time>2023-08-30T18:17:10Z</time>
      </trkpt>
      <trkpt lat="46.86629" lon="-0.98233">
        <ele>147</ele>
        <time>2023-08-30T18:17:22Z</time>
      </trkpt>
      <trkpt lat="46.86631" lon="-0.98434">
        <ele>145</ele>
        <time>2023-08-30T18:17:47Z</time>
      </trkpt>
      <trkpt lat="46.86623" lon="-0.98433">
        <ele>146</ele>
        <time>2023-08-30T18:17:48Z</time>
      </trkpt>
      <trkpt lat="46.86617" lon="-0.98437">
        <ele>147</ele>
        <time>2023-08-30T18:17:49Z</time>
      </trkpt>
      <trkpt lat="46.86611" lon="-0.98442">
        <ele>148</ele>
        <time>2023-08-30T18:17:51Z</time>
      </trkpt>
      <trkpt lat="46.86601" lon="-0.98456">
        <ele>149</ele>
        <time>2023-08-30T18:17:53Z</time>
      </trkpt>
      <trkpt lat="46.86563" lon="-0.98597">
        <ele>148</ele>
        <time>2023-08-30T18:18:12Z</time>
      </trkpt>
      <trkpt lat="46.86527" lon="-0.98706">
        <ele>145</ele>
        <time>2023-08-30T18:18:26Z</time>
      </trkpt>
      <trkpt lat="46.86514" lon="-0.98737">
        <ele>145</ele>
        <time>2023-08-30T18:18:31Z</time>
      </trkpt>
      <trkpt lat="46.86448" lon="-0.98872">
        <ele>139</ele>
        <time>2023-08-30T18:18:51Z</time>
      </trkpt>
      <trkpt lat="46.8644" lon="-0.98872">
        <ele>139</ele>
        <time>2023-08-30T18:18:52Z</time>
      </trkpt>
      <trkpt lat="46.86437" lon="-0.98874">
        <ele>138</ele>
        <time>2023-08-30T18:18:53Z</time>
      </trkpt>
      <trkpt lat="46.8638" lon="-0.98991">
        <ele>132</ele>
        <time>2023-08-30T18:19:10Z</time>
      </trkpt>
      <trkpt lat="46.86364" lon="-0.99029">
        <ele>131</ele>
        <time>2023-08-30T18:19:16Z</time>
      </trkpt>
      <trkpt lat="46.86349" lon="-0.99071">
        <ele>130</ele>
        <time>2023-08-30T18:19:22Z</time>
      </trkpt>
      <trkpt lat="46.86335" lon="-0.99116">
        <ele>129</ele>
        <time>2023-08-30T18:19:28Z</time>
      </trkpt>
      <trkpt lat="46.86325" lon="-0.9916">
        <ele>128</ele>
        <time>2023-08-30T18:19:33Z</time>
      </trkpt>
      <trkpt lat="46.86312" lon="-0.99223">
        <ele>126</ele>
        <time>2023-08-30T18:19:41Z</time>
      </trkpt>
      <trkpt lat="46.8622" lon="-0.99703">
        <ele>121</ele>
        <time>2023-08-30T18:20:42Z</time>
      </trkpt>
      <trkpt lat="46.86212" lon="-0.99725">
        <ele>120</ele>
        <time>2023-08-30T18:20:45Z</time>
      </trkpt>
      <trkpt lat="46.86221" lon="-0.99734">
        <ele>120</ele>
        <time>2023-08-30T18:20:47Z</time>
      </trkpt>
      <trkpt lat="46.86212" lon="-0.99771">
        <ele>120</ele>
        <time>2023-08-30T18:20:52Z</time>
      </trkpt>
      <trkpt lat="46.86171" lon="-0.99914">
        <ele>118</ele>
        <time>2023-08-30T18:21:10Z</time>
      </trkpt>
      <trkpt lat="46.8604" lon="-1.0041">
        <ele>115</ele>
        <time>2023-08-30T18:22:15Z</time>
      </trkpt>
      <trkpt lat="46.8614" lon="-1.00466">
        <ele>116</ele>
        <time>2023-08-30T18:22:34Z</time>
      </trkpt>
      <trkpt lat="46.86172" lon="-1.0049">
        <ele>115</ele>
        <time>2023-08-30T18:22:41Z</time>
      </trkpt>
      <trkpt lat="46.86191" lon="-1.00521">
        <ele>115</ele>
        <time>2023-08-30T18:22:46Z</time>
      </trkpt>
      <trkpt lat="46.86209" lon="-1.00578">
        <ele>116</ele>
        <time>2023-08-30T18:22:53Z</time>
      </trkpt>
      <trkpt lat="46.86235" lon="-1.00681">
        <ele>117</ele>
        <time>2023-08-30T18:23:07Z</time>
      </trkpt>
      <trkpt lat="46.86271" lon="-1.00663">
        <ele>118</ele>
        <time>2023-08-30T18:23:13Z</time>
      </trkpt>
      <trkpt lat="46.86324" lon="-1.00626">
        <ele>119</ele>
        <time>2023-08-30T18:23:24Z</time>
      </trkpt>
      <trkpt lat="46.86386" lon="-1.00559">
        <ele>120</ele>
        <time>2023-08-30T18:23:38Z</time>
      </trkpt>
    </trkseg>
  </trk>
</gpx>